<?xml version="1.0" encoding="utf-8"?>
<gpx xmlns:xsi="http://www.w3.org/2001/XMLSchema-instance" xmlns:xsd="http://www.w3.org/2001/XMLSchema" version="1.1" creator="Shapelink.com" xmlns="http://www.topografix.com/GPX/1/1" xmlns:gpxtpx="http://www.garmin.com/xmlschemas/TrackPointExtension/v1">
  <metadata>
    <name>Running 8.14 km, 2010-11-18</name>
    <desc></desc>
    <author><name>Jojje Borssén</name></author> 
    <time>2010-11-18T09:15:13Z</time>
  </metadata>
  <trk>
    <name>Running 8.14 km, 2010-11-18</name>
    <trkseg>
      <trkpt lat="59.3031070812" lon="18.0893310165">
        <ele>0</ele>
        <time>2010-11-18T09:15:13Z</time>
      </trkpt>
      <trkpt lat="59.3031641619" lon="18.0893212097">
        <ele>0</ele>
        <time>2010-11-18T09:15:15Z</time>
      </trkpt>
      <trkpt lat="59.3032578716" lon="18.0893716687">
        <ele>0</ele>
        <time>2010-11-18T09:15:17Z</time>
      </trkpt>
      <trkpt lat="59.3033682612" lon="18.0894287495">
        <ele>0</ele>
        <time>2010-11-18T09:15:20Z</time>
      </trkpt>
      <trkpt lat="59.3034547624" lon="18.0893907795">
        <ele>0</ele>
        <time>2010-11-18T09:15:23Z</time>
      </trkpt>
      <trkpt lat="59.3035155312" lon="18.089360437">
        <ele>0</ele>
        <time>2010-11-18T09:15:25Z</time>
      </trkpt>
      <trkpt lat="59.3036027029" lon="18.0893824814">
        <ele>0</ele>
        <time>2010-11-18T09:15:27Z</time>
      </trkpt>
      <trkpt lat="59.3036547545" lon="18.0893984908">
        <ele>0</ele>
        <time>2010-11-18T09:15:28Z</time>
      </trkpt>
      <trkpt lat="59.3037866018" lon="18.0894022627">
        <ele>0</ele>
        <time>2010-11-18T09:15:32Z</time>
      </trkpt>
      <trkpt lat="59.3038197941" lon="18.089379883">
        <ele>0</ele>
        <time>2010-11-18T09:15:34Z</time>
      </trkpt>
      <trkpt lat="59.3038450237" lon="18.0893533124">
        <ele>0</ele>
        <time>2010-11-18T09:15:36Z</time>
      </trkpt>
      <trkpt lat="59.3038435987" lon="18.0892740196">
        <ele>0</ele>
        <time>2010-11-18T09:15:38Z</time>
      </trkpt>
      <trkpt lat="59.3038487117" lon="18.0892404082">
        <ele>0</ele>
        <time>2010-11-18T09:15:39Z</time>
      </trkpt>
      <trkpt lat="59.3038751147" lon="18.0891562539">
        <ele>0</ele>
        <time>2010-11-18T09:15:41Z</time>
      </trkpt>
      <trkpt lat="59.3038893639" lon="18.089102945">
        <ele>0</ele>
        <time>2010-11-18T09:15:42Z</time>
      </trkpt>
      <trkpt lat="59.303924987" lon="18.0889863528">
        <ele>0</ele>
        <time>2010-11-18T09:15:45Z</time>
      </trkpt>
      <trkpt lat="59.3039689081" lon="18.0888889551">
        <ele>0</ele>
        <time>2010-11-18T09:15:47Z</time>
      </trkpt>
      <trkpt lat="59.303996317" lon="18.0888494764">
        <ele>0</ele>
        <time>2010-11-18T09:15:48Z</time>
      </trkpt>
      <trkpt lat="59.304091703" lon="18.0887580298">
        <ele>0</ele>
        <time>2010-11-18T09:15:51Z</time>
      </trkpt>
      <trkpt lat="59.3041266555" lon="18.08869592">
        <ele>0</ele>
        <time>2010-11-18T09:15:52Z</time>
      </trkpt>
      <trkpt lat="59.304190777" lon="18.0885464707">
        <ele>0</ele>
        <time>2010-11-18T09:15:55Z</time>
      </trkpt>
      <trkpt lat="59.3042283279" lon="18.0884651663">
        <ele>0</ele>
        <time>2010-11-18T09:15:57Z</time>
      </trkpt>
      <trkpt lat="59.304277865" lon="18.088414791">
        <ele>0</ele>
        <time>2010-11-18T09:15:59Z</time>
      </trkpt>
      <trkpt lat="59.3043304195" lon="18.0883629071">
        <ele>0</ele>
        <time>2010-11-18T09:16:01Z</time>
      </trkpt>
      <trkpt lat="59.3043733348" lon="18.0882732208">
        <ele>0</ele>
        <time>2010-11-18T09:16:03Z</time>
      </trkpt>
      <trkpt lat="59.304406611" lon="18.0881626635">
        <ele>0</ele>
        <time>2010-11-18T09:16:05Z</time>
      </trkpt>
      <trkpt lat="59.3044187647" lon="18.088028134">
        <ele>1.6</ele>
        <time>2010-11-18T09:16:07Z</time>
      </trkpt>
      <trkpt lat="59.3044165854" lon="18.0879218515">
        <ele>4.2</ele>
        <time>2010-11-18T09:16:09Z</time>
      </trkpt>
      <trkpt lat="59.3043967203" lon="18.0877999787">
        <ele>7.6</ele>
        <time>2010-11-18T09:16:12Z</time>
      </trkpt>
      <trkpt lat="59.3043711555" lon="18.0876915169">
        <ele>9.4</ele>
        <time>2010-11-18T09:16:14Z</time>
      </trkpt>
      <trkpt lat="59.3043571578" lon="18.0875873299">
        <ele>11.2</ele>
        <time>2010-11-18T09:16:16Z</time>
      </trkpt>
      <trkpt lat="59.3043402263" lon="18.0874717435">
        <ele>12.8</ele>
        <time>2010-11-18T09:16:18Z</time>
      </trkpt>
      <trkpt lat="59.3043066149" lon="18.0873481943">
        <ele>14.8</ele>
        <time>2010-11-18T09:16:21Z</time>
      </trkpt>
      <trkpt lat="59.3042813016" lon="18.0872531435">
        <ele>16.2</ele>
        <time>2010-11-18T09:16:23Z</time>
      </trkpt>
      <trkpt lat="59.3042594248" lon="18.0871601044">
        <ele>17.2</ele>
        <time>2010-11-18T09:16:25Z</time>
      </trkpt>
      <trkpt lat="59.3042388891" lon="18.0870677359">
        <ele>18</ele>
        <time>2010-11-18T09:16:27Z</time>
      </trkpt>
      <trkpt lat="59.3042181859" lon="18.086965812">
        <ele>19.2</ele>
        <time>2010-11-18T09:16:29Z</time>
      </trkpt>
      <trkpt lat="59.3042056968" lon="18.0868529078">
        <ele>20</ele>
        <time>2010-11-18T09:16:31Z</time>
      </trkpt>
      <trkpt lat="59.304189855" lon="18.0867429373">
        <ele>20.8</ele>
        <time>2010-11-18T09:16:33Z</time>
      </trkpt>
      <trkpt lat="59.3041695708" lon="18.0866440308">
        <ele>21.4</ele>
        <time>2010-11-18T09:16:35Z</time>
      </trkpt>
      <trkpt lat="59.304151885" lon="18.0865496507">
        <ele>21.8</ele>
        <time>2010-11-18T09:16:37Z</time>
      </trkpt>
      <trkpt lat="59.3041432517" lon="18.086491145">
        <ele>22.2</ele>
        <time>2010-11-18T09:16:38Z</time>
      </trkpt>
      <trkpt lat="59.3041143341" lon="18.0863565317">
        <ele>23.2</ele>
        <time>2010-11-18T09:16:41Z</time>
      </trkpt>
      <trkpt lat="59.3040764479" lon="18.0862180627">
        <ele>24</ele>
        <time>2010-11-18T09:16:44Z</time>
      </trkpt>
      <trkpt lat="59.3040478656" lon="18.0861222576">
        <ele>24.4</ele>
        <time>2010-11-18T09:16:46Z</time>
      </trkpt>
      <trkpt lat="59.3040147571" lon="18.0860357564">
        <ele>24.6</ele>
        <time>2010-11-18T09:16:48Z</time>
      </trkpt>
      <trkpt lat="59.304006962" lon="18.0860017259">
        <ele>24.8</ele>
        <time>2010-11-18T09:16:49Z</time>
      </trkpt>
      <trkpt lat="59.3040053694" lon="18.0858964492">
        <ele>25</ele>
        <time>2010-11-18T09:16:52Z</time>
      </trkpt>
      <trkpt lat="59.30398936" lon="18.0857871492">
        <ele>25.2</ele>
        <time>2010-11-18T09:16:55Z</time>
      </trkpt>
      <trkpt lat="59.3039790502" lon="18.0857422222">
        <ele>25.4</ele>
        <time>2010-11-18T09:16:56Z</time>
      </trkpt>
      <trkpt lat="59.3039289265" lon="18.0855329262">
        <ele>25.6</ele>
        <time>2010-11-18T09:17:00Z</time>
      </trkpt>
      <trkpt lat="59.3039012662" lon="18.0854239615">
        <ele>25.6</ele>
        <time>2010-11-18T09:17:02Z</time>
      </trkpt>
      <trkpt lat="59.3038741089" lon="18.0853183495">
        <ele>25.6</ele>
        <time>2010-11-18T09:17:04Z</time>
      </trkpt>
      <trkpt lat="59.3038487117" lon="18.0852044395">
        <ele>25.6</ele>
        <time>2010-11-18T09:17:06Z</time>
      </trkpt>
      <trkpt lat="59.3038264997" lon="18.0850903619">
        <ele>25.8</ele>
        <time>2010-11-18T09:17:08Z</time>
      </trkpt>
      <trkpt lat="59.3037997614" lon="18.0849854205">
        <ele>25.8</ele>
        <time>2010-11-18T09:17:10Z</time>
      </trkpt>
      <trkpt lat="59.3037690836" lon="18.0848751985">
        <ele>25.8</ele>
        <time>2010-11-18T09:17:12Z</time>
      </trkpt>
      <trkpt lat="59.3037317004" lon="18.0847684131">
        <ele>25.8</ele>
        <time>2010-11-18T09:17:14Z</time>
      </trkpt>
      <trkpt lat="59.3036932275" lon="18.0846652319">
        <ele>25.4</ele>
        <time>2010-11-18T09:17:16Z</time>
      </trkpt>
      <trkpt lat="59.3036571853" lon="18.0845529144">
        <ele>25</ele>
        <time>2010-11-18T09:17:18Z</time>
      </trkpt>
      <trkpt lat="59.3036326263" lon="18.0844571931">
        <ele>24.8</ele>
        <time>2010-11-18T09:17:20Z</time>
      </trkpt>
      <trkpt lat="59.303622568" lon="18.0843662495">
        <ele>24.4</ele>
        <time>2010-11-18T09:17:22Z</time>
      </trkpt>
      <trkpt lat="59.3036154434" lon="18.0842788263">
        <ele>24</ele>
        <time>2010-11-18T09:17:24Z</time>
      </trkpt>
      <trkpt lat="59.3036051337" lon="18.0841544389">
        <ele>23.4</ele>
        <time>2010-11-18T09:17:27Z</time>
      </trkpt>
      <trkpt lat="59.3035890404" lon="18.0840561192">
        <ele>23</ele>
        <time>2010-11-18T09:17:29Z</time>
      </trkpt>
      <trkpt lat="59.3035571892" lon="18.0839034848">
        <ele>22.6</ele>
        <time>2010-11-18T09:17:32Z</time>
      </trkpt>
      <trkpt lat="59.3035292775" lon="18.0838035726">
        <ele>22.4</ele>
        <time>2010-11-18T09:17:34Z</time>
      </trkpt>
      <trkpt lat="59.3035015334" lon="18.0837132157">
        <ele>21.8</ele>
        <time>2010-11-18T09:17:36Z</time>
      </trkpt>
      <trkpt lat="59.303439675" lon="18.0834792769">
        <ele>21</ele>
        <time>2010-11-18T09:17:41Z</time>
      </trkpt>
      <trkpt lat="59.3034126014" lon="18.08337685">
        <ele>20.6</ele>
        <time>2010-11-18T09:17:43Z</time>
      </trkpt>
      <trkpt lat="59.3033892998" lon="18.0832892592">
        <ele>20.4</ele>
        <time>2010-11-18T09:17:45Z</time>
      </trkpt>
      <trkpt lat="59.3033520841" lon="18.0831423245">
        <ele>19.8</ele>
        <time>2010-11-18T09:17:48Z</time>
      </trkpt>
      <trkpt lat="59.3033421935" lon="18.0830922845">
        <ele>19.6</ele>
        <time>2010-11-18T09:17:49Z</time>
      </trkpt>
      <trkpt lat="59.3033027147" lon="18.0829796318">
        <ele>19</ele>
        <time>2010-11-18T09:17:52Z</time>
      </trkpt>
      <trkpt lat="59.3032895551" lon="18.0829375547">
        <ele>18.8</ele>
        <time>2010-11-18T09:17:53Z</time>
      </trkpt>
      <trkpt lat="59.3032467236" lon="18.0828181964">
        <ele>18.2</ele>
        <time>2010-11-18T09:17:56Z</time>
        <extensions><gpxtpx:TrackPointExtension><gpxtpx:hr>159</gpxtpx:hr></gpxtpx:TrackPointExtension></extensions>
      </trkpt>
      <trkpt lat="59.303234989" lon="18.0827687432">
        <ele>17.8</ele>
        <time>2010-11-18T09:17:57Z</time>
        <extensions><gpxtpx:TrackPointExtension><gpxtpx:hr>159</gpxtpx:hr></gpxtpx:TrackPointExtension></extensions>
      </trkpt>
      <trkpt lat="59.3032086698" lon="18.0826817391">
        <ele>17.4</ele>
        <time>2010-11-18T09:17:59Z</time>
        <extensions><gpxtpx:TrackPointExtension><gpxtpx:hr>159</gpxtpx:hr></gpxtpx:TrackPointExtension></extensions>
      </trkpt>
      <trkpt lat="59.3031841108" lon="18.0825834194">
        <ele>17</ele>
        <time>2010-11-18T09:18:01Z</time>
        <extensions><gpxtpx:TrackPointExtension><gpxtpx:hr>161</gpxtpx:hr></gpxtpx:TrackPointExtension></extensions>
      </trkpt>
      <trkpt lat="59.3031588813" lon="18.0824864408">
        <ele>16.4</ele>
        <time>2010-11-18T09:18:03Z</time>
        <extensions><gpxtpx:TrackPointExtension><gpxtpx:hr>162</gpxtpx:hr></gpxtpx:TrackPointExtension></extensions>
      </trkpt>
      <trkpt lat="59.3031353282" lon="18.0823903004">
        <ele>15.8</ele>
        <time>2010-11-18T09:18:05Z</time>
        <extensions><gpxtpx:TrackPointExtension><gpxtpx:hr>157</gpxtpx:hr></gpxtpx:TrackPointExtension></extensions>
      </trkpt>
      <trkpt lat="59.3031312211" lon="18.0823443676">
        <ele>15.6</ele>
        <time>2010-11-18T09:18:06Z</time>
        <extensions><gpxtpx:TrackPointExtension><gpxtpx:hr>157</gpxtpx:hr></gpxtpx:TrackPointExtension></extensions>
      </trkpt>
      <trkpt lat="59.3031063268" lon="18.0822548489">
        <ele>15</ele>
        <time>2010-11-18T09:18:08Z</time>
        <extensions><gpxtpx:TrackPointExtension><gpxtpx:hr>157</gpxtpx:hr></gpxtpx:TrackPointExtension></extensions>
      </trkpt>
      <trkpt lat="59.3030655908" lon="18.0820724588">
        <ele>14.2</ele>
        <time>2010-11-18T09:18:12Z</time>
      </trkpt>
      <trkpt lat="59.3030579633" lon="18.0820235923">
        <ele>13.8</ele>
        <time>2010-11-18T09:18:13Z</time>
      </trkpt>
      <trkpt lat="59.3030489108" lon="18.0819732171">
        <ele>13.6</ele>
        <time>2010-11-18T09:18:14Z</time>
      </trkpt>
      <trkpt lat="59.3030324823" lon="18.081886213">
        <ele>13</ele>
        <time>2010-11-18T09:18:16Z</time>
      </trkpt>
      <trkpt lat="59.3030121981" lon="18.0817447265">
        <ele>12.4</ele>
        <time>2010-11-18T09:18:19Z</time>
      </trkpt>
      <trkpt lat="59.3029925844" lon="18.0816456524">
        <ele>12.2</ele>
        <time>2010-11-18T09:18:21Z</time>
      </trkpt>
      <trkpt lat="59.3029646727" lon="18.081523612">
        <ele>11.6</ele>
        <time>2010-11-18T09:18:23Z</time>
      </trkpt>
      <trkpt lat="59.3029387726" lon="18.0814177486">
        <ele>11</ele>
        <time>2010-11-18T09:18:25Z</time>
      </trkpt>
      <trkpt lat="59.3029321509" lon="18.0813759229">
        <ele>10.8</ele>
        <time>2010-11-18T09:18:26Z</time>
      </trkpt>
      <trkpt lat="59.3028865534" lon="18.0812092069">
        <ele>10.4</ele>
        <time>2010-11-18T09:18:29Z</time>
      </trkpt>
      <trkpt lat="59.3028666883" lon="18.081105439">
        <ele>10</ele>
        <time>2010-11-18T09:18:31Z</time>
      </trkpt>
      <trkpt lat="59.3028377707" lon="18.0809684787">
        <ele>9.8</ele>
        <time>2010-11-18T09:18:34Z</time>
      </trkpt>
      <trkpt lat="59.3028173189" lon="18.0808145032">
        <ele>9</ele>
        <time>2010-11-18T09:18:37Z</time>
      </trkpt>
      <trkpt lat="59.3028030697" lon="18.0807246493">
        <ele>8.6</ele>
        <time>2010-11-18T09:18:39Z</time>
      </trkpt>
      <trkpt lat="59.302804327" lon="18.0806602763">
        <ele>8.4</ele>
        <time>2010-11-18T09:18:40Z</time>
      </trkpt>
      <trkpt lat="59.3028306461" lon="18.0805832466">
        <ele>8.2</ele>
        <time>2010-11-18T09:18:42Z</time>
      </trkpt>
      <trkpt lat="59.3028746511" lon="18.080524238">
        <ele>7.8</ele>
        <time>2010-11-18T09:18:44Z</time>
      </trkpt>
      <trkpt lat="59.3028935104" lon="18.0804957396">
        <ele>7.8</ele>
        <time>2010-11-18T09:18:45Z</time>
      </trkpt>
      <trkpt lat="59.3029340788" lon="18.0804372339">
        <ele>7.4</ele>
        <time>2010-11-18T09:18:47Z</time>
      </trkpt>
      <trkpt lat="59.3029754854" lon="18.0803845956">
        <ele>6.8</ele>
        <time>2010-11-18T09:18:49Z</time>
      </trkpt>
      <trkpt lat="59.3030067498" lon="18.0803218151">
        <ele>6.4</ele>
        <time>2010-11-18T09:18:51Z</time>
      </trkpt>
      <trkpt lat="59.3030289619" lon="18.0802449531">
        <ele>6.2</ele>
        <time>2010-11-18T09:18:53Z</time>
      </trkpt>
      <trkpt lat="59.3030287104" lon="18.0801928177">
        <ele>6</ele>
        <time>2010-11-18T09:18:54Z</time>
      </trkpt>
      <trkpt lat="59.3030507548" lon="18.0801070709">
        <ele>5.4</ele>
        <time>2010-11-18T09:18:56Z</time>
      </trkpt>
      <trkpt lat="59.3030527665" lon="18.0800576176">
        <ele>5</ele>
        <time>2010-11-18T09:18:57Z</time>
      </trkpt>
      <trkpt lat="59.3030245195" lon="18.0799085036">
        <ele>4.2</ele>
        <time>2010-11-18T09:19:00Z</time>
      </trkpt>
      <trkpt lat="59.3030022236" lon="18.0798142073">
        <ele>3.4</ele>
        <time>2010-11-18T09:19:02Z</time>
      </trkpt>
      <trkpt lat="59.3029900699" lon="18.0797796738">
        <ele>3.2</ele>
        <time>2010-11-18T09:19:03Z</time>
      </trkpt>
      <trkpt lat="59.3029314804" lon="18.0796764927">
        <ele>1.6</ele>
        <time>2010-11-18T09:19:07Z</time>
      </trkpt>
      <trkpt lat="59.302934917" lon="18.0796661829">
        <ele>1.2</ele>
        <time>2010-11-18T09:19:08Z</time>
      </trkpt>
      <trkpt lat="59.3029472384" lon="18.0796567114">
        <ele>0.2</ele>
        <time>2010-11-18T09:19:11Z</time>
      </trkpt>
      <trkpt lat="59.3029493338" lon="18.0796545321">
        <ele>0</ele>
        <time>2010-11-18T09:19:12Z</time>
      </trkpt>
      <trkpt lat="59.3029468193" lon="18.079484631">
        <ele>0</ele>
        <time>2010-11-18T09:19:15Z</time>
      </trkpt>
      <trkpt lat="59.3029180693" lon="18.0793387021">
        <ele>0</ele>
        <time>2010-11-18T09:19:17Z</time>
      </trkpt>
      <trkpt lat="59.302900635" lon="18.0792038373">
        <ele>0</ele>
        <time>2010-11-18T09:19:19Z</time>
      </trkpt>
      <trkpt lat="59.3029254454" lon="18.0790439945">
        <ele>0</ele>
        <time>2010-11-18T09:19:22Z</time>
      </trkpt>
      <trkpt lat="59.3029369286" lon="18.0788789549">
        <ele>0</ele>
        <time>2010-11-18T09:19:25Z</time>
      </trkpt>
      <trkpt lat="59.302945562" lon="18.0786965647">
        <ele>0</ele>
        <time>2010-11-18T09:19:28Z</time>
      </trkpt>
      <trkpt lat="59.3029407005" lon="18.0785411643">
        <ele>0</ele>
        <time>2010-11-18T09:19:31Z</time>
      </trkpt>
      <trkpt lat="59.3029156386" lon="18.0784151005">
        <ele>0</ele>
        <time>2010-11-18T09:19:34Z</time>
      </trkpt>
      <trkpt lat="59.3028953544" lon="18.0783734425">
        <ele>0</ele>
        <time>2010-11-18T09:19:35Z</time>
      </trkpt>
      <trkpt lat="59.3027611602" lon="18.0781704329">
        <ele>0</ele>
        <time>2010-11-18T09:19:41Z</time>
      </trkpt>
      <trkpt lat="59.3027021516" lon="18.0781070657">
        <ele>0</ele>
        <time>2010-11-18T09:19:44Z</time>
      </trkpt>
      <trkpt lat="59.3026549615" lon="18.0781076524">
        <ele>0</ele>
        <time>2010-11-18T09:19:46Z</time>
      </trkpt>
      <trkpt lat="59.3026049216" lon="18.0781343907">
        <ele>0</ele>
        <time>2010-11-18T09:19:48Z</time>
      </trkpt>
      <trkpt lat="59.3025575638" lon="18.0781639788">
        <ele>0</ele>
        <time>2010-11-18T09:19:50Z</time>
      </trkpt>
      <trkpt lat="59.3025031653" lon="18.0781806588">
        <ele>0</ele>
        <time>2010-11-18T09:19:52Z</time>
      </trkpt>
      <trkpt lat="59.3024401334" lon="18.0781995181">
        <ele>0</ele>
        <time>2010-11-18T09:19:54Z</time>
      </trkpt>
      <trkpt lat="59.3023858187" lon="18.0782311178">
        <ele>0</ele>
        <time>2010-11-18T09:19:56Z</time>
      </trkpt>
      <trkpt lat="59.3023341024" lon="18.0782710995">
        <ele>0</ele>
        <time>2010-11-18T09:19:58Z</time>
      </trkpt>
      <trkpt lat="59.3022943722" lon="18.0783423456">
        <ele>0</ele>
        <time>2010-11-18T09:20:00Z</time>
      </trkpt>
      <trkpt lat="59.3022558154" lon="18.0784094008">
        <ele>0</ele>
        <time>2010-11-18T09:20:02Z</time>
      </trkpt>
      <trkpt lat="59.3022139059" lon="18.0784915435">
        <ele>0</ele>
        <time>2010-11-18T09:20:04Z</time>
      </trkpt>
      <trkpt lat="59.3021688113" lon="18.0785616161">
        <ele>0</ele>
        <time>2010-11-18T09:20:06Z</time>
      </trkpt>
      <trkpt lat="59.3021250578" lon="18.0786345387">
        <ele>0</ele>
        <time>2010-11-18T09:20:08Z</time>
      </trkpt>
      <trkpt lat="59.302095302" lon="18.0787159269">
        <ele>0</ele>
        <time>2010-11-18T09:20:10Z</time>
      </trkpt>
      <trkpt lat="59.3020646243" lon="18.078786754">
        <ele>0</ele>
        <time>2010-11-18T09:20:12Z</time>
      </trkpt>
      <trkpt lat="59.3020426637" lon="18.0788187728">
        <ele>0</ele>
        <time>2010-11-18T09:20:13Z</time>
      </trkpt>
      <trkpt lat="59.3020058672" lon="18.078887672">
        <ele>0</ele>
        <time>2010-11-18T09:20:15Z</time>
      </trkpt>
      <trkpt lat="59.3019899416" lon="18.0789222055">
        <ele>0</ele>
        <time>2010-11-18T09:20:16Z</time>
      </trkpt>
      <trkpt lat="59.3019441764" lon="18.0790618479">
        <ele>0</ele>
        <time>2010-11-18T09:20:20Z</time>
      </trkpt>
      <trkpt lat="59.3019119061" lon="18.0791309148">
        <ele>0</ele>
        <time>2010-11-18T09:20:22Z</time>
      </trkpt>
      <trkpt lat="59.3018642131" lon="18.0792250435">
        <ele>0</ele>
        <time>2010-11-18T09:20:25Z</time>
      </trkpt>
      <trkpt lat="59.3018205434" lon="18.0792409691">
        <ele>0</ele>
        <time>2010-11-18T09:20:28Z</time>
      </trkpt>
      <trkpt lat="59.3017606128" lon="18.0792534582">
        <ele>0</ele>
        <time>2010-11-18T09:20:31Z</time>
      </trkpt>
      <trkpt lat="59.3017090641" lon="18.0792736585">
        <ele>0</ele>
        <time>2010-11-18T09:20:33Z</time>
      </trkpt>
      <trkpt lat="59.301646116" lon="18.0792805317">
        <ele>0</ele>
        <time>2010-11-18T09:20:35Z</time>
      </trkpt>
      <trkpt lat="59.3015937291" lon="18.0792923502">
        <ele>0</ele>
        <time>2010-11-18T09:20:37Z</time>
      </trkpt>
      <trkpt lat="59.301516448" lon="18.0792553022">
        <ele>0</ele>
        <time>2010-11-18T09:20:40Z</time>
      </trkpt>
      <trkpt lat="59.3014967506" lon="18.079220182">
        <ele>0</ele>
        <time>2010-11-18T09:20:41Z</time>
      </trkpt>
      <trkpt lat="59.3014548411" lon="18.0791279811">
        <ele>0</ele>
        <time>2010-11-18T09:20:43Z</time>
      </trkpt>
      <trkpt lat="59.3014294439" lon="18.0790296614">
        <ele>0</ele>
        <time>2010-11-18T09:20:45Z</time>
      </trkpt>
      <trkpt lat="59.3014199724" lon="18.0789875005">
        <ele>0</ele>
        <time>2010-11-18T09:20:46Z</time>
      </trkpt>
      <trkpt lat="59.3014223193" lon="18.0788525519">
        <ele>0</ele>
        <time>2010-11-18T09:20:49Z</time>
      </trkpt>
      <trkpt lat="59.3014129316" lon="18.0787536455">
        <ele>0</ele>
        <time>2010-11-18T09:20:51Z</time>
      </trkpt>
      <trkpt lat="59.301405304" lon="18.0786426691">
        <ele>0</ele>
        <time>2010-11-18T09:20:53Z</time>
      </trkpt>
      <trkpt lat="59.3014046335" lon="18.0785932159">
        <ele>0</ele>
        <time>2010-11-18T09:20:54Z</time>
      </trkpt>
      <trkpt lat="59.3013737043" lon="18.078429685">
        <ele>0</ele>
        <time>2010-11-18T09:20:57Z</time>
      </trkpt>
      <trkpt lat="59.3013435294" lon="18.0783057167">
        <ele>0</ele>
        <time>2010-11-18T09:20:59Z</time>
      </trkpt>
      <trkpt lat="59.3013214012" lon="18.0782027032">
        <ele>0</ele>
        <time>2010-11-18T09:21:01Z</time>
      </trkpt>
      <trkpt lat="59.3013166235" lon="18.0781450357">
        <ele>0</ele>
        <time>2010-11-18T09:21:02Z</time>
      </trkpt>
      <trkpt lat="59.3013047212" lon="18.0780372445">
        <ele>0</ele>
        <time>2010-11-18T09:21:04Z</time>
      </trkpt>
      <trkpt lat="59.3012940762" lon="18.0779781521">
        <ele>0</ele>
        <time>2010-11-18T09:21:05Z</time>
      </trkpt>
      <trkpt lat="59.301276139" lon="18.0778716181">
        <ele>0</ele>
        <time>2010-11-18T09:21:07Z</time>
      </trkpt>
      <trkpt lat="59.3012562738" lon="18.0777589654">
        <ele>0</ele>
        <time>2010-11-18T09:21:09Z</time>
      </trkpt>
      <trkpt lat="59.3012385042" lon="18.0776344104">
        <ele>0</ele>
        <time>2010-11-18T09:21:11Z</time>
      </trkpt>
      <trkpt lat="59.3012169627" lon="18.0775070055">
        <ele>0</ele>
        <time>2010-11-18T09:21:13Z</time>
      </trkpt>
      <trkpt lat="59.3011952536" lon="18.0773952748">
        <ele>0</ele>
        <time>2010-11-18T09:21:15Z</time>
      </trkpt>
      <trkpt lat="59.3011891348" lon="18.0772661097">
        <ele>0</ele>
        <time>2010-11-18T09:21:17Z</time>
      </trkpt>
      <trkpt lat="59.301204809" lon="18.0771785188">
        <ele>0</ele>
        <time>2010-11-18T09:21:19Z</time>
      </trkpt>
      <trkpt lat="59.301227021" lon="18.0771012377">
        <ele>0</ele>
        <time>2010-11-18T09:21:21Z</time>
      </trkpt>
      <trkpt lat="59.3012678409" lon="18.077029321">
        <ele>0</ele>
        <time>2010-11-18T09:21:23Z</time>
      </trkpt>
      <trkpt lat="59.3012995245" lon="18.0769403052">
        <ele>0</ele>
        <time>2010-11-18T09:21:25Z</time>
      </trkpt>
      <trkpt lat="59.3013239158" lon="18.0768561509">
        <ele>0</ele>
        <time>2010-11-18T09:21:27Z</time>
      </trkpt>
      <trkpt lat="59.3013956648" lon="18.0766062027">
        <ele>0</ele>
        <time>2010-11-18T09:21:33Z</time>
      </trkpt>
      <trkpt lat="59.3014148594" lon="18.0763656422">
        <ele>0</ele>
        <time>2010-11-18T09:21:37Z</time>
      </trkpt>
      <trkpt lat="59.3014115905" lon="18.076275872">
        <ele>0</ele>
        <time>2010-11-18T09:21:39Z</time>
      </trkpt>
      <trkpt lat="59.3014072319" lon="18.0762039553">
        <ele>0</ele>
        <time>2010-11-18T09:21:41Z</time>
      </trkpt>
      <trkpt lat="59.3014036276" lon="18.0761590283">
        <ele>0</ele>
        <time>2010-11-18T09:21:42Z</time>
      </trkpt>
      <trkpt lat="59.3013814156" lon="18.075966999">
        <ele>0</ele>
        <time>2010-11-18T09:21:46Z</time>
      </trkpt>
      <trkpt lat="59.3013518275" lon="18.0758182203">
        <ele>0</ele>
        <time>2010-11-18T09:21:49Z</time>
      </trkpt>
      <trkpt lat="59.301342356" lon="18.0757635703">
        <ele>0</ele>
        <time>2010-11-18T09:21:50Z</time>
      </trkpt>
      <trkpt lat="59.3013237481" lon="18.0756199883">
        <ele>0</ele>
        <time>2010-11-18T09:21:53Z</time>
      </trkpt>
      <trkpt lat="59.3012956688" lon="18.0755049887">
        <ele>0</ele>
        <time>2010-11-18T09:21:55Z</time>
      </trkpt>
      <trkpt lat="59.3012750493" lon="18.075404825">
        <ele>0</ele>
        <time>2010-11-18T09:21:57Z</time>
      </trkpt>
      <trkpt lat="59.3012480596" lon="18.0753026496">
        <ele>0</ele>
        <time>2010-11-18T09:21:59Z</time>
      </trkpt>
      <trkpt lat="59.3012234168" lon="18.0751515239">
        <ele>0</ele>
        <time>2010-11-18T09:22:02Z</time>
      </trkpt>
      <trkpt lat="59.3012078265" lon="18.0750271365">
        <ele>0</ele>
        <time>2010-11-18T09:22:04Z</time>
      </trkpt>
      <trkpt lat="59.3011944154" lon="18.0749007375">
        <ele>0</ele>
        <time>2010-11-18T09:22:06Z</time>
      </trkpt>
      <trkpt lat="59.301187207" lon="18.0747811278">
        <ele>0</ele>
        <time>2010-11-18T09:22:08Z</time>
      </trkpt>
      <trkpt lat="59.3011836866" lon="18.0746426588">
        <ele>0</ele>
        <time>2010-11-18T09:22:11Z</time>
      </trkpt>
      <trkpt lat="59.3011734607" lon="18.074520786">
        <ele>0</ele>
        <time>2010-11-18T09:22:13Z</time>
      </trkpt>
      <trkpt lat="59.3011640729" lon="18.0744039423">
        <ele>0</ele>
        <time>2010-11-18T09:22:15Z</time>
      </trkpt>
      <trkpt lat="59.3011564454" lon="18.0742876015">
        <ele>0</ele>
        <time>2010-11-18T09:22:17Z</time>
      </trkpt>
      <trkpt lat="59.301151081" lon="18.0742366396">
        <ele>0</ele>
        <time>2010-11-18T09:22:18Z</time>
      </trkpt>
      <trkpt lat="59.3011505781" lon="18.0740851786">
        <ele>0</ele>
        <time>2010-11-18T09:22:21Z</time>
      </trkpt>
      <trkpt lat="59.3011515001" lon="18.0739644793">
        <ele>0</ele>
        <time>2010-11-18T09:22:23Z</time>
      </trkpt>
      <trkpt lat="59.3011685154" lon="18.0738643156">
        <ele>0</ele>
        <time>2010-11-18T09:22:25Z</time>
      </trkpt>
      <trkpt lat="59.3011702756" lon="18.0737558538">
        <ele>0</ele>
        <time>2010-11-18T09:22:27Z</time>
      </trkpt>
      <trkpt lat="59.3011953374" lon="18.0735364994">
        <ele>0</ele>
        <time>2010-11-18T09:22:31Z</time>
      </trkpt>
      <trkpt lat="59.301202965" lon="18.0734379283">
        <ele>0</ele>
        <time>2010-11-18T09:22:33Z</time>
      </trkpt>
      <trkpt lat="59.3012064015" lon="18.0733763213">
        <ele>0</ele>
        <time>2010-11-18T09:22:34Z</time>
      </trkpt>
      <trkpt lat="59.3012412702" lon="18.0731696237">
        <ele>0</ele>
        <time>2010-11-18T09:22:38Z</time>
      </trkpt>
      <trkpt lat="59.3012510771" lon="18.0730682865">
        <ele>0</ele>
        <time>2010-11-18T09:22:40Z</time>
      </trkpt>
      <trkpt lat="59.3012529211" lon="18.073021767">
        <ele>0</ele>
        <time>2010-11-18T09:22:41Z</time>
      </trkpt>
      <trkpt lat="59.3012578664" lon="18.0729107068">
        <ele>0</ele>
        <time>2010-11-18T09:22:43Z</time>
      </trkpt>
      <trkpt lat="59.3012689305" lon="18.0728050949">
        <ele>0</ele>
        <time>2010-11-18T09:22:45Z</time>
      </trkpt>
      <trkpt lat="59.3012609677" lon="18.072751786">
        <ele>0</ele>
        <time>2010-11-18T09:22:46Z</time>
      </trkpt>
      <trkpt lat="59.301258034" lon="18.0726359481">
        <ele>0</ele>
        <time>2010-11-18T09:22:48Z</time>
      </trkpt>
      <trkpt lat="59.3012535916" lon="18.0725360359">
        <ele>0</ele>
        <time>2010-11-18T09:22:50Z</time>
      </trkpt>
      <trkpt lat="59.301249736" lon="18.072489684">
        <ele>0</ele>
        <time>2010-11-18T09:22:51Z</time>
      </trkpt>
      <trkpt lat="59.3012436172" lon="18.0724367104">
        <ele>0</ele>
        <time>2010-11-18T09:22:52Z</time>
      </trkpt>
      <trkpt lat="59.3012327207" lon="18.0722889375">
        <ele>0</ele>
        <time>2010-11-18T09:22:55Z</time>
      </trkpt>
      <trkpt lat="59.3012198964" lon="18.072144182">
        <ele>0</ele>
        <time>2010-11-18T09:22:58Z</time>
      </trkpt>
      <trkpt lat="59.3012180524" lon="18.0720975787">
        <ele>0</ele>
        <time>2010-11-18T09:22:59Z</time>
      </trkpt>
      <trkpt lat="59.3012274401" lon="18.0719493867">
        <ele>0</ele>
        <time>2010-11-18T09:23:02Z</time>
      </trkpt>
      <trkpt lat="59.3012259314" lon="18.0717959141">
        <ele>0</ele>
        <time>2010-11-18T09:23:05Z</time>
      </trkpt>
      <trkpt lat="59.3012266019" lon="18.0717447007">
        <ele>0</ele>
        <time>2010-11-18T09:23:06Z</time>
      </trkpt>
      <trkpt lat="59.301248814" lon="18.0716362389">
        <ele>0</ele>
        <time>2010-11-18T09:23:08Z</time>
      </trkpt>
      <trkpt lat="59.3012430304" lon="18.0714839398">
        <ele>0</ele>
        <time>2010-11-18T09:23:11Z</time>
      </trkpt>
      <trkpt lat="59.3012341456" lon="18.0713768191">
        <ele>0</ele>
        <time>2010-11-18T09:23:13Z</time>
      </trkpt>
      <trkpt lat="59.3012474729" lon="18.0712948441">
        <ele>0</ele>
        <time>2010-11-18T09:23:15Z</time>
      </trkpt>
      <trkpt lat="59.3012748817" lon="18.0711945966">
        <ele>0</ele>
        <time>2010-11-18T09:23:17Z</time>
      </trkpt>
      <trkpt lat="59.3012811681" lon="18.0710702092">
        <ele>0</ele>
        <time>2010-11-18T09:23:20Z</time>
      </trkpt>
      <trkpt lat="59.3013000274" lon="18.0709742364">
        <ele>0</ele>
        <time>2010-11-18T09:23:22Z</time>
      </trkpt>
      <trkpt lat="59.3013053918" lon="18.0709277169">
        <ele>0</ele>
        <time>2010-11-18T09:23:23Z</time>
      </trkpt>
      <trkpt lat="59.3013355666" lon="18.0707573967">
        <ele>0</ele>
        <time>2010-11-18T09:23:27Z</time>
      </trkpt>
      <trkpt lat="59.3014073995" lon="18.0704827218">
        <ele>0</ele>
        <time>2010-11-18T09:23:33Z</time>
      </trkpt>
      <trkpt lat="59.3014254206" lon="18.0703738409">
        <ele>0</ele>
        <time>2010-11-18T09:23:35Z</time>
      </trkpt>
      <trkpt lat="59.30143682" lon="18.0703200291">
        <ele>0</ele>
        <time>2010-11-18T09:23:36Z</time>
      </trkpt>
      <trkpt lat="59.3014805735" lon="18.0701766148">
        <ele>0</ele>
        <time>2010-11-18T09:23:39Z</time>
      </trkpt>
      <trkpt lat="59.3015125085" lon="18.0700728469">
        <ele>0</ele>
        <time>2010-11-18T09:23:41Z</time>
      </trkpt>
      <trkpt lat="59.3015304458" lon="18.070021382">
        <ele>0</ele>
        <time>2010-11-18T09:23:42Z</time>
      </trkpt>
      <trkpt lat="59.3015511491" lon="18.0698566777">
        <ele>0</ele>
        <time>2010-11-18T09:23:45Z</time>
      </trkpt>
      <trkpt lat="59.3015670747" lon="18.0698168637">
        <ele>0</ele>
        <time>2010-11-18T09:23:46Z</time>
      </trkpt>
      <trkpt lat="59.301607224" lon="18.0696984274">
        <ele>0</ele>
        <time>2010-11-18T09:23:49Z</time>
      </trkpt>
      <trkpt lat="59.3016241554" lon="18.0695965035">
        <ele>0</ele>
        <time>2010-11-18T09:23:51Z</time>
      </trkpt>
      <trkpt lat="59.3016349681" lon="18.0695383331">
        <ele>0</ele>
        <time>2010-11-18T09:23:52Z</time>
      </trkpt>
      <trkpt lat="59.3016559228" lon="18.0693813402">
        <ele>0</ele>
        <time>2010-11-18T09:23:55Z</time>
      </trkpt>
      <trkpt lat="59.3016638856" lon="18.0692661729">
        <ele>0</ele>
        <time>2010-11-18T09:23:57Z</time>
      </trkpt>
      <trkpt lat="59.3016782187" lon="18.0691623211">
        <ele>0</ele>
        <time>2010-11-18T09:23:59Z</time>
      </trkpt>
      <trkpt lat="59.3016920488" lon="18.0690666836">
        <ele>0</ele>
        <time>2010-11-18T09:24:01Z</time>
      </trkpt>
      <trkpt lat="59.3017139256" lon="18.0689644245">
        <ele>0</ele>
        <time>2010-11-18T09:24:03Z</time>
      </trkpt>
      <trkpt lat="59.3017216369" lon="18.0688607404">
        <ele>0</ele>
        <time>2010-11-18T09:24:05Z</time>
      </trkpt>
      <trkpt lat="59.3017127521" lon="18.0687565533">
        <ele>0</ele>
        <time>2010-11-18T09:24:07Z</time>
      </trkpt>
      <trkpt lat="59.3017062142" lon="18.068616408">
        <ele>0</ele>
        <time>2010-11-18T09:24:10Z</time>
      </trkpt>
      <trkpt lat="59.3016931385" lon="18.068484896">
        <ele>0</ele>
        <time>2010-11-18T09:24:13Z</time>
      </trkpt>
      <trkpt lat="59.3016777996" lon="18.0683727461">
        <ele>0</ele>
        <time>2010-11-18T09:24:16Z</time>
      </trkpt>
      <trkpt lat="59.3016770452" lon="18.0683291603">
        <ele>0</ele>
        <time>2010-11-18T09:24:17Z</time>
      </trkpt>
      <trkpt lat="59.3016459484" lon="18.0682059463">
        <ele>0</ele>
        <time>2010-11-18T09:24:20Z</time>
      </trkpt>
      <trkpt lat="59.3016182043" lon="18.0680927907">
        <ele>0</ele>
        <time>2010-11-18T09:24:23Z</time>
      </trkpt>
      <trkpt lat="59.3016089842" lon="18.0680497077">
        <ele>0</ele>
        <time>2010-11-18T09:24:24Z</time>
      </trkpt>
      <trkpt lat="59.3015777197" lon="18.0678720114">
        <ele>0</ele>
        <time>2010-11-18T09:24:28Z</time>
      </trkpt>
      <trkpt lat="59.3015468743" lon="18.0677357217">
        <ele>0</ele>
        <time>2010-11-18T09:24:31Z</time>
      </trkpt>
      <trkpt lat="59.3015344691" lon="18.0675227377">
        <ele>0</ele>
        <time>2010-11-18T09:24:36Z</time>
      </trkpt>
      <trkpt lat="59.3015337986" lon="18.0673304569">
        <ele>0</ele>
        <time>2010-11-18T09:24:40Z</time>
      </trkpt>
      <trkpt lat="59.3015271769" lon="18.0672927383">
        <ele>0</ele>
        <time>2010-11-18T09:24:41Z</time>
      </trkpt>
      <trkpt lat="59.3015234888" lon="18.0671297104">
        <ele>0</ele>
        <time>2010-11-18T09:24:44Z</time>
      </trkpt>
      <trkpt lat="59.3015239917" lon="18.0670866274">
        <ele>0</ele>
        <time>2010-11-18T09:24:45Z</time>
      </trkpt>
      <trkpt lat="59.3015441921" lon="18.066900633">
        <ele>0</ele>
        <time>2010-11-18T09:24:48Z</time>
      </trkpt>
      <trkpt lat="59.3015464552" lon="18.066801559">
        <ele>0</ele>
        <time>2010-11-18T09:24:50Z</time>
      </trkpt>
      <trkpt lat="59.3015565973" lon="18.0667048319">
        <ele>0</ele>
        <time>2010-11-18T09:24:52Z</time>
      </trkpt>
      <trkpt lat="59.3015773006" lon="18.0665637645">
        <ele>0</ele>
        <time>2010-11-18T09:24:55Z</time>
      </trkpt>
      <trkpt lat="59.3015907117" lon="18.0664634331">
        <ele>0</ele>
        <time>2010-11-18T09:24:57Z</time>
      </trkpt>
      <trkpt lat="59.3016230658" lon="18.0663168337">
        <ele>0</ele>
        <time>2010-11-18T09:25:00Z</time>
      </trkpt>
      <trkpt lat="59.3016311962" lon="18.0662185978">
        <ele>0</ele>
        <time>2010-11-18T09:25:02Z</time>
      </trkpt>
      <trkpt lat="59.3016393267" lon="18.0660658796">
        <ele>0</ele>
        <time>2010-11-18T09:25:05Z</time>
      </trkpt>
      <trkpt lat="59.301653073" lon="18.0659696554">
        <ele>0</ele>
        <time>2010-11-18T09:25:07Z</time>
      </trkpt>
      <trkpt lat="59.3016590241" lon="18.0658739341">
        <ele>0</ele>
        <time>2010-11-18T09:25:09Z</time>
      </trkpt>
      <trkpt lat="59.3016735248" lon="18.0658326113">
        <ele>0</ele>
        <time>2010-11-18T09:25:10Z</time>
      </trkpt>
      <trkpt lat="59.3017207149" lon="18.0657671487">
        <ele>0</ele>
        <time>2010-11-18T09:25:12Z</time>
      </trkpt>
      <trkpt lat="59.3017639655" lon="18.0656995068">
        <ele>0</ele>
        <time>2010-11-18T09:25:14Z</time>
      </trkpt>
      <trkpt lat="59.3017987504" lon="18.0656117483">
        <ele>0</ele>
        <time>2010-11-18T09:25:16Z</time>
      </trkpt>
      <trkpt lat="59.3018135864" lon="18.0655619598">
        <ele>0</ele>
        <time>2010-11-18T09:25:17Z</time>
      </trkpt>
      <trkpt lat="59.3018382292" lon="18.0654781408">
        <ele>0</ele>
        <time>2010-11-18T09:25:19Z</time>
      </trkpt>
      <trkpt lat="59.3018542386" lon="18.0653928969">
        <ele>0</ele>
        <time>2010-11-18T09:25:21Z</time>
      </trkpt>
      <trkpt lat="59.3018705833" lon="18.065299271">
        <ele>0</ele>
        <time>2010-11-18T09:25:23Z</time>
      </trkpt>
      <trkpt lat="59.3019118222" lon="18.0651777335">
        <ele>0</ele>
        <time>2010-11-18T09:25:26Z</time>
      </trkpt>
      <trkpt lat="59.3019336152" lon="18.065070529">
        <ele>0</ele>
        <time>2010-11-18T09:25:28Z</time>
      </trkpt>
      <trkpt lat="59.3020006704" lon="18.0648204969">
        <ele>0</ele>
        <time>2010-11-18T09:25:33Z</time>
      </trkpt>
      <trkpt lat="59.3020181886" lon="18.0647122028">
        <ele>0</ele>
        <time>2010-11-18T09:25:35Z</time>
      </trkpt>
      <trkpt lat="59.3020812204" lon="18.064467116">
        <ele>0</ele>
        <time>2010-11-18T09:25:40Z</time>
      </trkpt>
      <trkpt lat="59.302119861" lon="18.0643827941">
        <ele>0</ele>
        <time>2010-11-18T09:25:42Z</time>
      </trkpt>
      <trkpt lat="59.3021632792" lon="18.0642900903">
        <ele>0</ele>
        <time>2010-11-18T09:25:44Z</time>
      </trkpt>
      <trkpt lat="59.3022056078" lon="18.0642102108">
        <ele>0</ele>
        <time>2010-11-18T09:25:46Z</time>
      </trkpt>
      <trkpt lat="59.3022371238" lon="18.0641046827">
        <ele>0</ele>
        <time>2010-11-18T09:25:48Z</time>
      </trkpt>
      <trkpt lat="59.3022409795" lon="18.0640509547">
        <ele>0</ele>
        <time>2010-11-18T09:25:49Z</time>
      </trkpt>
      <trkpt lat="59.3022491937" lon="18.0639513777">
        <ele>0</ele>
        <time>2010-11-18T09:25:51Z</time>
      </trkpt>
      <trkpt lat="59.3022465115" lon="18.06388734">
        <ele>0</ele>
        <time>2010-11-18T09:25:52Z</time>
      </trkpt>
      <trkpt lat="59.3022417338" lon="18.0638197819">
        <ele>0</ele>
        <time>2010-11-18T09:25:55Z</time>
      </trkpt>
      <trkpt lat="59.3022322623" lon="18.0637064586">
        <ele>0</ele>
        <time>2010-11-18T09:26:02Z</time>
      </trkpt>
      <trkpt lat="59.3022200247" lon="18.0635876871">
        <ele>0</ele>
        <time>2010-11-18T09:26:04Z</time>
      </trkpt>
      <trkpt lat="59.3022107208" lon="18.0634773813">
        <ele>0</ele>
        <time>2010-11-18T09:26:06Z</time>
      </trkpt>
      <trkpt lat="59.3022035962" lon="18.06342424">
        <ele>0</ele>
        <time>2010-11-18T09:26:07Z</time>
      </trkpt>
      <trkpt lat="59.3022020874" lon="18.0633526586">
        <ele>0</ele>
        <time>2010-11-18T09:26:09Z</time>
      </trkpt>
      <trkpt lat="59.3021962201" lon="18.0632429395">
        <ele>0</ele>
        <time>2010-11-18T09:26:12Z</time>
      </trkpt>
      <trkpt lat="59.3021955496" lon="18.0630929873">
        <ele>0</ele>
        <time>2010-11-18T09:26:16Z</time>
      </trkpt>
      <trkpt lat="59.3022188512" lon="18.062962062">
        <ele>0</ele>
        <time>2010-11-18T09:26:19Z</time>
      </trkpt>
      <trkpt lat="59.3022274846" lon="18.0628604734">
        <ele>0</ele>
        <time>2010-11-18T09:26:21Z</time>
      </trkpt>
      <trkpt lat="59.3022621018" lon="18.0627357507">
        <ele>0</ele>
        <time>2010-11-18T09:26:24Z</time>
      </trkpt>
      <trkpt lat="59.3023007424" lon="18.0626137103">
        <ele>0</ele>
        <time>2010-11-18T09:26:27Z</time>
      </trkpt>
      <trkpt lat="59.3023575717" lon="18.0622977965">
        <ele>0</ele>
        <time>2010-11-18T09:26:33Z</time>
      </trkpt>
      <trkpt lat="59.3023681329" lon="18.062189167">
        <ele>0</ele>
        <time>2010-11-18T09:26:35Z</time>
      </trkpt>
      <trkpt lat="59.3023846452" lon="18.0619245505">
        <ele>0</ele>
        <time>2010-11-18T09:26:40Z</time>
      </trkpt>
      <trkpt lat="59.3023878303" lon="18.0618145799">
        <ele>0</ele>
        <time>2010-11-18T09:26:42Z</time>
      </trkpt>
      <trkpt lat="59.3023902611" lon="18.061704777">
        <ele>0</ele>
        <time>2010-11-18T09:26:44Z</time>
      </trkpt>
      <trkpt lat="59.3023975534" lon="18.0616058706">
        <ele>0</ele>
        <time>2010-11-18T09:26:46Z</time>
      </trkpt>
      <trkpt lat="59.302395877" lon="18.0615560821">
        <ele>0</ele>
        <time>2010-11-18T09:26:47Z</time>
      </trkpt>
      <trkpt lat="59.302428734" lon="18.0613954849">
        <ele>0</ele>
        <time>2010-11-18T09:26:50Z</time>
      </trkpt>
      <trkpt lat="59.3024297398" lon="18.0613520667">
        <ele>0</ele>
        <time>2010-11-18T09:26:51Z</time>
      </trkpt>
      <trkpt lat="59.3024256327" lon="18.0612883643">
        <ele>0</ele>
        <time>2010-11-18T09:26:52Z</time>
      </trkpt>
      <trkpt lat="59.3024317515" lon="18.0611779746">
        <ele>0</ele>
        <time>2010-11-18T09:26:54Z</time>
      </trkpt>
      <trkpt lat="59.3024213579" lon="18.0610492286">
        <ele>0</ele>
        <time>2010-11-18T09:26:57Z</time>
      </trkpt>
      <trkpt lat="59.3024202683" lon="18.0610005298">
        <ele>0</ele>
        <time>2010-11-18T09:26:58Z</time>
      </trkpt>
      <trkpt lat="59.3024128922" lon="18.0608129429">
        <ele>0</ele>
        <time>2010-11-18T09:27:02Z</time>
      </trkpt>
      <trkpt lat="59.3024271415" lon="18.0607017989">
        <ele>0</ele>
        <time>2010-11-18T09:27:05Z</time>
      </trkpt>
      <trkpt lat="59.3024343499" lon="18.0606121126">
        <ele>0</ele>
        <time>2010-11-18T09:27:07Z</time>
      </trkpt>
      <trkpt lat="59.302417167" lon="18.0604484141">
        <ele>0</ele>
        <time>2010-11-18T09:27:10Z</time>
      </trkpt>
      <trkpt lat="59.3024106291" lon="18.0603333306">
        <ele>0</ele>
        <time>2010-11-18T09:27:12Z</time>
      </trkpt>
      <trkpt lat="59.3024105453" lon="18.0602146429">
        <ele>0</ele>
        <time>2010-11-18T09:27:14Z</time>
      </trkpt>
      <trkpt lat="59.302408366" lon="18.0600950332">
        <ele>0</ele>
        <time>2010-11-18T09:27:16Z</time>
      </trkpt>
      <trkpt lat="59.3023961284" lon="18.0599908461">
        <ele>0</ele>
        <time>2010-11-18T09:27:18Z</time>
      </trkpt>
      <trkpt lat="59.3023346053" lon="18.0599225337">
        <ele>0</ele>
        <time>2010-11-18T09:27:22Z</time>
      </trkpt>
      <trkpt lat="59.3023012453" lon="18.0599820451">
        <ele>0</ele>
        <time>2010-11-18T09:27:25Z</time>
      </trkpt>
      <trkpt lat="59.3022897621" lon="18.0599979708">
        <ele>0</ele>
        <time>2010-11-18T09:27:26Z</time>
      </trkpt>
      <trkpt lat="59.3022753452" lon="18.0599943665">
        <ele>0</ele>
        <time>2010-11-18T09:27:27Z</time>
      </trkpt>
      <trkpt lat="59.3022554801" lon="18.0599596655">
        <ele>0</ele>
        <time>2010-11-18T09:27:34Z</time>
      </trkpt>
      <trkpt lat="59.3022641973" lon="18.0599776866">
        <ele>0</ele>
        <time>2010-11-18T09:27:41Z</time>
      </trkpt>
      <trkpt lat="59.3022824699" lon="18.0599386269">
        <ele>0</ele>
        <time>2010-11-18T09:27:43Z</time>
      </trkpt>
      <trkpt lat="59.3023029217" lon="18.0597914407">
        <ele>0</ele>
        <time>2010-11-18T09:27:46Z</time>
      </trkpt>
      <trkpt lat="59.3023270616" lon="18.0596891816">
        <ele>0</ele>
        <time>2010-11-18T09:27:48Z</time>
      </trkpt>
      <trkpt lat="59.3023558115" lon="18.0595932088">
        <ele>0</ele>
        <time>2010-11-18T09:27:50Z</time>
      </trkpt>
      <trkpt lat="59.3023850643" lon="18.059480137">
        <ele>0</ele>
        <time>2010-11-18T09:27:52Z</time>
      </trkpt>
      <trkpt lat="59.3024003194" lon="18.0594287559">
        <ele>0</ele>
        <time>2010-11-18T09:27:53Z</time>
      </trkpt>
      <trkpt lat="59.3024337632" lon="18.0593201265">
        <ele>0</ele>
        <time>2010-11-18T09:27:55Z</time>
      </trkpt>
      <trkpt lat="59.3024577354" lon="18.0592192084">
        <ele>0</ele>
        <time>2010-11-18T09:27:57Z</time>
      </trkpt>
      <trkpt lat="59.302466704" lon="18.0591103275">
        <ele>0</ele>
        <time>2010-11-18T09:27:59Z</time>
      </trkpt>
      <trkpt lat="59.3024793607" lon="18.0590174561">
        <ele>0</ele>
        <time>2010-11-18T09:28:01Z</time>
      </trkpt>
      <trkpt lat="59.3024872397" lon="18.0589193879">
        <ele>0</ele>
        <time>2010-11-18T09:28:03Z</time>
      </trkpt>
      <trkpt lat="59.302488497" lon="18.0587625625">
        <ele>0</ele>
        <time>2010-11-18T09:28:06Z</time>
      </trkpt>
      <trkpt lat="59.3024994773" lon="18.0586403544">
        <ele>0</ele>
        <time>2010-11-18T09:28:08Z</time>
      </trkpt>
      <trkpt lat="59.3025008184" lon="18.0585267797">
        <ele>0</ele>
        <time>2010-11-18T09:28:10Z</time>
      </trkpt>
      <trkpt lat="59.3025110443" lon="18.0584176473">
        <ele>0</ele>
        <time>2010-11-18T09:28:12Z</time>
      </trkpt>
      <trkpt lat="59.3025111281" lon="18.0583671045">
        <ele>0</ele>
        <time>2010-11-18T09:28:13Z</time>
      </trkpt>
      <trkpt lat="59.3025032491" lon="18.0582517695">
        <ele>0</ele>
        <time>2010-11-18T09:28:15Z</time>
      </trkpt>
      <trkpt lat="59.3025379502" lon="18.0581146416">
        <ele>0</ele>
        <time>2010-11-18T09:28:18Z</time>
      </trkpt>
      <trkpt lat="59.3025723998" lon="18.0580164896">
        <ele>0</ele>
        <time>2010-11-18T09:28:20Z</time>
      </trkpt>
      <trkpt lat="59.3025813684" lon="18.0579624263">
        <ele>0</ele>
        <time>2010-11-18T09:28:21Z</time>
      </trkpt>
      <trkpt lat="59.3026217692" lon="18.0577972191">
        <ele>0</ele>
        <time>2010-11-18T09:28:24Z</time>
      </trkpt>
      <trkpt lat="59.3026496809" lon="18.0576693113">
        <ele>0</ele>
        <time>2010-11-18T09:28:27Z</time>
      </trkpt>
      <trkpt lat="59.3026643492" lon="18.0575564071">
        <ele>0</ele>
        <time>2010-11-18T09:28:29Z</time>
      </trkpt>
      <trkpt lat="59.3026744913" lon="18.0574550699">
        <ele>0</ele>
        <time>2010-11-18T09:28:31Z</time>
      </trkpt>
      <trkpt lat="59.3026842143" lon="18.0573979892">
        <ele>0</ele>
        <time>2010-11-18T09:28:32Z</time>
      </trkpt>
      <trkpt lat="59.302729309" lon="18.0570772139">
        <ele>0</ele>
        <time>2010-11-18T09:28:39Z</time>
      </trkpt>
      <trkpt lat="59.3027583103" lon="18.0569923052">
        <ele>0</ele>
        <time>2010-11-18T09:28:41Z</time>
      </trkpt>
      <trkpt lat="59.3027596514" lon="18.0569457857">
        <ele>0</ele>
        <time>2010-11-18T09:28:42Z</time>
      </trkpt>
      <trkpt lat="59.3027599867" lon="18.056901194">
        <ele>0</ele>
        <time>2010-11-18T09:28:43Z</time>
      </trkpt>
      <trkpt lat="59.3027975376" lon="18.0567726994">
        <ele>0</ele>
        <time>2010-11-18T09:28:46Z</time>
      </trkpt>
      <trkpt lat="59.3028121221" lon="18.056661304">
        <ele>0</ele>
        <time>2010-11-18T09:28:48Z</time>
      </trkpt>
      <trkpt lat="59.3028200011" lon="18.0566155388">
        <ele>0</ele>
        <time>2010-11-18T09:28:49Z</time>
      </trkpt>
      <trkpt lat="59.3028433028" lon="18.0564546902">
        <ele>0</ele>
        <time>2010-11-18T09:28:52Z</time>
      </trkpt>
      <trkpt lat="59.3028518523" lon="18.0563471504">
        <ele>0</ele>
        <time>2010-11-18T09:28:54Z</time>
      </trkpt>
      <trkpt lat="59.3028592284" lon="18.0562444721">
        <ele>0</ele>
        <time>2010-11-18T09:28:56Z</time>
      </trkpt>
      <trkpt lat="59.3028697896" lon="18.0561402851">
        <ele>0</ele>
        <time>2010-11-18T09:28:58Z</time>
      </trkpt>
      <trkpt lat="59.3028897385" lon="18.0560459887">
        <ele>0</ele>
        <time>2010-11-18T09:29:00Z</time>
      </trkpt>
      <trkpt lat="59.3029056641" lon="18.0558904207">
        <ele>0</ele>
        <time>2010-11-18T09:29:03Z</time>
      </trkpt>
      <trkpt lat="59.3029152195" lon="18.0557610041">
        <ele>0</ele>
        <time>2010-11-18T09:29:05Z</time>
      </trkpt>
      <trkpt lat="59.3029255292" lon="18.0557039234">
        <ele>0</ele>
        <time>2010-11-18T09:29:06Z</time>
      </trkpt>
      <trkpt lat="59.3029143813" lon="18.0555288255">
        <ele>0</ele>
        <time>2010-11-18T09:29:09Z</time>
      </trkpt>
      <trkpt lat="59.3029088493" lon="18.0554167595">
        <ele>0</ele>
        <time>2010-11-18T09:29:11Z</time>
      </trkpt>
      <trkpt lat="59.3029018923" lon="18.0552944676">
        <ele>0</ele>
        <time>2010-11-18T09:29:13Z</time>
      </trkpt>
      <trkpt lat="59.3028994615" lon="18.0551863411">
        <ele>0</ele>
        <time>2010-11-18T09:29:15Z</time>
      </trkpt>
      <trkpt lat="59.3029002159" lon="18.0550321979">
        <ele>0</ele>
        <time>2010-11-18T09:29:18Z</time>
      </trkpt>
      <trkpt lat="59.3029184046" lon="18.0549331239">
        <ele>0</ele>
        <time>2010-11-18T09:29:20Z</time>
      </trkpt>
      <trkpt lat="59.3029360066" lon="18.0548301103">
        <ele>0</ele>
        <time>2010-11-18T09:29:22Z</time>
      </trkpt>
      <trkpt lat="59.3029361742" lon="18.0547129313">
        <ele>0</ele>
        <time>2010-11-18T09:29:24Z</time>
      </trkpt>
      <trkpt lat="59.3029378506" lon="18.0546078223">
        <ele>0</ele>
        <time>2010-11-18T09:29:26Z</time>
      </trkpt>
      <trkpt lat="59.3029482442" lon="18.0544975165">
        <ele>0</ele>
        <time>2010-11-18T09:29:28Z</time>
      </trkpt>
      <trkpt lat="59.3029706239" lon="18.0544025496">
        <ele>0</ele>
        <time>2010-11-18T09:29:30Z</time>
      </trkpt>
      <trkpt lat="59.3030028942" lon="18.0543105163">
        <ele>0</ele>
        <time>2010-11-18T09:29:32Z</time>
      </trkpt>
      <trkpt lat="59.3030412833" lon="18.0542215005">
        <ele>0</ele>
        <time>2010-11-18T09:29:34Z</time>
      </trkpt>
      <trkpt lat="59.3030739727" lon="18.0541340773">
        <ele>0</ele>
        <time>2010-11-18T09:29:36Z</time>
      </trkpt>
      <trkpt lat="59.3031075841" lon="18.0540345004">
        <ele>0</ele>
        <time>2010-11-18T09:29:38Z</time>
      </trkpt>
      <trkpt lat="59.3031419499" lon="18.0539485021">
        <ele>0</ele>
        <time>2010-11-18T09:29:40Z</time>
      </trkpt>
      <trkpt lat="59.3031714542" lon="18.0538605759">
        <ele>0</ele>
        <time>2010-11-18T09:29:42Z</time>
      </trkpt>
      <trkpt lat="59.3031978572" lon="18.0537493481">
        <ele>0</ele>
        <time>2010-11-18T09:29:44Z</time>
      </trkpt>
      <trkpt lat="59.3032193148" lon="18.0536332588">
        <ele>0</ele>
        <time>2010-11-18T09:29:46Z</time>
      </trkpt>
      <trkpt lat="59.3032426165" lon="18.0535168342">
        <ele>0</ele>
        <time>2010-11-18T09:29:48Z</time>
      </trkpt>
      <trkpt lat="59.303258123" lon="18.0533988171">
        <ele>0</ele>
        <time>2010-11-18T09:29:50Z</time>
      </trkpt>
      <trkpt lat="59.3032715341" lon="18.0533014194">
        <ele>0</ele>
        <time>2010-11-18T09:29:52Z</time>
      </trkpt>
      <trkpt lat="59.3032694386" lon="18.0531948016">
        <ele>0</ele>
        <time>2010-11-18T09:29:54Z</time>
      </trkpt>
      <trkpt lat="59.3032631522" lon="18.0530756948">
        <ele>0</ele>
        <time>2010-11-18T09:29:56Z</time>
      </trkpt>
      <trkpt lat="59.3032685166" lon="18.0530223859">
        <ele>0</ele>
        <time>2010-11-18T09:29:57Z</time>
      </trkpt>
      <trkpt lat="59.3032848613" lon="18.0529104037">
        <ele>0</ele>
        <time>2010-11-18T09:29:59Z</time>
      </trkpt>
      <trkpt lat="59.303299362" lon="18.0528146825">
        <ele>0</ele>
        <time>2010-11-18T09:30:01Z</time>
      </trkpt>
      <trkpt lat="59.3033091688" lon="18.0527068912">
        <ele>0</ele>
        <time>2010-11-18T09:30:03Z</time>
      </trkpt>
      <trkpt lat="59.3033330572" lon="18.0525993514">
        <ele>0</ele>
        <time>2010-11-18T09:30:05Z</time>
      </trkpt>
      <trkpt lat="59.303340098" lon="18.0524766404">
        <ele>0</ele>
        <time>2010-11-18T09:30:07Z</time>
      </trkpt>
      <trkpt lat="59.3033399304" lon="18.0523705256">
        <ele>0</ele>
        <time>2010-11-18T09:30:09Z</time>
      </trkpt>
      <trkpt lat="59.3033434508" lon="18.0523151212">
        <ele>0</ele>
        <time>2010-11-18T09:30:10Z</time>
      </trkpt>
      <trkpt lat="59.3033403495" lon="18.0522135326">
        <ele>0</ele>
        <time>2010-11-18T09:30:12Z</time>
      </trkpt>
      <trkpt lat="59.3033417744" lon="18.0521691923">
        <ele>0</ele>
        <time>2010-11-18T09:30:13Z</time>
      </trkpt>
      <trkpt lat="59.3033306265" lon="18.0520388538">
        <ele>0</ele>
        <time>2010-11-18T09:30:16Z</time>
      </trkpt>
      <trkpt lat="59.3033006193" lon="18.0518721378">
        <ele>0</ele>
        <time>2010-11-18T09:30:20Z</time>
      </trkpt>
      <trkpt lat="59.3032929079" lon="18.0518367662">
        <ele>0</ele>
        <time>2010-11-18T09:30:21Z</time>
      </trkpt>
      <trkpt lat="59.3032710312" lon="18.0516929328">
        <ele>0</ele>
        <time>2010-11-18T09:30:24Z</time>
      </trkpt>
      <trkpt lat="59.3032626493" lon="18.0516000613">
        <ele>0</ele>
        <time>2010-11-18T09:30:26Z</time>
      </trkpt>
      <trkpt lat="59.3032500764" lon="18.051458491">
        <ele>0</ele>
        <time>2010-11-18T09:30:29Z</time>
      </trkpt>
      <trkpt lat="59.3032315524" lon="18.0513508674">
        <ele>0</ele>
        <time>2010-11-18T09:30:31Z</time>
      </trkpt>
      <trkpt lat="59.303219231" lon="18.051253805">
        <ele>0</ele>
        <time>2010-11-18T09:30:33Z</time>
      </trkpt>
      <trkpt lat="59.3032281996" lon="18.0511984007">
        <ele>0</ele>
        <time>2010-11-18T09:30:34Z</time>
      </trkpt>
      <trkpt lat="59.3032111844" lon="18.0510557407">
        <ele>0</ele>
        <time>2010-11-18T09:30:37Z</time>
      </trkpt>
      <trkpt lat="59.3031930795" lon="18.0509559123">
        <ele>0</ele>
        <time>2010-11-18T09:30:39Z</time>
      </trkpt>
      <trkpt lat="59.3031862063" lon="18.050908806">
        <ele>0</ele>
        <time>2010-11-18T09:30:40Z</time>
      </trkpt>
      <trkpt lat="59.3031797523" lon="18.0507503043">
        <ele>0</ele>
        <time>2010-11-18T09:30:43Z</time>
      </trkpt>
      <trkpt lat="59.3031697778" lon="18.050694397">
        <ele>0</ele>
        <time>2010-11-18T09:30:44Z</time>
      </trkpt>
      <trkpt lat="59.3031743878" lon="18.050519383">
        <ele>0</ele>
        <time>2010-11-18T09:30:47Z</time>
      </trkpt>
      <trkpt lat="59.3031710351" lon="18.0504055568">
        <ele>0</ele>
        <time>2010-11-18T09:30:49Z</time>
      </trkpt>
      <trkpt lat="59.3031693587" lon="18.0503519964">
        <ele>0</ele>
        <time>2010-11-18T09:30:50Z</time>
      </trkpt>
      <trkpt lat="59.3031736335" lon="18.0502380026">
        <ele>0</ele>
        <time>2010-11-18T09:30:52Z</time>
      </trkpt>
      <trkpt lat="59.3031774053" lon="18.0501313848">
        <ele>0.2</ele>
        <time>2010-11-18T09:30:54Z</time>
      </trkpt>
      <trkpt lat="59.3031711189" lon="18.0499867132">
        <ele>1.2</ele>
        <time>2010-11-18T09:30:57Z</time>
      </trkpt>
      <trkpt lat="59.3031774891" lon="18.0498727194">
        <ele>1.6</ele>
        <time>2010-11-18T09:30:59Z</time>
      </trkpt>
      <trkpt lat="59.3031810095" lon="18.0497712984">
        <ele>2</ele>
        <time>2010-11-18T09:31:01Z</time>
      </trkpt>
      <trkpt lat="59.3031843623" lon="18.0497163131">
        <ele>2.2</ele>
        <time>2010-11-18T09:31:02Z</time>
      </trkpt>
      <trkpt lat="59.303163659" lon="18.0495454062">
        <ele>3</ele>
        <time>2010-11-18T09:31:05Z</time>
      </trkpt>
      <trkpt lat="59.3031593842" lon="18.0494990543">
        <ele>3.2</ele>
        <time>2010-11-18T09:31:06Z</time>
      </trkpt>
      <trkpt lat="59.3031571211" lon="18.0493965436">
        <ele>3.8</ele>
        <time>2010-11-18T09:31:08Z</time>
      </trkpt>
      <trkpt lat="59.3031600548" lon="18.0492135668">
        <ele>4.4</ele>
        <time>2010-11-18T09:31:12Z</time>
      </trkpt>
      <trkpt lat="59.3031570373" lon="18.0491724954">
        <ele>4.6</ele>
        <time>2010-11-18T09:31:13Z</time>
      </trkpt>
      <trkpt lat="59.3031560315" lon="18.0490776962">
        <ele>5.2</ele>
        <time>2010-11-18T09:31:15Z</time>
      </trkpt>
      <trkpt lat="59.3031624017" lon="18.0489100582">
        <ele>6</ele>
        <time>2010-11-18T09:31:18Z</time>
      </trkpt>
      <trkpt lat="59.3031644972" lon="18.0487967349">
        <ele>6.2</ele>
        <time>2010-11-18T09:31:20Z</time>
      </trkpt>
      <trkpt lat="59.3031648325" lon="18.0487417496">
        <ele>6.4</ele>
        <time>2010-11-18T09:31:21Z</time>
      </trkpt>
      <trkpt lat="59.30316785" lon="18.0485615388">
        <ele>6.8</ele>
        <time>2010-11-18T09:31:24Z</time>
      </trkpt>
      <trkpt lat="59.3031779082" lon="18.0485080622">
        <ele>7</ele>
        <time>2010-11-18T09:31:25Z</time>
      </trkpt>
      <trkpt lat="59.3031984439" lon="18.0484079823">
        <ele>7</ele>
        <time>2010-11-18T09:31:27Z</time>
      </trkpt>
      <trkpt lat="59.3032101786" lon="18.0483461239">
        <ele>7.2</ele>
        <time>2010-11-18T09:31:28Z</time>
      </trkpt>
      <trkpt lat="59.303256279" lon="18.0481174657">
        <ele>7.4</ele>
        <time>2010-11-18T09:31:32Z</time>
      </trkpt>
      <trkpt lat="59.3032965959" lon="18.047821417">
        <ele>8</ele>
        <time>2010-11-18T09:31:37Z</time>
      </trkpt>
      <trkpt lat="59.3033141141" lon="18.0476896535">
        <ele>8.4</ele>
        <time>2010-11-18T09:31:39Z</time>
      </trkpt>
      <trkpt lat="59.303331297" lon="18.0475737318">
        <ele>8.8</ele>
        <time>2010-11-18T09:31:41Z</time>
      </trkpt>
      <trkpt lat="59.3033520003" lon="18.0474618335">
        <ele>9</ele>
        <time>2010-11-18T09:31:43Z</time>
      </trkpt>
      <trkpt lat="59.303382259" lon="18.0473097858">
        <ele>9.2</ele>
        <time>2010-11-18T09:31:46Z</time>
      </trkpt>
      <trkpt lat="59.3033892159" lon="18.0472521183">
        <ele>9.2</ele>
        <time>2010-11-18T09:31:47Z</time>
      </trkpt>
      <trkpt lat="59.3033823428" lon="18.0471354423">
        <ele>9.4</ele>
        <time>2010-11-18T09:31:49Z</time>
      </trkpt>
      <trkpt lat="59.3033777327" lon="18.0470299142">
        <ele>9.4</ele>
        <time>2010-11-18T09:31:51Z</time>
      </trkpt>
      <trkpt lat="59.3033906409" lon="18.046914663">
        <ele>9.6</ele>
        <time>2010-11-18T09:31:53Z</time>
      </trkpt>
      <trkpt lat="59.3034025432" lon="18.0467989928">
        <ele>9.6</ele>
        <time>2010-11-18T09:31:55Z</time>
      </trkpt>
      <trkpt lat="59.3034219892" lon="18.0467012599">
        <ele>9.6</ele>
        <time>2010-11-18T09:31:57Z</time>
      </trkpt>
      <trkpt lat="59.3034278565" lon="18.0465845">
        <ele>9.8</ele>
        <time>2010-11-18T09:31:59Z</time>
      </trkpt>
      <trkpt lat="59.3034278565" lon="18.0465293471">
        <ele>9.8</ele>
        <time>2010-11-18T09:32:00Z</time>
      </trkpt>
      <trkpt lat="59.3034348135" lon="18.0463535787">
        <ele>9.4</ele>
        <time>2010-11-18T09:32:03Z</time>
      </trkpt>
      <trkpt lat="59.3034406808" lon="18.046232544">
        <ele>9</ele>
        <time>2010-11-18T09:32:05Z</time>
      </trkpt>
      <trkpt lat="59.303448476" lon="18.0461281894">
        <ele>8.8</ele>
        <time>2010-11-18T09:32:07Z</time>
      </trkpt>
      <trkpt lat="59.303455852" lon="18.0460224936">
        <ele>8.6</ele>
        <time>2010-11-18T09:32:09Z</time>
      </trkpt>
      <trkpt lat="59.3034468834" lon="18.0459200668">
        <ele>8.2</ele>
        <time>2010-11-18T09:32:11Z</time>
      </trkpt>
      <trkpt lat="59.3034303711" lon="18.0458066597">
        <ele>7.8</ele>
        <time>2010-11-18T09:32:13Z</time>
      </trkpt>
      <trkpt lat="59.3034172115" lon="18.0457043167">
        <ele>7.4</ele>
        <time>2010-11-18T09:32:15Z</time>
      </trkpt>
      <trkpt lat="59.3034038843" lon="18.0455991238">
        <ele>7</ele>
        <time>2010-11-18T09:32:17Z</time>
      </trkpt>
      <trkpt lat="59.3033985198" lon="18.0455015585">
        <ele>6.8</ele>
        <time>2010-11-18T09:32:19Z</time>
      </trkpt>
      <trkpt lat="59.3033967597" lon="18.0454767481">
        <ele>6.6</ele>
        <time>2010-11-18T09:32:20Z</time>
      </trkpt>
      <trkpt lat="59.303396592" lon="18.0453694598">
        <ele>6.4</ele>
        <time>2010-11-18T09:32:23Z</time>
      </trkpt>
      <trkpt lat="59.3033945804" lon="18.0453287237">
        <ele>6.2</ele>
        <time>2010-11-18T09:32:24Z</time>
      </trkpt>
      <trkpt lat="59.3033967597" lon="18.0452435636">
        <ele>5.8</ele>
        <time>2010-11-18T09:32:26Z</time>
      </trkpt>
      <trkpt lat="59.3034542595" lon="18.0451749997">
        <ele>5</ele>
        <time>2010-11-18T09:32:30Z</time>
      </trkpt>
      <trkpt lat="59.3035005276" lon="18.0451371973">
        <ele>4.8</ele>
        <time>2010-11-18T09:32:32Z</time>
      </trkpt>
      <trkpt lat="59.3035819996" lon="18.0450722376">
        <ele>4.4</ele>
        <time>2010-11-18T09:32:36Z</time>
      </trkpt>
      <trkpt lat="59.303553585" lon="18.044885908">
        <ele>4</ele>
        <time>2010-11-18T09:32:40Z</time>
      </trkpt>
      <trkpt lat="59.3035335523" lon="18.0447630293">
        <ele>4</ele>
        <time>2010-11-18T09:32:43Z</time>
      </trkpt>
      <trkpt lat="59.3035074007" lon="18.0446662184">
        <ele>3.8</ele>
        <time>2010-11-18T09:32:45Z</time>
      </trkpt>
      <trkpt lat="59.3034977615" lon="18.0446198665">
        <ele>3.8</ele>
        <time>2010-11-18T09:32:46Z</time>
      </trkpt>
      <trkpt lat="59.3034610488" lon="18.0444726803">
        <ele>3.8</ele>
        <time>2010-11-18T09:32:49Z</time>
      </trkpt>
      <trkpt lat="59.3034330533" lon="18.0443844189">
        <ele>3.8</ele>
        <time>2010-11-18T09:32:51Z</time>
      </trkpt>
      <trkpt lat="59.3034049739" lon="18.0442837523">
        <ele>3.8</ele>
        <time>2010-11-18T09:32:53Z</time>
      </trkpt>
      <trkpt lat="59.3033755534" lon="18.0441916352">
        <ele>3.6</ele>
        <time>2010-11-18T09:32:55Z</time>
      </trkpt>
      <trkpt lat="59.3033298721" lon="18.0440747915">
        <ele>3.6</ele>
        <time>2010-11-18T09:32:58Z</time>
      </trkpt>
      <trkpt lat="59.3032996134" lon="18.0439589536">
        <ele>3.6</ele>
        <time>2010-11-18T09:33:01Z</time>
      </trkpt>
      <trkpt lat="59.3032982723" lon="18.0439153678">
        <ele>3.6</ele>
        <time>2010-11-18T09:33:02Z</time>
      </trkpt>
      <trkpt lat="59.303297937" lon="18.0437986917">
        <ele>3.6</ele>
        <time>2010-11-18T09:33:05Z</time>
      </trkpt>
      <trkpt lat="59.3032908963" lon="18.0437599673">
        <ele>3.6</ele>
        <time>2010-11-18T09:33:06Z</time>
      </trkpt>
      <trkpt lat="59.3032693548" lon="18.0435879707">
        <ele>3.6</ele>
        <time>2010-11-18T09:33:10Z</time>
      </trkpt>
      <trkpt lat="59.3032509984" lon="18.0434759047">
        <ele>3.6</ele>
        <time>2010-11-18T09:33:13Z</time>
      </trkpt>
      <trkpt lat="59.3032360786" lon="18.0433697899">
        <ele>3.6</ele>
        <time>2010-11-18T09:33:16Z</time>
      </trkpt>
      <trkpt lat="59.3032316362" lon="18.0433227674">
        <ele>3.6</ele>
        <time>2010-11-18T09:33:17Z</time>
      </trkpt>
      <trkpt lat="59.3032345699" lon="18.043239619">
        <ele>3.6</ele>
        <time>2010-11-18T09:33:19Z</time>
      </trkpt>
      <trkpt lat="59.3032197339" lon="18.043081704">
        <ele>3.6</ele>
        <time>2010-11-18T09:33:23Z</time>
      </trkpt>
      <trkpt lat="59.3032218294" lon="18.0430375314">
        <ele>3.6</ele>
        <time>2010-11-18T09:33:24Z</time>
      </trkpt>
      <trkpt lat="59.3032030539" lon="18.0427549775">
        <ele>3.6</ele>
        <time>2010-11-18T09:33:30Z</time>
      </trkpt>
      <trkpt lat="59.3031945882" lon="18.0426539756">
        <ele>3.6</ele>
        <time>2010-11-18T09:33:32Z</time>
      </trkpt>
      <trkpt lat="59.3031818477" lon="18.0424098947">
        <ele>3.6</ele>
        <time>2010-11-18T09:33:37Z</time>
      </trkpt>
      <trkpt lat="59.3031749746" lon="18.0423674823">
        <ele>3.6</ele>
        <time>2010-11-18T09:33:38Z</time>
      </trkpt>
      <trkpt lat="59.3031545227" lon="18.0421990061">
        <ele>3.6</ele>
        <time>2010-11-18T09:33:42Z</time>
      </trkpt>
      <trkpt lat="59.303122001" lon="18.0420814919">
        <ele>3.6</ele>
        <time>2010-11-18T09:33:45Z</time>
      </trkpt>
      <trkpt lat="59.3030878028" lon="18.0419509857">
        <ele>3.6</ele>
        <time>2010-11-18T09:33:48Z</time>
      </trkpt>
      <trkpt lat="59.3030759843" lon="18.0419103335">
        <ele>3.6</ele>
        <time>2010-11-18T09:33:49Z</time>
      </trkpt>
      <trkpt lat="59.3030375114" lon="18.0417509097">
        <ele>4.2</ele>
        <time>2010-11-18T09:33:52Z</time>
      </trkpt>
      <trkpt lat="59.3030148803" lon="18.0416493211">
        <ele>4.4</ele>
        <time>2010-11-18T09:33:54Z</time>
      </trkpt>
      <trkpt lat="59.3029889802" lon="18.0415512529">
        <ele>4.6</ele>
        <time>2010-11-18T09:33:56Z</time>
      </trkpt>
      <trkpt lat="59.3029733061" lon="18.0414378458">
        <ele>4.8</ele>
        <time>2010-11-18T09:33:58Z</time>
      </trkpt>
      <trkpt lat="59.3029585539" lon="18.0413262827">
        <ele>5</ele>
        <time>2010-11-18T09:34:00Z</time>
      </trkpt>
      <trkpt lat="59.3029489986" lon="18.0412181562">
        <ele>5.2</ele>
        <time>2010-11-18T09:34:02Z</time>
      </trkpt>
      <trkpt lat="59.3029403652" lon="18.0411059225">
        <ele>5.2</ele>
        <time>2010-11-18T09:34:04Z</time>
      </trkpt>
      <trkpt lat="59.302921003" lon="18.0410070161">
        <ele>5.2</ele>
        <time>2010-11-18T09:34:06Z</time>
      </trkpt>
      <trkpt lat="59.3029032334" lon="18.0408909268">
        <ele>5.4</ele>
        <time>2010-11-18T09:34:08Z</time>
      </trkpt>
      <trkpt lat="59.3028854638" lon="18.0407803695">
        <ele>5.4</ele>
        <time>2010-11-18T09:34:10Z</time>
      </trkpt>
      <trkpt lat="59.3028697058" lon="18.0406760987">
        <ele>5.4</ele>
        <time>2010-11-18T09:34:12Z</time>
      </trkpt>
      <trkpt lat="59.3028541154" lon="18.0405757673">
        <ele>5.4</ele>
        <time>2010-11-18T09:34:14Z</time>
      </trkpt>
      <trkpt lat="59.3028560433" lon="18.0404403997">
        <ele>5.6</ele>
        <time>2010-11-18T09:34:17Z</time>
      </trkpt>
      <trkpt lat="59.3028578035" lon="18.040335123">
        <ele>5.6</ele>
        <time>2010-11-18T09:34:19Z</time>
      </trkpt>
      <trkpt lat="59.3028565462" lon="18.0402791319">
        <ele>5.6</ele>
        <time>2010-11-18T09:34:20Z</time>
      </trkpt>
      <trkpt lat="59.3029092683" lon="18.0401280901">
        <ele>5.6</ele>
        <time>2010-11-18T09:34:24Z</time>
      </trkpt>
      <trkpt lat="59.3029452267" lon="18.0400529882">
        <ele>5.6</ele>
        <time>2010-11-18T09:34:26Z</time>
      </trkpt>
      <trkpt lat="59.3029750663" lon="18.039977132">
        <ele>5.6</ele>
        <time>2010-11-18T09:34:28Z</time>
      </trkpt>
      <trkpt lat="59.3029953505" lon="18.0398813269">
        <ele>5.6</ele>
        <time>2010-11-18T09:34:30Z</time>
      </trkpt>
      <trkpt lat="59.303080762" lon="18.0396580331">
        <ele>6.2</ele>
        <time>2010-11-18T09:34:36Z</time>
      </trkpt>
      <trkpt lat="59.3031163851" lon="18.039580752">
        <ele>6.4</ele>
        <time>2010-11-18T09:34:38Z</time>
      </trkpt>
      <trkpt lat="59.3031402735" lon="18.0394861203">
        <ele>6.8</ele>
        <time>2010-11-18T09:34:40Z</time>
      </trkpt>
      <trkpt lat="59.3031454703" lon="18.0394426183">
        <ele>6.8</ele>
        <time>2010-11-18T09:34:41Z</time>
      </trkpt>
      <trkpt lat="59.303196097" lon="18.0393114416">
        <ele>7</ele>
        <time>2010-11-18T09:34:44Z</time>
      </trkpt>
      <trkpt lat="59.3032256013" lon="18.0392344957">
        <ele>7.2</ele>
        <time>2010-11-18T09:34:46Z</time>
      </trkpt>
      <trkpt lat="59.3032763956" lon="18.0390076815">
        <ele>7.6</ele>
        <time>2010-11-18T09:34:51Z</time>
      </trkpt>
      <trkpt lat="59.3032889684" lon="18.0388885747">
        <ele>8</ele>
        <time>2010-11-18T09:34:53Z</time>
      </trkpt>
      <trkpt lat="59.3032955063" lon="18.0387697194">
        <ele>8.4</ele>
        <time>2010-11-18T09:34:55Z</time>
      </trkpt>
      <trkpt lat="59.303296093" lon="18.0386564799">
        <ele>8.6</ele>
        <time>2010-11-18T09:34:57Z</time>
      </trkpt>
      <trkpt lat="59.3032976018" lon="18.038602249">
        <ele>8.8</ele>
        <time>2010-11-18T09:34:58Z</time>
      </trkpt>
      <trkpt lat="59.3033226637" lon="18.0384524644">
        <ele>9</ele>
        <time>2010-11-18T09:35:01Z</time>
      </trkpt>
      <trkpt lat="59.3033254297" lon="18.0383429968">
        <ele>9.4</ele>
        <time>2010-11-18T09:35:03Z</time>
      </trkpt>
      <trkpt lat="59.3033307941" lon="18.0382911129">
        <ele>9.6</ele>
        <time>2010-11-18T09:35:04Z</time>
      </trkpt>
      <trkpt lat="59.3033566103" lon="18.0381140033">
        <ele>10.4</ele>
        <time>2010-11-18T09:35:08Z</time>
      </trkpt>
      <trkpt lat="59.3033819237" lon="18.038004871">
        <ele>11.2</ele>
        <time>2010-11-18T09:35:11Z</time>
      </trkpt>
      <trkpt lat="59.3033922334" lon="18.0379729359">
        <ele>11.6</ele>
        <time>2010-11-18T09:35:12Z</time>
      </trkpt>
      <trkpt lat="59.3034394235" lon="18.037952987">
        <ele>12.4</ele>
        <time>2010-11-18T09:35:16Z</time>
      </trkpt>
      <trkpt lat="59.3034547624" lon="18.0379676553">
        <ele>12.8</ele>
        <time>2010-11-18T09:35:17Z</time>
      </trkpt>
      <trkpt lat="59.3035027069" lon="18.0380342076">
        <ele>13.8</ele>
        <time>2010-11-18T09:35:20Z</time>
      </trkpt>
      <trkpt lat="59.3035452869" lon="18.0381168532">
        <ele>14.4</ele>
        <time>2010-11-18T09:35:23Z</time>
      </trkpt>
      <trkpt lat="59.3035992664" lon="18.0381748559">
        <ele>15.2</ele>
        <time>2010-11-18T09:35:26Z</time>
      </trkpt>
      <trkpt lat="59.3036140185" lon="18.0381957268">
        <ele>15.6</ele>
        <time>2010-11-18T09:35:27Z</time>
      </trkpt>
      <trkpt lat="59.3036626335" lon="18.0382519694">
        <ele>16.4</ele>
        <time>2010-11-18T09:35:30Z</time>
      </trkpt>
      <trkpt lat="59.3037104103" lon="18.0382585073">
        <ele>17</ele>
        <time>2010-11-18T09:35:33Z</time>
      </trkpt>
      <trkpt lat="59.3037657309" lon="18.0382289192">
        <ele>18</ele>
        <time>2010-11-18T09:35:36Z</time>
      </trkpt>
      <trkpt lat="59.3038300201" lon="18.0381838245">
        <ele>18.6</ele>
        <time>2010-11-18T09:35:39Z</time>
      </trkpt>
      <trkpt lat="59.303894896" lon="18.0381649653">
        <ele>19.4</ele>
        <time>2010-11-18T09:35:42Z</time>
      </trkpt>
      <trkpt lat="59.3039438463" lon="18.0381419989">
        <ele>20</ele>
        <time>2010-11-18T09:35:44Z</time>
      </trkpt>
      <trkpt lat="59.3039911202" lon="18.0381195354">
        <ele>20.8</ele>
        <time>2010-11-18T09:35:46Z</time>
      </trkpt>
      <trkpt lat="59.3040415792" lon="18.0380876003">
        <ele>21.4</ele>
        <time>2010-11-18T09:35:48Z</time>
      </trkpt>
      <trkpt lat="59.3040786272" lon="18.0380295138">
        <ele>22.2</ele>
        <time>2010-11-18T09:35:50Z</time>
      </trkpt>
      <trkpt lat="59.3041495381" lon="18.0379292662">
        <ele>23.4</ele>
        <time>2010-11-18T09:35:53Z</time>
      </trkpt>
      <trkpt lat="59.3042070379" lon="18.0378325391">
        <ele>24.4</ele>
        <time>2010-11-18T09:35:56Z</time>
      </trkpt>
      <trkpt lat="59.3042416552" lon="18.0377533302">
        <ele>25.2</ele>
        <time>2010-11-18T09:35:58Z</time>
      </trkpt>
      <trkpt lat="59.304276943" lon="18.0376757138">
        <ele>26</ele>
        <time>2010-11-18T09:36:00Z</time>
      </trkpt>
      <trkpt lat="59.3043020049" lon="18.0375808307">
        <ele>26.6</ele>
        <time>2010-11-18T09:36:02Z</time>
      </trkpt>
      <trkpt lat="59.3043054414" lon="18.0374769789">
        <ele>27.4</ele>
        <time>2010-11-18T09:36:04Z</time>
      </trkpt>
      <trkpt lat="59.3043040165" lon="18.0373817605">
        <ele>28.2</ele>
        <time>2010-11-18T09:36:06Z</time>
      </trkpt>
      <trkpt lat="59.3042914437" lon="18.0372836085">
        <ele>28.8</ele>
        <time>2010-11-18T09:36:08Z</time>
      </trkpt>
      <trkpt lat="59.3042892644" lon="18.0371909885">
        <ele>29.4</ele>
        <time>2010-11-18T09:36:10Z</time>
      </trkpt>
      <trkpt lat="59.3042978139" lon="18.0371494981">
        <ele>29.8</ele>
        <time>2010-11-18T09:36:11Z</time>
      </trkpt>
      <trkpt lat="59.3043310062" lon="18.0370616558">
        <ele>30.6</ele>
        <time>2010-11-18T09:36:13Z</time>
      </trkpt>
      <trkpt lat="59.3043688924" lon="18.0369889847">
        <ele>31</ele>
        <time>2010-11-18T09:36:15Z</time>
      </trkpt>
      <trkpt lat="59.3044001569" lon="18.0368947721">
        <ele>31.8</ele>
        <time>2010-11-18T09:36:17Z</time>
      </trkpt>
      <trkpt lat="59.3044366182" lon="18.0368158985">
        <ele>32.4</ele>
        <time>2010-11-18T09:36:19Z</time>
      </trkpt>
      <trkpt lat="59.3044496939" lon="18.0367682055">
        <ele>32.8</ele>
        <time>2010-11-18T09:36:20Z</time>
      </trkpt>
      <trkpt lat="59.3044877478" lon="18.0366226957">
        <ele>33.6</ele>
        <time>2010-11-18T09:36:23Z</time>
      </trkpt>
      <trkpt lat="59.3045019132" lon="18.0365157426">
        <ele>33.8</ele>
        <time>2010-11-18T09:36:25Z</time>
      </trkpt>
      <trkpt lat="59.3044905976" lon="18.0364128129">
        <ele>34.2</ele>
        <time>2010-11-18T09:36:27Z</time>
      </trkpt>
      <trkpt lat="59.304470481" lon="18.0363575762">
        <ele>34.4</ele>
        <time>2010-11-18T09:36:28Z</time>
      </trkpt>
      <trkpt lat="59.3043267315" lon="18.036199745">
        <ele>34.8</ele>
        <time>2010-11-18T09:36:34Z</time>
      </trkpt>
      <trkpt lat="59.3042766915" lon="18.0361545666">
        <ele>35</ele>
        <time>2010-11-18T09:36:36Z</time>
      </trkpt>
      <trkpt lat="59.3042304234" lon="18.0361046942">
        <ele>35.2</ele>
        <time>2010-11-18T09:36:38Z</time>
      </trkpt>
      <trkpt lat="59.3041894359" lon="18.0360523074">
        <ele>35.2</ele>
        <time>2010-11-18T09:36:40Z</time>
      </trkpt>
      <trkpt lat="59.3041697385" lon="18.0360060393">
        <ele>35.2</ele>
        <time>2010-11-18T09:36:41Z</time>
      </trkpt>
      <trkpt lat="59.3041709958" lon="18.0358460288">
        <ele>35.4</ele>
        <time>2010-11-18T09:36:44Z</time>
      </trkpt>
      <trkpt lat="59.3041904418" lon="18.0357548337">
        <ele>35.4</ele>
        <time>2010-11-18T09:36:46Z</time>
      </trkpt>
      <trkpt lat="59.3042044395" lon="18.0357054644">
        <ele>35.4</ele>
        <time>2010-11-18T09:36:47Z</time>
      </trkpt>
      <trkpt lat="59.3042438345" lon="18.0355701805">
        <ele>35.4</ele>
        <time>2010-11-18T09:36:50Z</time>
      </trkpt>
      <trkpt lat="59.304263029" lon="18.0354715255">
        <ele>35.4</ele>
        <time>2010-11-18T09:36:52Z</time>
      </trkpt>
      <trkpt lat="59.3042884262" lon="18.0353861978">
        <ele>35.4</ele>
        <time>2010-11-18T09:36:54Z</time>
      </trkpt>
      <trkpt lat="59.3043064473" lon="18.035351832">
        <ele>35.4</ele>
        <time>2010-11-18T09:36:55Z</time>
      </trkpt>
      <trkpt lat="59.3043684733" lon="18.0353431986">
        <ele>35.4</ele>
        <time>2010-11-18T09:36:58Z</time>
      </trkpt>
      <trkpt lat="59.3043719937" lon="18.0353939091">
        <ele>35.4</ele>
        <time>2010-11-18T09:37:01Z</time>
      </trkpt>
      <trkpt lat="59.3043763523" lon="18.0354377465">
        <ele>35.4</ele>
        <time>2010-11-18T09:37:04Z</time>
      </trkpt>
      <trkpt lat="59.3044186809" lon="18.0354940728">
        <ele>35.6</ele>
        <time>2010-11-18T09:37:07Z</time>
      </trkpt>
      <trkpt lat="59.3044169207" lon="18.0355309532">
        <ele>35.6</ele>
        <time>2010-11-18T09:37:08Z</time>
      </trkpt>
      <trkpt lat="59.304399654" lon="18.0355724436">
        <ele>35.6</ele>
        <time>2010-11-18T09:37:10Z</time>
      </trkpt>
      <trkpt lat="59.3043910206" lon="18.0355342221">
        <ele>35.6</ele>
        <time>2010-11-18T09:37:12Z</time>
      </trkpt>
      <trkpt lat="59.3043900148" lon="18.0356198852">
        <ele>35.6</ele>
        <time>2010-11-18T09:37:16Z</time>
      </trkpt>
      <trkpt lat="59.3043639471" lon="18.0356731102">
        <ele>35.4</ele>
        <time>2010-11-18T09:37:19Z</time>
      </trkpt>
      <trkpt lat="59.304366294" lon="18.0357011896">
        <ele>34.8</ele>
        <time>2010-11-18T09:37:22Z</time>
      </trkpt>
      <trkpt lat="59.304375095" lon="18.0357147683">
        <ele>34.6</ele>
        <time>2010-11-18T09:37:24Z</time>
      </trkpt>
      <trkpt lat="59.3043786992" lon="18.0357159417">
        <ele>34.4</ele>
        <time>2010-11-18T09:37:25Z</time>
      </trkpt>
      <trkpt lat="59.3044087064" lon="18.0357122537">
        <ele>34</ele>
        <time>2010-11-18T09:37:31Z</time>
      </trkpt>
      <trkpt lat="59.3044300803" lon="18.0357171152">
        <ele>33.8</ele>
        <time>2010-11-18T09:37:33Z</time>
      </trkpt>
      <trkpt lat="59.3044532143" lon="18.0357745312">
        <ele>33</ele>
        <time>2010-11-18T09:37:36Z</time>
      </trkpt>
      <trkpt lat="59.3044633564" lon="18.0357908759">
        <ele>32.8</ele>
        <time>2010-11-18T09:37:37Z</time>
      </trkpt>
      <trkpt lat="59.3044829701" lon="18.0357286822">
        <ele>32.4</ele>
        <time>2010-11-18T09:37:41Z</time>
      </trkpt>
      <trkpt lat="59.3045211915" lon="18.0356904608">
        <ele>32</ele>
        <time>2010-11-18T09:37:44Z</time>
      </trkpt>
      <trkpt lat="59.3045413081" lon="18.0356956575">
        <ele>31.2</ele>
        <time>2010-11-18T09:37:48Z</time>
      </trkpt>
      <trkpt lat="59.3045679625" lon="18.0356758762">
        <ele>30.4</ele>
        <time>2010-11-18T09:37:54Z</time>
      </trkpt>
      <trkpt lat="59.3045834691" lon="18.035687108">
        <ele>30.2</ele>
        <time>2010-11-18T09:37:55Z</time>
      </trkpt>
      <trkpt lat="59.3046288989" lon="18.0357289337">
        <ele>30</ele>
        <time>2010-11-18T09:37:57Z</time>
      </trkpt>
      <trkpt lat="59.3046789389" lon="18.0357742798">
        <ele>30</ele>
        <time>2010-11-18T09:37:59Z</time>
      </trkpt>
      <trkpt lat="59.3047283083" lon="18.035827421">
        <ele>29.8</ele>
        <time>2010-11-18T09:38:01Z</time>
      </trkpt>
      <trkpt lat="59.3047812819" lon="18.0358676541">
        <ele>29.6</ele>
        <time>2010-11-18T09:38:04Z</time>
      </trkpt>
      <trkpt lat="59.3047853052" lon="18.0358609486">
        <ele>29.6</ele>
        <time>2010-11-18T09:38:05Z</time>
      </trkpt>
      <trkpt lat="59.3048019852" lon="18.0358134232">
        <ele>29.6</ele>
        <time>2010-11-18T09:38:09Z</time>
      </trkpt>
      <trkpt lat="59.304798381" lon="18.0357809853">
        <ele>29.6</ele>
        <time>2010-11-18T09:38:10Z</time>
      </trkpt>
      <trkpt lat="59.3047460779" lon="18.0357567616">
        <ele>29.4</ele>
        <time>2010-11-18T09:38:13Z</time>
      </trkpt>
      <trkpt lat="59.3046942778" lon="18.0357739445">
        <ele>29.4</ele>
        <time>2010-11-18T09:38:16Z</time>
      </trkpt>
      <trkpt lat="59.3046692997" lon="18.0357661493">
        <ele>29.2</ele>
        <time>2010-11-18T09:38:17Z</time>
      </trkpt>
      <trkpt lat="59.3046474229" lon="18.0357400816">
        <ele>29</ele>
        <time>2010-11-18T09:38:18Z</time>
      </trkpt>
      <trkpt lat="59.3046097044" lon="18.0356702604">
        <ele>28.8</ele>
        <time>2010-11-18T09:38:20Z</time>
      </trkpt>
      <trkpt lat="59.3045993947" lon="18.0356470425">
        <ele>28.6</ele>
        <time>2010-11-18T09:38:21Z</time>
      </trkpt>
      <trkpt lat="59.3045703933" lon="18.0355645646">
        <ele>28.4</ele>
        <time>2010-11-18T09:38:23Z</time>
      </trkpt>
      <trkpt lat="59.3045568984" lon="18.0354545941">
        <ele>28</ele>
        <time>2010-11-18T09:38:26Z</time>
      </trkpt>
      <trkpt lat="59.3044926931" lon="18.0353601301">
        <ele>27.8</ele>
        <time>2010-11-18T09:38:30Z</time>
      </trkpt>
      <trkpt lat="59.3044360314" lon="18.0353188911">
        <ele>27.6</ele>
        <time>2010-11-18T09:38:33Z</time>
      </trkpt>
      <trkpt lat="59.3044068624" lon="18.0352685159">
        <ele>27.6</ele>
        <time>2010-11-18T09:38:35Z</time>
      </trkpt>
      <trkpt lat="59.304382052" lon="18.0352508301">
        <ele>27.6</ele>
        <time>2010-11-18T09:38:37Z</time>
      </trkpt>
      <trkpt lat="59.3043156673" lon="18.0353318831">
        <ele>27.4</ele>
        <time>2010-11-18T09:38:41Z</time>
      </trkpt>
      <trkpt lat="59.3042870851" lon="18.0354169594">
        <ele>27.4</ele>
        <time>2010-11-18T09:38:43Z</time>
      </trkpt>
      <trkpt lat="59.3042636996" lon="18.0354919774">
        <ele>27.4</ele>
        <time>2010-11-18T09:38:45Z</time>
      </trkpt>
      <trkpt lat="59.3042330218" lon="18.035581496">
        <ele>27.4</ele>
        <time>2010-11-18T09:38:47Z</time>
      </trkpt>
      <trkpt lat="59.3042183535" lon="18.0356344697">
        <ele>27.4</ele>
        <time>2010-11-18T09:38:48Z</time>
      </trkpt>
      <trkpt lat="59.3041926211" lon="18.035733879">
        <ele>27.4</ele>
        <time>2010-11-18T09:38:50Z</time>
      </trkpt>
      <trkpt lat="59.3041797967" lon="18.0357724357">
        <ele>27.4</ele>
        <time>2010-11-18T09:38:51Z</time>
      </trkpt>
      <trkpt lat="59.3040906133" lon="18.0358229786">
        <ele>27.4</ele>
        <time>2010-11-18T09:38:55Z</time>
      </trkpt>
      <trkpt lat="59.3040691557" lon="18.0358114116">
        <ele>27.4</ele>
        <time>2010-11-18T09:38:56Z</time>
      </trkpt>
      <trkpt lat="59.3039905334" lon="18.0357745312">
        <ele>27.4</ele>
        <time>2010-11-18T09:38:59Z</time>
      </trkpt>
      <trkpt lat="59.3039404097" lon="18.0357809853">
        <ele>27.4</ele>
        <time>2010-11-18T09:39:01Z</time>
      </trkpt>
      <trkpt lat="59.3039167727" lon="18.0358036164">
        <ele>27.4</ele>
        <time>2010-11-18T09:39:02Z</time>
      </trkpt>
      <trkpt lat="59.3039158507" lon="18.0359373077">
        <ele>27.4</ele>
        <time>2010-11-18T09:39:05Z</time>
      </trkpt>
      <trkpt lat="59.3039577602" lon="18.0360059555">
        <ele>27.4</ele>
        <time>2010-11-18T09:39:07Z</time>
      </trkpt>
      <trkpt lat="59.3039830736" lon="18.036036717">
        <ele>27.4</ele>
        <time>2010-11-18T09:39:08Z</time>
      </trkpt>
      <trkpt lat="59.3040419145" lon="18.0361203684">
        <ele>27.4</ele>
        <time>2010-11-18T09:39:11Z</time>
      </trkpt>
      <trkpt lat="59.3040855004" lon="18.0361844061">
        <ele>27.4</ele>
        <time>2010-11-18T09:39:13Z</time>
      </trkpt>
      <trkpt lat="59.304131517" lon="18.0362426603">
        <ele>27.4</ele>
        <time>2010-11-18T09:39:15Z</time>
      </trkpt>
      <trkpt lat="59.3041792938" lon="18.0362957177">
        <ele>27.4</ele>
        <time>2010-11-18T09:39:17Z</time>
      </trkpt>
      <trkpt lat="59.304225981" lon="18.0363466797">
        <ele>27.4</ele>
        <time>2010-11-18T09:39:19Z</time>
      </trkpt>
      <trkpt lat="59.3042717462" lon="18.0364051015">
        <ele>27.4</ele>
        <time>2010-11-18T09:39:21Z</time>
      </trkpt>
      <trkpt lat="59.3043151644" lon="18.0364910998">
        <ele>27.4</ele>
        <time>2010-11-18T09:39:23Z</time>
      </trkpt>
      <trkpt lat="59.3043467642" lon="18.0365667046">
        <ele>27.4</ele>
        <time>2010-11-18T09:39:25Z</time>
      </trkpt>
      <trkpt lat="59.3043756818" lon="18.0366391242">
        <ele>27.4</ele>
        <time>2010-11-18T09:39:27Z</time>
      </trkpt>
      <trkpt lat="59.3044418988" lon="18.0367625058">
        <ele>27.4</ele>
        <time>2010-11-18T09:39:30Z</time>
      </trkpt>
      <trkpt lat="59.3044905138" lon="18.0368381943">
        <ele>27.4</ele>
        <time>2010-11-18T09:39:32Z</time>
      </trkpt>
      <trkpt lat="59.3045391288" lon="18.0369075964">
        <ele>27.4</ele>
        <time>2010-11-18T09:39:34Z</time>
      </trkpt>
      <trkpt lat="59.304666366" lon="18.0370582192">
        <ele>27.4</ele>
        <time>2010-11-18T09:39:39Z</time>
      </trkpt>
      <trkpt lat="59.3047202617" lon="18.0371124501">
        <ele>27.4</ele>
        <time>2010-11-18T09:39:41Z</time>
      </trkpt>
      <trkpt lat="59.3047762528" lon="18.0371684412">
        <ele>27.4</ele>
        <time>2010-11-18T09:39:43Z</time>
      </trkpt>
      <trkpt lat="59.3048279691" lon="18.0372160504">
        <ele>27.4</ele>
        <time>2010-11-18T09:39:45Z</time>
      </trkpt>
      <trkpt lat="59.3048817809" lon="18.0372703651">
        <ele>27.4</ele>
        <time>2010-11-18T09:39:47Z</time>
      </trkpt>
      <trkpt lat="59.3049322399" lon="18.0373202374">
        <ele>27.4</ele>
        <time>2010-11-18T09:39:49Z</time>
      </trkpt>
      <trkpt lat="59.3049795138" lon="18.0373642424">
        <ele>27.4</ele>
        <time>2010-11-18T09:39:51Z</time>
      </trkpt>
      <trkpt lat="59.3050334094" lon="18.0374178865">
        <ele>27.4</ele>
        <time>2010-11-18T09:39:53Z</time>
      </trkpt>
      <trkpt lat="59.3050827788" lon="18.0374715307">
        <ele>27.4</ele>
        <time>2010-11-18T09:39:55Z</time>
      </trkpt>
      <trkpt lat="59.3051252751" lon="18.0375179664">
        <ele>27.4</ele>
        <time>2010-11-18T09:39:57Z</time>
      </trkpt>
      <trkpt lat="59.305184116" lon="18.0375872009">
        <ele>27.4</ele>
        <time>2010-11-18T09:39:59Z</time>
      </trkpt>
      <trkpt lat="59.3052321443" lon="18.0376456227">
        <ele>27.4</ele>
        <time>2010-11-18T09:40:01Z</time>
      </trkpt>
      <trkpt lat="59.3052821842" lon="18.0377092414">
        <ele>27.4</ele>
        <time>2010-11-18T09:40:03Z</time>
      </trkpt>
      <trkpt lat="59.3053338167" lon="18.0377775539">
        <ele>27.4</ele>
        <time>2010-11-18T09:40:05Z</time>
      </trkpt>
      <trkpt lat="59.3053802525" lon="18.0378384903">
        <ele>27.4</ele>
        <time>2010-11-18T09:40:07Z</time>
      </trkpt>
      <trkpt lat="59.3054281131" lon="18.0378979179">
        <ele>27.4</ele>
        <time>2010-11-18T09:40:09Z</time>
      </trkpt>
      <trkpt lat="59.3054810867" lon="18.0379578485">
        <ele>27.4</ele>
        <time>2010-11-18T09:40:11Z</time>
      </trkpt>
      <trkpt lat="59.3055276063" lon="18.038008559">
        <ele>27.4</ele>
        <time>2010-11-18T09:40:13Z</time>
      </trkpt>
      <trkpt lat="59.3055718627" lon="18.0380572579">
        <ele>27.4</ele>
        <time>2010-11-18T09:40:15Z</time>
      </trkpt>
      <trkpt lat="59.3056221541" lon="18.0381117402">
        <ele>27.4</ele>
        <time>2010-11-18T09:40:17Z</time>
      </trkpt>
      <trkpt lat="59.3056705177" lon="18.0381675637">
        <ele>27</ele>
        <time>2010-11-18T09:40:19Z</time>
      </trkpt>
      <trkpt lat="59.3057158637" lon="18.0382228004">
        <ele>26.6</ele>
        <time>2010-11-18T09:40:21Z</time>
      </trkpt>
      <trkpt lat="59.3057679992" lon="18.0382871734">
        <ele>26.4</ele>
        <time>2010-11-18T09:40:23Z</time>
      </trkpt>
      <trkpt lat="59.3058149378" lon="18.038351714">
        <ele>26.2</ele>
        <time>2010-11-18T09:40:25Z</time>
      </trkpt>
      <trkpt lat="59.3058596133" lon="18.0384062802">
        <ele>26</ele>
        <time>2010-11-18T09:40:27Z</time>
      </trkpt>
      <trkpt lat="59.3059045403" lon="18.038467971">
        <ele>25.8</ele>
        <time>2010-11-18T09:40:29Z</time>
      </trkpt>
      <trkpt lat="59.3059529877" lon="18.0385282368">
        <ele>25.8</ele>
        <time>2010-11-18T09:40:31Z</time>
      </trkpt>
      <trkpt lat="59.3059955677" lon="18.0385784444">
        <ele>25.8</ele>
        <time>2010-11-18T09:40:33Z</time>
      </trkpt>
      <trkpt lat="59.3060814822" lon="18.0386787757">
        <ele>25.6</ele>
        <time>2010-11-18T09:40:36Z</time>
      </trkpt>
      <trkpt lat="59.306132528" lon="18.0387385387">
        <ele>25.6</ele>
        <time>2010-11-18T09:40:38Z</time>
      </trkpt>
      <trkpt lat="59.3061808077" lon="18.0388023249">
        <ele>25.6</ele>
        <time>2010-11-18T09:40:40Z</time>
      </trkpt>
      <trkpt lat="59.306233949" lon="18.0388647701">
        <ele>25.4</ele>
        <time>2010-11-18T09:40:42Z</time>
      </trkpt>
      <trkpt lat="59.3062792951" lon="18.0389146424">
        <ele>25.4</ele>
        <time>2010-11-18T09:40:44Z</time>
      </trkpt>
      <trkpt lat="59.3063219589" lon="18.0389612458">
        <ele>25.4</ele>
        <time>2010-11-18T09:40:46Z</time>
      </trkpt>
      <trkpt lat="59.3063684785" lon="18.0390206734">
        <ele>25.4</ele>
        <time>2010-11-18T09:40:48Z</time>
      </trkpt>
      <trkpt lat="59.3064165068" lon="18.0390763293">
        <ele>25.4</ele>
        <time>2010-11-18T09:40:50Z</time>
      </trkpt>
      <trkpt lat="59.3064631939" lon="18.0391360922">
        <ele>25.4</ele>
        <time>2010-11-18T09:40:52Z</time>
      </trkpt>
      <trkpt lat="59.3065109708" lon="18.0392013034">
        <ele>25.4</ele>
        <time>2010-11-18T09:40:54Z</time>
      </trkpt>
      <trkpt lat="59.3065532156" lon="18.0392626589">
        <ele>25.4</ele>
        <time>2010-11-18T09:40:56Z</time>
      </trkpt>
      <trkpt lat="59.3066000704" lon="18.039316806">
        <ele>25.4</ele>
        <time>2010-11-18T09:40:58Z</time>
      </trkpt>
      <trkpt lat="59.3066528763" lon="18.0393790835">
        <ele>25.4</ele>
        <time>2010-11-18T09:41:00Z</time>
      </trkpt>
      <trkpt lat="59.3067020781" lon="18.0394381759">
        <ele>25.4</ele>
        <time>2010-11-18T09:41:02Z</time>
      </trkpt>
      <trkpt lat="59.3067507769" lon="18.0394984417">
        <ele>25.4</ele>
        <time>2010-11-18T09:41:04Z</time>
      </trkpt>
      <trkpt lat="59.3067937761" lon="18.0395514153">
        <ele>25.4</ele>
        <time>2010-11-18T09:41:06Z</time>
      </trkpt>
      <trkpt lat="59.3068444866" lon="18.0396059815">
        <ele>25.4</ele>
        <time>2010-11-18T09:41:08Z</time>
      </trkpt>
      <trkpt lat="59.3068919281" lon="18.0396575302">
        <ele>25.4</ele>
        <time>2010-11-18T09:41:10Z</time>
      </trkpt>
      <trkpt lat="59.3069416328" lon="18.0397129346">
        <ele>25.4</ele>
        <time>2010-11-18T09:41:12Z</time>
      </trkpt>
      <trkpt lat="59.3069874818" lon="18.0397690095">
        <ele>25.4</ele>
        <time>2010-11-18T09:41:14Z</time>
      </trkpt>
      <trkpt lat="59.3070275473" lon="18.0398220669">
        <ele>25.4</ele>
        <time>2010-11-18T09:41:16Z</time>
      </trkpt>
      <trkpt lat="59.307076749" lon="18.0398814108">
        <ele>25.4</ele>
        <time>2010-11-18T09:41:18Z</time>
      </trkpt>
      <trkpt lat="59.3071263699" lon="18.0399338814">
        <ele>25.4</ele>
        <time>2010-11-18T09:41:20Z</time>
      </trkpt>
      <trkpt lat="59.3071706263" lon="18.0399866874">
        <ele>25.4</ele>
        <time>2010-11-18T09:41:22Z</time>
      </trkpt>
      <trkpt lat="59.3072200795" lon="18.0400415889">
        <ele>25.4</ele>
        <time>2010-11-18T09:41:24Z</time>
      </trkpt>
      <trkpt lat="59.3072660123" lon="18.040096155">
        <ele>25.4</ele>
        <time>2010-11-18T09:41:26Z</time>
      </trkpt>
      <trkpt lat="59.3073192374" lon="18.0401583487">
        <ele>25.4</ele>
        <time>2010-11-18T09:41:28Z</time>
      </trkpt>
      <trkpt lat="59.3073635776" lon="18.0402093107">
        <ele>25.4</ele>
        <time>2010-11-18T09:41:30Z</time>
      </trkpt>
      <trkpt lat="59.3074136176" lon="18.0402694927">
        <ele>25.4</ele>
        <time>2010-11-18T09:41:32Z</time>
      </trkpt>
      <trkpt lat="59.3074614782" lon="18.0403220472">
        <ele>25.4</ele>
        <time>2010-11-18T09:41:34Z</time>
      </trkpt>
      <trkpt lat="59.3075237558" lon="18.040389773">
        <ele>25.4</ele>
        <time>2010-11-18T09:41:37Z</time>
      </trkpt>
      <trkpt lat="59.3075776514" lon="18.0404589237">
        <ele>25.4</ele>
        <time>2010-11-18T09:41:39Z</time>
      </trkpt>
      <trkpt lat="59.3076258473" lon="18.0405267332">
        <ele>25.4</ele>
        <time>2010-11-18T09:41:41Z</time>
      </trkpt>
      <trkpt lat="59.30767463" lon="18.0405873344">
        <ele>25.4</ele>
        <time>2010-11-18T09:41:43Z</time>
      </trkpt>
      <trkpt lat="59.3077177129" lon="18.0406429902">
        <ele>25.4</ele>
        <time>2010-11-18T09:41:45Z</time>
      </trkpt>
      <trkpt lat="59.3077652383" lon="18.0406999871">
        <ele>25.4</ele>
        <time>2010-11-18T09:41:47Z</time>
      </trkpt>
      <trkpt lat="59.30780983" lon="18.0407556429">
        <ele>25.4</ele>
        <time>2010-11-18T09:41:49Z</time>
      </trkpt>
      <trkpt lat="59.3078516557" lon="18.0408075269">
        <ele>25.4</ele>
        <time>2010-11-18T09:41:51Z</time>
      </trkpt>
      <trkpt lat="59.3078993487" lon="18.0408708102">
        <ele>25.4</ele>
        <time>2010-11-18T09:41:53Z</time>
      </trkpt>
      <trkpt lat="59.3079411744" lon="18.0409237">
        <ele>25.4</ele>
        <time>2010-11-18T09:41:55Z</time>
      </trkpt>
      <trkpt lat="59.3079868557" lon="18.0409795235">
        <ele>25.4</ele>
        <time>2010-11-18T09:41:57Z</time>
      </trkpt>
      <trkpt lat="59.30803304" lon="18.0410381968">
        <ele>25.4</ele>
        <time>2010-11-18T09:41:59Z</time>
      </trkpt>
      <trkpt lat="59.3080793919" lon="18.041088572">
        <ele>25.4</ele>
        <time>2010-11-18T09:42:01Z</time>
      </trkpt>
      <trkpt lat="59.3081249894" lon="18.0411427191">
        <ele>25.4</ele>
        <time>2010-11-18T09:42:03Z</time>
      </trkpt>
      <trkpt lat="59.3081731854" lon="18.0412028173">
        <ele>25.4</ele>
        <time>2010-11-18T09:42:05Z</time>
      </trkpt>
      <trkpt lat="59.3082196211" lon="18.0412604848">
        <ele>25.4</ele>
        <time>2010-11-18T09:42:07Z</time>
      </trkpt>
      <trkpt lat="59.3082647995" lon="18.0413127878">
        <ele>25.4</ele>
        <time>2010-11-18T09:42:09Z</time>
      </trkpt>
      <trkpt lat="59.3083123249" lon="18.0413715449">
        <ele>25.4</ele>
        <time>2010-11-18T09:42:11Z</time>
      </trkpt>
      <trkpt lat="59.3083607723" lon="18.0414329004">
        <ele>25.4</ele>
        <time>2010-11-18T09:42:13Z</time>
      </trkpt>
      <trkpt lat="59.30840813" lon="18.0414911546">
        <ele>25.4</ele>
        <time>2010-11-18T09:42:15Z</time>
      </trkpt>
      <trkpt lat="59.3084583376" lon="18.0415513367">
        <ele>25.4</ele>
        <time>2010-11-18T09:42:17Z</time>
      </trkpt>
      <trkpt lat="59.3085076232" lon="18.0416107644">
        <ele>25.4</ele>
        <time>2010-11-18T09:42:19Z</time>
      </trkpt>
      <trkpt lat="59.3085527178" lon="18.0416681804">
        <ele>25.4</ele>
        <time>2010-11-18T09:42:21Z</time>
      </trkpt>
      <trkpt lat="59.3086018357" lon="18.0417284462">
        <ele>25.4</ele>
        <time>2010-11-18T09:42:23Z</time>
      </trkpt>
      <trkpt lat="59.3086451702" lon="18.0417827609">
        <ele>25.4</ele>
        <time>2010-11-18T09:42:25Z</time>
      </trkpt>
      <trkpt lat="59.3086903486" lon="18.0418368242">
        <ele>25.4</ele>
        <time>2010-11-18T09:42:27Z</time>
      </trkpt>
      <trkpt lat="59.30875732" lon="18.0419203079">
        <ele>25.4</ele>
        <time>2010-11-18T09:42:30Z</time>
      </trkpt>
      <trkpt lat="59.3088053483" lon="18.0419760476">
        <ele>25.4</ele>
        <time>2010-11-18T09:42:32Z</time>
      </trkpt>
      <trkpt lat="59.308852706" lon="18.0420267581">
        <ele>25.4</ele>
        <time>2010-11-18T09:42:34Z</time>
      </trkpt>
      <trkpt lat="59.3088950346" lon="18.0420759598">
        <ele>25.4</ele>
        <time>2010-11-18T09:42:36Z</time>
      </trkpt>
      <trkpt lat="59.3089472538" lon="18.0421410034">
        <ele>25.4</ele>
        <time>2010-11-18T09:42:38Z</time>
      </trkpt>
      <trkpt lat="59.3089965394" lon="18.0422035323">
        <ele>25.4</ele>
        <time>2010-11-18T09:42:40Z</time>
      </trkpt>
      <trkpt lat="59.3090440648" lon="18.04225835">
        <ele>25.4</ele>
        <time>2010-11-18T09:42:42Z</time>
      </trkpt>
      <trkpt lat="59.3090866448" lon="18.0423140896">
        <ele>25.4</ele>
        <time>2010-11-18T09:42:44Z</time>
      </trkpt>
      <trkpt lat="59.3091286381" lon="18.0423663088">
        <ele>25.4</ele>
        <time>2010-11-18T09:42:46Z</time>
      </trkpt>
      <trkpt lat="59.3091756606" lon="18.0424244792">
        <ele>25.4</ele>
        <time>2010-11-18T09:42:48Z</time>
      </trkpt>
      <trkpt lat="59.309219917" lon="18.0424803027">
        <ele>25.4</ele>
        <time>2010-11-18T09:42:50Z</time>
      </trkpt>
      <trkpt lat="59.3092670233" lon="18.0425462682">
        <ele>25.4</ele>
        <time>2010-11-18T09:42:52Z</time>
      </trkpt>
      <trkpt lat="59.3093115312" lon="18.0426081266">
        <ele>25.4</ele>
        <time>2010-11-18T09:42:54Z</time>
      </trkpt>
      <trkpt lat="59.3093516805" lon="18.0426690631">
        <ele>25.4</ele>
        <time>2010-11-18T09:42:56Z</time>
      </trkpt>
      <trkpt lat="59.3093971104" lon="18.0427360344">
        <ele>25.4</ele>
        <time>2010-11-18T09:42:58Z</time>
      </trkpt>
      <trkpt lat="59.3094413668" lon="18.0427939534">
        <ele>25.4</ele>
        <time>2010-11-18T09:43:00Z</time>
      </trkpt>
      <trkpt lat="59.3094831925" lon="18.0428505312">
        <ele>25.4</ele>
        <time>2010-11-18T09:43:02Z</time>
      </trkpt>
      <trkpt lat="59.3095267784" lon="18.0429134793">
        <ele>25.4</ele>
        <time>2010-11-18T09:43:04Z</time>
      </trkpt>
      <trkpt lat="59.3095696099" lon="18.0429754215">
        <ele>25.4</ele>
        <time>2010-11-18T09:43:06Z</time>
      </trkpt>
      <trkpt lat="59.3096164647" lon="18.0430391239">
        <ele>25.4</ele>
        <time>2010-11-18T09:43:08Z</time>
      </trkpt>
      <trkpt lat="59.3096572008" lon="18.0430939416">
        <ele>25.4</ele>
        <time>2010-11-18T09:43:10Z</time>
      </trkpt>
      <trkpt lat="59.3096988588" lon="18.0431588175">
        <ele>25.4</ele>
        <time>2010-11-18T09:43:12Z</time>
      </trkpt>
      <trkpt lat="59.3097374994" lon="18.0432269623">
        <ele>25.4</ele>
        <time>2010-11-18T09:43:14Z</time>
      </trkpt>
      <trkpt lat="59.3097814205" lon="18.0432932631">
        <ele>25.4</ele>
        <time>2010-11-18T09:43:16Z</time>
      </trkpt>
      <trkpt lat="59.3098244197" lon="18.0433606536">
        <ele>25.4</ele>
        <time>2010-11-18T09:43:18Z</time>
      </trkpt>
      <trkpt lat="59.3098718612" lon="18.0434302234">
        <ele>25.4</ele>
        <time>2010-11-18T09:43:20Z</time>
      </trkpt>
      <trkpt lat="59.3099160338" lon="18.0434997093">
        <ele>25.4</ele>
        <time>2010-11-18T09:43:22Z</time>
      </trkpt>
      <trkpt lat="59.309958111" lon="18.043569782">
        <ele>25.4</ele>
        <time>2010-11-18T09:43:24Z</time>
      </trkpt>
      <trkpt lat="59.3099990146" lon="18.0436397709">
        <ele>25.4</ele>
        <time>2010-11-18T09:43:26Z</time>
      </trkpt>
      <trkpt lat="59.3101070573" lon="18.0438218258">
        <ele>25.4</ele>
        <time>2010-11-18T09:43:31Z</time>
      </trkpt>
      <trkpt lat="59.3101451112" lon="18.0438889648">
        <ele>25.4</ele>
        <time>2010-11-18T09:43:33Z</time>
      </trkpt>
      <trkpt lat="59.3101881103" lon="18.0439768071">
        <ele>25.4</ele>
        <time>2010-11-18T09:43:35Z</time>
      </trkpt>
      <trkpt lat="59.3102263318" lon="18.044051406">
        <ele>25.4</ele>
        <time>2010-11-18T09:43:37Z</time>
      </trkpt>
      <trkpt lat="59.3102982485" lon="18.0441974187">
        <ele>25.4</ele>
        <time>2010-11-18T09:43:41Z</time>
      </trkpt>
      <trkpt lat="59.3103431755" lon="18.0442901225">
        <ele>25.4</ele>
        <time>2010-11-18T09:43:43Z</time>
      </trkpt>
      <trkpt lat="59.3103806425" lon="18.044368158">
        <ele>25.4</ele>
        <time>2010-11-18T09:43:45Z</time>
      </trkpt>
      <trkpt lat="59.3104208757" lon="18.0444532343">
        <ele>25.4</ele>
        <time>2010-11-18T09:43:47Z</time>
      </trkpt>
      <trkpt lat="59.3104600191" lon="18.0445310183">
        <ele>25.4</ele>
        <time>2010-11-18T09:43:49Z</time>
      </trkpt>
      <trkpt lat="59.3104956422" lon="18.0446081318">
        <ele>25.4</ele>
        <time>2010-11-18T09:43:51Z</time>
      </trkpt>
      <trkpt lat="59.3105333608" lon="18.0446963932">
        <ele>25.4</ele>
        <time>2010-11-18T09:43:53Z</time>
      </trkpt>
      <trkpt lat="59.3105683971" lon="18.044780296">
        <ele>25.4</ele>
        <time>2010-11-18T09:43:55Z</time>
      </trkpt>
      <trkpt lat="59.3105996616" lon="18.0448621034">
        <ele>25.4</ele>
        <time>2010-11-18T09:43:57Z</time>
      </trkpt>
      <trkpt lat="59.3106379669" lon="18.0449555616">
        <ele>25.4</ele>
        <time>2010-11-18T09:43:59Z</time>
      </trkpt>
      <trkpt lat="59.3106720812" lon="18.0450403026">
        <ele>25.4</ele>
        <time>2010-11-18T09:44:01Z</time>
      </trkpt>
      <trkpt lat="59.3107058603" lon="18.0451283963">
        <ele>25.4</ele>
        <time>2010-11-18T09:44:03Z</time>
      </trkpt>
      <trkpt lat="59.3107414833" lon="18.0452223574">
        <ele>25.4</ele>
        <time>2010-11-18T09:44:05Z</time>
      </trkpt>
      <trkpt lat="59.3107724964" lon="18.0453089425">
        <ele>25.4</ele>
        <time>2010-11-18T09:44:07Z</time>
      </trkpt>
      <trkpt lat="59.3108020007" lon="18.0453894087">
        <ele>25.4</ele>
        <time>2010-11-18T09:44:09Z</time>
      </trkpt>
      <trkpt lat="59.3108313373" lon="18.0454770834">
        <ele>25.4</ele>
        <time>2010-11-18T09:44:11Z</time>
      </trkpt>
      <trkpt lat="59.3108635238" lon="18.0455763251">
        <ele>25.4</ele>
        <time>2010-11-18T09:44:13Z</time>
      </trkpt>
      <trkpt lat="59.3108929443" lon="18.0456632454">
        <ele>25.4</ele>
        <time>2010-11-18T09:44:15Z</time>
      </trkpt>
      <trkpt lat="59.3109228677" lon="18.0457550272">
        <ele>25.4</ele>
        <time>2010-11-18T09:44:17Z</time>
      </trkpt>
      <trkpt lat="59.3109503603" lon="18.0458421989">
        <ele>25.4</ele>
        <time>2010-11-18T09:44:19Z</time>
      </trkpt>
      <trkpt lat="59.3109745002" lon="18.0459248445">
        <ele>25.4</ele>
        <time>2010-11-18T09:44:21Z</time>
      </trkpt>
      <trkpt lat="59.311006519" lon="18.0460276904">
        <ele>25.4</ele>
        <time>2010-11-18T09:44:23Z</time>
      </trkpt>
      <trkpt lat="59.3110360233" lon="18.0461201427">
        <ele>25.4</ele>
        <time>2010-11-18T09:44:25Z</time>
      </trkpt>
      <trkpt lat="59.3110656952" lon="18.046214942">
        <ele>25.4</ele>
        <time>2010-11-18T09:44:27Z</time>
      </trkpt>
      <trkpt lat="59.3110951995" lon="18.0463152734">
        <ele>25.4</ele>
        <time>2010-11-18T09:44:29Z</time>
      </trkpt>
      <trkpt lat="59.3111225245" lon="18.0464009364">
        <ele>25.4</ele>
        <time>2010-11-18T09:44:31Z</time>
      </trkpt>
      <trkpt lat="59.3111463291" lon="18.0464847554">
        <ele>25.4</ele>
        <time>2010-11-18T09:44:33Z</time>
      </trkpt>
      <trkpt lat="59.3111703852" lon="18.0465773754">
        <ele>25.4</ele>
        <time>2010-11-18T09:44:35Z</time>
      </trkpt>
      <trkpt lat="59.3111910046" lon="18.0466675646">
        <ele>25.4</ele>
        <time>2010-11-18T09:44:37Z</time>
      </trkpt>
      <trkpt lat="59.3112072655" lon="18.0467563289">
        <ele>25.4</ele>
        <time>2010-11-18T09:44:39Z</time>
      </trkpt>
      <trkpt lat="59.3112236941" lon="18.0468483622">
        <ele>25.4</ele>
        <time>2010-11-18T09:44:41Z</time>
      </trkpt>
      <trkpt lat="59.311242721" lon="18.0469463466">
        <ele>25</ele>
        <time>2010-11-18T09:44:43Z</time>
      </trkpt>
      <trkpt lat="59.3112514381" lon="18.0469903516">
        <ele>24.8</ele>
        <time>2010-11-18T09:44:44Z</time>
      </trkpt>
      <trkpt lat="59.3112613288" lon="18.0470348595">
        <ele>24.6</ele>
        <time>2010-11-18T09:44:45Z</time>
      </trkpt>
      <trkpt lat="59.3112832055" lon="18.0471286529">
        <ele>24.4</ele>
        <time>2010-11-18T09:44:47Z</time>
      </trkpt>
      <trkpt lat="59.3113034897" lon="18.0472158247">
        <ele>24.2</ele>
        <time>2010-11-18T09:44:49Z</time>
      </trkpt>
      <trkpt lat="59.3113356762" lon="18.0473242865">
        <ele>24</ele>
        <time>2010-11-18T09:44:52Z</time>
      </trkpt>
      <trkpt lat="59.3113451478" lon="18.0473350991">
        <ele>23.8</ele>
        <time>2010-11-18T09:44:53Z</time>
      </trkpt>
      <trkpt lat="59.3113759932" lon="18.0472784375">
        <ele>23.6</ele>
        <time>2010-11-18T09:44:56Z</time>
      </trkpt>
      <trkpt lat="59.3113627498" lon="18.0471903437">
        <ele>23.6</ele>
        <time>2010-11-18T09:44:58Z</time>
      </trkpt>
      <trkpt lat="59.3113526915" lon="18.0471553074">
        <ele>23.6</ele>
        <time>2010-11-18T09:44:59Z</time>
      </trkpt>
      <trkpt lat="59.3113275458" lon="18.0470720751">
        <ele>23.6</ele>
        <time>2010-11-18T09:45:01Z</time>
      </trkpt>
      <trkpt lat="59.3113070101" lon="18.0469872503">
        <ele>23.4</ele>
        <time>2010-11-18T09:45:03Z</time>
      </trkpt>
      <trkpt lat="59.3112868098" lon="18.0468959714">
        <ele>23.2</ele>
        <time>2010-11-18T09:45:05Z</time>
      </trkpt>
      <trkpt lat="59.311264933" lon="18.0467985737">
        <ele>22.8</ele>
        <time>2010-11-18T09:45:07Z</time>
      </trkpt>
      <trkpt lat="59.3112408769" lon="18.0467101447">
        <ele>22.6</ele>
        <time>2010-11-18T09:45:09Z</time>
      </trkpt>
      <trkpt lat="59.3112390329" lon="18.0466594342">
        <ele>22.4</ele>
        <time>2010-11-18T09:45:10Z</time>
      </trkpt>
      <trkpt lat="59.3112235264" lon="18.0465539899">
        <ele>22.2</ele>
        <time>2010-11-18T09:45:12Z</time>
      </trkpt>
      <trkpt lat="59.3112119594" lon="18.0465037823">
        <ele>22.2</ele>
        <time>2010-11-18T09:45:13Z</time>
      </trkpt>
      <trkpt lat="59.3111736541" lon="18.046350645">
        <ele>21.8</ele>
        <time>2010-11-18T09:45:16Z</time>
      </trkpt>
      <trkpt lat="59.3111554654" lon="18.0462479667">
        <ele>21.8</ele>
        <time>2010-11-18T09:45:18Z</time>
      </trkpt>
      <trkpt lat="59.3111374443" lon="18.0461416842">
        <ele>21.6</ele>
        <time>2010-11-18T09:45:20Z</time>
      </trkpt>
      <trkpt lat="59.3111210996" lon="18.0460412691">
        <ele>21.6</ele>
        <time>2010-11-18T09:45:22Z</time>
      </trkpt>
      <trkpt lat="59.3110998096" lon="18.0459484814">
        <ele>21.6</ele>
        <time>2010-11-18T09:45:24Z</time>
      </trkpt>
      <trkpt lat="59.3110793577" lon="18.0458558614">
        <ele>21.2</ele>
        <time>2010-11-18T09:45:26Z</time>
      </trkpt>
      <trkpt lat="59.3110562237" lon="18.0457655884">
        <ele>20.8</ele>
        <time>2010-11-18T09:45:28Z</time>
      </trkpt>
      <trkpt lat="59.311022277" lon="18.0456855412">
        <ele>20.6</ele>
        <time>2010-11-18T09:45:30Z</time>
      </trkpt>
      <trkpt lat="59.3109932756" lon="18.045617564">
        <ele>20.2</ele>
        <time>2010-11-18T09:45:32Z</time>
      </trkpt>
      <trkpt lat="59.3108756776" lon="18.0453723934">
        <ele>19.6</ele>
        <time>2010-11-18T09:45:39Z</time>
      </trkpt>
      <trkpt lat="59.3108004081" lon="18.0453192522">
        <ele>19.6</ele>
        <time>2010-11-18T09:45:43Z</time>
      </trkpt>
      <trkpt lat="59.3107548106" lon="18.045307769">
        <ele>19</ele>
        <time>2010-11-18T09:45:45Z</time>
      </trkpt>
      <trkpt lat="59.3107323471" lon="18.0453111218">
        <ele>18.8</ele>
        <time>2010-11-18T09:45:46Z</time>
      </trkpt>
      <trkpt lat="59.3106853246" lon="18.0453174082">
        <ele>18.6</ele>
        <time>2010-11-18T09:45:48Z</time>
      </trkpt>
      <trkpt lat="59.3106169283" lon="18.0453025722">
        <ele>18.2</ele>
        <time>2010-11-18T09:45:51Z</time>
      </trkpt>
      <trkpt lat="59.3105578359" lon="18.0452566394">
        <ele>17.8</ele>
        <time>2010-11-18T09:45:54Z</time>
      </trkpt>
      <trkpt lat="59.3105445087" lon="18.0452431445">
        <ele>17.8</ele>
        <time>2010-11-18T09:45:55Z</time>
      </trkpt>
      <trkpt lat="59.3104544871" lon="18.0452713915">
        <ele>17</ele>
        <time>2010-11-18T09:45:59Z</time>
      </trkpt>
      <trkpt lat="59.3104199537" lon="18.0452297335">
        <ele>16.4</ele>
        <time>2010-11-18T09:46:02Z</time>
      </trkpt>
      <trkpt lat="59.3103746076" lon="18.0451724851">
        <ele>16</ele>
        <time>2010-11-18T09:46:05Z</time>
      </trkpt>
      <trkpt lat="59.3103000925" lon="18.0452102875">
        <ele>15.8</ele>
        <time>2010-11-18T09:46:08Z</time>
      </trkpt>
      <trkpt lat="59.3102082269" lon="18.0452738223">
        <ele>15.6</ele>
        <time>2010-11-18T09:46:11Z</time>
      </trkpt>
      <trkpt lat="59.3101809857" lon="18.0452945256">
        <ele>15.6</ele>
        <time>2010-11-18T09:46:12Z</time>
      </trkpt>
      <trkpt lat="59.310118792" lon="18.0453436435">
        <ele>15.4</ele>
        <time>2010-11-18T09:46:15Z</time>
      </trkpt>
      <trkpt lat="59.310098424" lon="18.0453750756">
        <ele>15.4</ele>
        <time>2010-11-18T09:46:16Z</time>
      </trkpt>
      <trkpt lat="59.3100568498" lon="18.045452692">
        <ele>15.4</ele>
        <time>2010-11-18T09:46:18Z</time>
      </trkpt>
      <trkpt lat="59.3100313688" lon="18.0454764128">
        <ele>15.2</ele>
        <time>2010-11-18T09:46:19Z</time>
      </trkpt>
      <trkpt lat="59.3099554288" lon="18.0454797656">
        <ele>15.2</ele>
        <time>2010-11-18T09:46:22Z</time>
      </trkpt>
      <trkpt lat="59.3099061432" lon="18.045437437">
        <ele>15.2</ele>
        <time>2010-11-18T09:46:24Z</time>
      </trkpt>
      <trkpt lat="59.3098789858" lon="18.0454209246">
        <ele>15.2</ele>
        <time>2010-11-18T09:46:25Z</time>
      </trkpt>
      <trkpt lat="59.3098227433" lon="18.045389744">
        <ele>15.2</ele>
        <time>2010-11-18T09:46:27Z</time>
      </trkpt>
      <trkpt lat="59.3097945801" lon="18.045386475">
        <ele>15.2</ele>
        <time>2010-11-18T09:46:28Z</time>
      </trkpt>
      <trkpt lat="59.3097050614" lon="18.0454448131">
        <ele>15</ele>
        <time>2010-11-18T09:46:31Z</time>
      </trkpt>
      <trkpt lat="59.3096591286" lon="18.0455013909">
        <ele>15</ele>
        <time>2010-11-18T09:46:33Z</time>
      </trkpt>
      <trkpt lat="59.30961219" lon="18.0455562085">
        <ele>15</ele>
        <time>2010-11-18T09:46:35Z</time>
      </trkpt>
      <trkpt lat="59.3095691908" lon="18.0456512593">
        <ele>15</ele>
        <time>2010-11-18T09:46:38Z</time>
      </trkpt>
      <trkpt lat="59.3095416144" lon="18.0457368385">
        <ele>15</ele>
        <time>2010-11-18T09:46:40Z</time>
      </trkpt>
      <trkpt lat="59.3095161334" lon="18.0458237588">
        <ele>15</ele>
        <time>2010-11-18T09:46:42Z</time>
      </trkpt>
      <trkpt lat="59.3094853718" lon="18.0459038897">
        <ele>15</ele>
        <time>2010-11-18T09:46:44Z</time>
      </trkpt>
      <trkpt lat="59.3094552808" lon="18.0459927379">
        <ele>15</ele>
        <time>2010-11-18T09:46:46Z</time>
      </trkpt>
      <trkpt lat="59.3094235972" lon="18.0460699352">
        <ele>15</ele>
        <time>2010-11-18T09:46:48Z</time>
      </trkpt>
      <trkpt lat="59.3093915783" lon="18.0461561011">
        <ele>15</ele>
        <time>2010-11-18T09:46:50Z</time>
      </trkpt>
      <trkpt lat="59.3093591404" lon="18.0462460389">
        <ele>15</ele>
        <time>2010-11-18T09:46:52Z</time>
      </trkpt>
      <trkpt lat="59.3093268701" lon="18.046342766">
        <ele>15</ele>
        <time>2010-11-18T09:46:54Z</time>
      </trkpt>
      <trkpt lat="59.3092966952" lon="18.0464277585">
        <ele>15</ele>
        <time>2010-11-18T09:46:56Z</time>
      </trkpt>
      <trkpt lat="59.3092649278" lon="18.0465160199">
        <ele>15</ele>
        <time>2010-11-18T09:46:58Z</time>
      </trkpt>
      <trkpt lat="59.3092283828" lon="18.0466066282">
        <ele>15</ele>
        <time>2010-11-18T09:47:00Z</time>
      </trkpt>
      <trkpt lat="59.30919167" lon="18.0467018466">
        <ele>15</ele>
        <time>2010-11-18T09:47:02Z</time>
      </trkpt>
      <trkpt lat="59.3091614114" lon="18.0467956401">
        <ele>15</ele>
        <time>2010-11-18T09:47:04Z</time>
      </trkpt>
      <trkpt lat="59.3091533648" lon="18.0468828956">
        <ele>15</ele>
        <time>2010-11-18T09:47:06Z</time>
      </trkpt>
      <trkpt lat="59.3091487547" lon="18.046937378">
        <ele>15</ele>
        <time>2010-11-18T09:47:07Z</time>
      </trkpt>
      <trkpt lat="59.3091491738" lon="18.0471276471">
        <ele>15</ele>
        <time>2010-11-18T09:47:11Z</time>
      </trkpt>
      <trkpt lat="59.3091471621" lon="18.047230493">
        <ele>15.2</ele>
        <time>2010-11-18T09:47:13Z</time>
      </trkpt>
      <trkpt lat="59.3091423006" lon="18.0473308244">
        <ele>15.6</ele>
        <time>2010-11-18T09:47:15Z</time>
      </trkpt>
      <trkpt lat="59.3091311527" lon="18.0474239473">
        <ele>15.8</ele>
        <time>2010-11-18T09:47:17Z</time>
      </trkpt>
      <trkpt lat="59.30911112" lon="18.0475232728">
        <ele>16</ele>
        <time>2010-11-18T09:47:19Z</time>
      </trkpt>
      <trkpt lat="59.3090852199" lon="18.0476208381">
        <ele>16.2</ele>
        <time>2010-11-18T09:47:21Z</time>
      </trkpt>
      <trkpt lat="59.3090607448" lon="18.0477153021">
        <ele>16.4</ele>
        <time>2010-11-18T09:47:23Z</time>
      </trkpt>
      <trkpt lat="59.3090314919" lon="18.0478033959">
        <ele>16.6</ele>
        <time>2010-11-18T09:47:25Z</time>
      </trkpt>
      <trkpt lat="59.3089931866" lon="18.0479113548">
        <ele>16.6</ele>
        <time>2010-11-18T09:47:28Z</time>
      </trkpt>
      <trkpt lat="59.3089682086" lon="18.0480397655">
        <ele>16.8</ele>
        <time>2010-11-18T09:47:30Z</time>
      </trkpt>
      <trkpt lat="59.3089615869" lon="18.0481458803">
        <ele>16.8</ele>
        <time>2010-11-18T09:47:32Z</time>
      </trkpt>
      <trkpt lat="59.3089515286" lon="18.0481944954">
        <ele>16.8</ele>
        <time>2010-11-18T09:47:33Z</time>
      </trkpt>
      <trkpt lat="59.3089233654" lon="18.0483889554">
        <ele>17</ele>
        <time>2010-11-18T09:47:37Z</time>
      </trkpt>
      <trkpt lat="59.3089033327" lon="18.0484861017">
        <ele>17</ele>
        <time>2010-11-18T09:47:39Z</time>
      </trkpt>
      <trkpt lat="59.3088898378" lon="18.0485902049">
        <ele>17</ele>
        <time>2010-11-18T09:47:41Z</time>
      </trkpt>
      <trkpt lat="59.3088698889" lon="18.0486917097">
        <ele>17</ele>
        <time>2010-11-18T09:47:43Z</time>
      </trkpt>
      <trkpt lat="59.3088477607" lon="18.0487951423">
        <ele>17</ele>
        <time>2010-11-18T09:47:45Z</time>
      </trkpt>
      <trkpt lat="59.3088248781" lon="18.0488955575">
        <ele>17</ele>
        <time>2010-11-18T09:47:47Z</time>
      </trkpt>
      <trkpt lat="59.3088005706" lon="18.0489894347">
        <ele>17</ele>
        <time>2010-11-18T09:47:49Z</time>
      </trkpt>
      <trkpt lat="59.3087747543" lon="18.0490861619">
        <ele>17</ele>
        <time>2010-11-18T09:47:51Z</time>
      </trkpt>
      <trkpt lat="59.3087349403" lon="18.0492188474">
        <ele>17</ele>
        <time>2010-11-18T09:47:54Z</time>
      </trkpt>
      <trkpt lat="59.3087060227" lon="18.0493145686">
        <ele>17</ele>
        <time>2010-11-18T09:47:56Z</time>
      </trkpt>
      <trkpt lat="59.3086815476" lon="18.0494081945">
        <ele>17</ele>
        <time>2010-11-18T09:47:58Z</time>
      </trkpt>
      <trkpt lat="59.3086600899" lon="18.049513052">
        <ele>17</ele>
        <time>2010-11-18T09:48:00Z</time>
      </trkpt>
      <trkpt lat="59.3086362015" lon="18.0496216815">
        <ele>17</ele>
        <time>2010-11-18T09:48:02Z</time>
      </trkpt>
      <trkpt lat="59.3086222037" lon="18.0497322387">
        <ele>17</ele>
        <time>2010-11-18T09:48:04Z</time>
      </trkpt>
      <trkpt lat="59.3086158335" lon="18.0498433827">
        <ele>17</ele>
        <time>2010-11-18T09:48:06Z</time>
      </trkpt>
      <trkpt lat="59.3086088765" lon="18.0499480727">
        <ele>17</ele>
        <time>2010-11-18T09:48:08Z</time>
      </trkpt>
      <trkpt lat="59.308598483" lon="18.0500513377">
        <ele>17</ele>
        <time>2010-11-18T09:48:10Z</time>
      </trkpt>
      <trkpt lat="59.3085826412" lon="18.0501592965">
        <ele>17</ele>
        <time>2010-11-18T09:48:12Z</time>
      </trkpt>
      <trkpt lat="59.3085645363" lon="18.0502669201">
        <ele>17</ele>
        <time>2010-11-18T09:48:14Z</time>
      </trkpt>
      <trkpt lat="59.3085499518" lon="18.0503758848">
        <ele>17</ele>
        <time>2010-11-18T09:48:16Z</time>
      </trkpt>
      <trkpt lat="59.3085307572" lon="18.0504740369">
        <ele>17</ele>
        <time>2010-11-18T09:48:18Z</time>
      </trkpt>
      <trkpt lat="59.3085071203" lon="18.0505736977">
        <ele>17</ele>
        <time>2010-11-18T09:48:20Z</time>
      </trkpt>
      <trkpt lat="59.3084800467" lon="18.0506739452">
        <ele>17</ele>
        <time>2010-11-18T09:48:22Z</time>
      </trkpt>
      <trkpt lat="59.3084550687" lon="18.0507688283">
        <ele>17</ele>
        <time>2010-11-18T09:48:24Z</time>
      </trkpt>
      <trkpt lat="59.3084331919" lon="18.0508595205">
        <ele>17</ele>
        <time>2010-11-18T09:48:26Z</time>
      </trkpt>
      <trkpt lat="59.3084073757" lon="18.0509525595">
        <ele>17</ele>
        <time>2010-11-18T09:48:28Z</time>
      </trkpt>
      <trkpt lat="59.3083772846" lon="18.0510458501">
        <ele>17</ele>
        <time>2010-11-18T09:48:30Z</time>
      </trkpt>
      <trkpt lat="59.3083481994" lon="18.0511391406">
        <ele>17</ele>
        <time>2010-11-18T09:48:32Z</time>
      </trkpt>
      <trkpt lat="59.3083151748" lon="18.0512323474">
        <ele>17</ele>
        <time>2010-11-18T09:48:34Z</time>
      </trkpt>
      <trkpt lat="59.3082828206" lon="18.0513193515">
        <ele>17</ele>
        <time>2010-11-18T09:48:36Z</time>
      </trkpt>
      <trkpt lat="59.3082509694" lon="18.0514124744">
        <ele>17</ele>
        <time>2010-11-18T09:48:38Z</time>
      </trkpt>
      <trkpt lat="59.3082193696" lon="18.0514987242">
        <ele>17</ele>
        <time>2010-11-18T09:48:40Z</time>
      </trkpt>
      <trkpt lat="59.3082088084" lon="18.0515390411">
        <ele>17</ele>
        <time>2010-11-18T09:48:41Z</time>
      </trkpt>
      <trkpt lat="59.3081637138" lon="18.0516661945">
        <ele>17</ele>
        <time>2010-11-18T09:48:44Z</time>
      </trkpt>
      <trkpt lat="59.3081370594" lon="18.0517500973">
        <ele>17</ele>
        <time>2010-11-18T09:48:46Z</time>
      </trkpt>
      <trkpt lat="59.30810437" lon="18.051831737">
        <ele>17</ele>
        <time>2010-11-18T09:48:48Z</time>
      </trkpt>
      <trkpt lat="59.3080722673" lon="18.0519262849">
        <ele>17</ele>
        <time>2010-11-18T09:48:50Z</time>
      </trkpt>
      <trkpt lat="59.3080456128" lon="18.0520203298">
        <ele>17</ele>
        <time>2010-11-18T09:48:52Z</time>
      </trkpt>
      <trkpt lat="59.3080179526" lon="18.0521132851">
        <ele>17</ele>
        <time>2010-11-18T09:48:54Z</time>
      </trkpt>
      <trkpt lat="59.3079886159" lon="18.0522089225">
        <ele>17</ele>
        <time>2010-11-18T09:48:56Z</time>
      </trkpt>
      <trkpt lat="59.307963135" lon="18.0523022131">
        <ele>17</ele>
        <time>2010-11-18T09:48:58Z</time>
      </trkpt>
      <trkpt lat="59.3079458682" lon="18.0524043046">
        <ele>17</ele>
        <time>2010-11-18T09:49:00Z</time>
      </trkpt>
      <trkpt lat="59.307924662" lon="18.0525076535">
        <ele>17</ele>
        <time>2010-11-18T09:49:02Z</time>
      </trkpt>
      <trkpt lat="59.3079057189" lon="18.0526137683">
        <ele>17</ele>
        <time>2010-11-18T09:49:04Z</time>
      </trkpt>
      <trkpt lat="59.3078834231" lon="18.0527187097">
        <ele>17</ele>
        <time>2010-11-18T09:49:06Z</time>
      </trkpt>
      <trkpt lat="59.3078666593" lon="18.0528227291">
        <ele>17</ele>
        <time>2010-11-18T09:49:08Z</time>
      </trkpt>
      <trkpt lat="59.3078524101" lon="18.0529174445">
        <ele>17</ele>
        <time>2010-11-18T09:49:10Z</time>
      </trkpt>
      <trkpt lat="59.3078343051" lon="18.0530150099">
        <ele>17</ele>
        <time>2010-11-18T09:49:12Z</time>
      </trkpt>
      <trkpt lat="59.3078171223" lon="18.0531209571">
        <ele>17</ele>
        <time>2010-11-18T09:49:14Z</time>
      </trkpt>
      <trkpt lat="59.307806142" lon="18.0532196959">
        <ele>17</ele>
        <time>2010-11-18T09:49:16Z</time>
      </trkpt>
      <trkpt lat="59.3077812477" lon="18.053365038">
        <ele>17</ele>
        <time>2010-11-18T09:49:19Z</time>
      </trkpt>
      <trkpt lat="59.3077578622" lon="18.0534747571">
        <ele>17</ele>
        <time>2010-11-18T09:49:21Z</time>
      </trkpt>
      <trkpt lat="59.3077369913" lon="18.0535786926">
        <ele>17</ele>
        <time>2010-11-18T09:49:23Z</time>
      </trkpt>
      <trkpt lat="59.3077184673" lon="18.0536848913">
        <ele>17</ele>
        <time>2010-11-18T09:49:25Z</time>
      </trkpt>
      <trkpt lat="59.3077040504" lon="18.0538003101">
        <ele>17</ele>
        <time>2010-11-18T09:49:27Z</time>
      </trkpt>
      <trkpt lat="59.3076837662" lon="18.0539088557">
        <ele>17</ele>
        <time>2010-11-18T09:49:29Z</time>
      </trkpt>
      <trkpt lat="59.3076623086" lon="18.0540066724">
        <ele>17</ele>
        <time>2010-11-18T09:49:31Z</time>
      </trkpt>
      <trkpt lat="59.3076420244" lon="18.0541452253">
        <ele>17</ele>
        <time>2010-11-18T09:49:34Z</time>
      </trkpt>
      <trkpt lat="59.3076246738" lon="18.0542476521">
        <ele>17</ele>
        <time>2010-11-18T09:49:36Z</time>
      </trkpt>
      <trkpt lat="59.3076189741" lon="18.0543008771">
        <ele>17</ele>
        <time>2010-11-18T09:49:37Z</time>
      </trkpt>
      <trkpt lat="59.3075849436" lon="18.0544482309">
        <ele>17</ele>
        <time>2010-11-18T09:49:40Z</time>
      </trkpt>
      <trkpt lat="59.3075596303" lon="18.0545549325">
        <ele>17</ele>
        <time>2010-11-18T09:49:42Z</time>
      </trkpt>
      <trkpt lat="59.3075484824" lon="18.0546069841">
        <ele>17</ele>
        <time>2010-11-18T09:49:43Z</time>
      </trkpt>
      <trkpt lat="59.3075219956" lon="18.0547027892">
        <ele>17</ele>
        <time>2010-11-18T09:49:45Z</time>
      </trkpt>
      <trkpt lat="59.307493078" lon="18.0547988458">
        <ele>17</ele>
        <time>2010-11-18T09:49:47Z</time>
      </trkpt>
      <trkpt lat="59.3074692734" lon="18.0548796473">
        <ele>17</ele>
        <time>2010-11-18T09:49:49Z</time>
      </trkpt>
      <trkpt lat="59.3074485701" lon="18.0549731893">
        <ele>17</ele>
        <time>2010-11-18T09:49:51Z</time>
      </trkpt>
      <trkpt lat="59.3074334827" lon="18.0550838304">
        <ele>17</ele>
        <time>2010-11-18T09:49:53Z</time>
      </trkpt>
      <trkpt lat="59.3074197364" lon="18.0552067929">
        <ele>17</ele>
        <time>2010-11-18T09:49:55Z</time>
      </trkpt>
      <trkpt lat="59.3073957641" lon="18.0553207867">
        <ele>17</ele>
        <time>2010-11-18T09:49:57Z</time>
      </trkpt>
      <trkpt lat="59.3073737197" lon="18.0554227945">
        <ele>17</ele>
        <time>2010-11-18T09:49:59Z</time>
      </trkpt>
      <trkpt lat="59.3073530165" lon="18.0555223714">
        <ele>17</ele>
        <time>2010-11-18T09:50:01Z</time>
      </trkpt>
      <trkpt lat="59.3073343248" lon="18.0556285701">
        <ele>17</ele>
        <time>2010-11-18T09:50:03Z</time>
      </trkpt>
      <trkpt lat="59.3073162199" lon="18.0557375348">
        <ele>17</ele>
        <time>2010-11-18T09:50:05Z</time>
      </trkpt>
      <trkpt lat="59.3072938402" lon="18.0558483435">
        <ele>17</ele>
        <time>2010-11-18T09:50:07Z</time>
      </trkpt>
      <trkpt lat="59.3072703709" lon="18.055957392">
        <ele>17</ele>
        <time>2010-11-18T09:50:09Z</time>
      </trkpt>
      <trkpt lat="59.3072516793" lon="18.0560533648">
        <ele>17</ele>
        <time>2010-11-18T09:50:11Z</time>
      </trkpt>
      <trkpt lat="59.3072344126" lon="18.0561540314">
        <ele>17</ele>
        <time>2010-11-18T09:50:13Z</time>
      </trkpt>
      <trkpt lat="59.3072139607" lon="18.0562545304">
        <ele>17</ele>
        <time>2010-11-18T09:50:15Z</time>
      </trkpt>
      <trkpt lat="59.3071924192" lon="18.0563588012">
        <ele>17</ele>
        <time>2010-11-18T09:50:17Z</time>
      </trkpt>
      <trkpt lat="59.3071697881" lon="18.0564615633">
        <ele>17</ele>
        <time>2010-11-18T09:50:19Z</time>
      </trkpt>
      <trkpt lat="59.3071452291" lon="18.056564074">
        <ele>17</ele>
        <time>2010-11-18T09:50:21Z</time>
      </trkpt>
      <trkpt lat="59.3071228495" lon="18.0566684286">
        <ele>17</ele>
        <time>2010-11-18T09:50:23Z</time>
      </trkpt>
      <trkpt lat="59.3071016433" lon="18.0567660777">
        <ele>17</ele>
        <time>2010-11-18T09:50:25Z</time>
      </trkpt>
      <trkpt lat="59.3070825325" lon="18.0568605418">
        <ele>17</ele>
        <time>2010-11-18T09:50:27Z</time>
      </trkpt>
      <trkpt lat="59.3070626674" lon="18.0569698417">
        <ele>17</ele>
        <time>2010-11-18T09:50:29Z</time>
      </trkpt>
      <trkpt lat="59.3070354263" lon="18.0570740288">
        <ele>17</ele>
        <time>2010-11-18T09:50:31Z</time>
      </trkpt>
      <trkpt lat="59.3070241945" lon="18.0571254936">
        <ele>17</ele>
        <time>2010-11-18T09:50:32Z</time>
      </trkpt>
      <trkpt lat="59.3069916727" lon="18.0572641302">
        <ele>17</ele>
        <time>2010-11-18T09:50:35Z</time>
      </trkpt>
      <trkpt lat="59.3069732326" lon="18.0573686525">
        <ele>17</ele>
        <time>2010-11-18T09:50:37Z</time>
      </trkpt>
      <trkpt lat="59.3069530322" lon="18.0574631166">
        <ele>17</ele>
        <time>2010-11-18T09:50:39Z</time>
      </trkpt>
      <trkpt lat="59.3069298143" lon="18.0575567424">
        <ele>17</ele>
        <time>2010-11-18T09:50:41Z</time>
      </trkpt>
      <trkpt lat="59.3068963705" lon="18.0577007434">
        <ele>17</ele>
        <time>2010-11-18T09:50:44Z</time>
      </trkpt>
      <trkpt lat="59.3068749129" lon="18.0578052657">
        <ele>17</ele>
        <time>2010-11-18T09:50:46Z</time>
      </trkpt>
      <trkpt lat="59.3068539581" lon="18.0579112967">
        <ele>16.8</ele>
        <time>2010-11-18T09:50:48Z</time>
      </trkpt>
      <trkpt lat="59.3068288124" lon="18.058013053">
        <ele>16.6</ele>
        <time>2010-11-18T09:50:50Z</time>
      </trkpt>
      <trkpt lat="59.3068074386" lon="18.0581220177">
        <ele>16.2</ele>
        <time>2010-11-18T09:50:52Z</time>
      </trkpt>
      <trkpt lat="59.3067889984" lon="18.0581714709">
        <ele>16.2</ele>
        <time>2010-11-18T09:50:53Z</time>
      </trkpt>
      <trkpt lat="59.3067627631" lon="18.0582744845">
        <ele>15.8</ele>
        <time>2010-11-18T09:50:55Z</time>
      </trkpt>
      <trkpt lat="59.3067498549" lon="18.0583626621">
        <ele>15.8</ele>
        <time>2010-11-18T09:50:57Z</time>
      </trkpt>
      <trkpt lat="59.3067345999" lon="18.0584577966">
        <ele>15.6</ele>
        <time>2010-11-18T09:50:59Z</time>
      </trkpt>
      <trkpt lat="59.3067148186" lon="18.0585556972">
        <ele>15.4</ele>
        <time>2010-11-18T09:51:01Z</time>
      </trkpt>
      <trkpt lat="59.3066941153" lon="18.0586539331">
        <ele>15.4</ele>
        <time>2010-11-18T09:51:03Z</time>
      </trkpt>
      <trkpt lat="59.3066668741" lon="18.0587447929">
        <ele>15.4</ele>
        <time>2010-11-18T09:51:05Z</time>
      </trkpt>
      <trkpt lat="59.3066278983" lon="18.0588069866">
        <ele>15.2</ele>
        <time>2010-11-18T09:51:07Z</time>
      </trkpt>
      <trkpt lat="59.3065827198" lon="18.0588601278">
        <ele>15.2</ele>
        <time>2010-11-18T09:51:09Z</time>
      </trkpt>
      <trkpt lat="59.3065442469" lon="18.0589203937">
        <ele>15.2</ele>
        <time>2010-11-18T09:51:11Z</time>
      </trkpt>
      <trkpt lat="59.3065144912" lon="18.0590022848">
        <ele>15.2</ele>
        <time>2010-11-18T09:51:13Z</time>
      </trkpt>
      <trkpt lat="59.306488172" lon="18.0590942343">
        <ele>15.2</ele>
        <time>2010-11-18T09:51:15Z</time>
      </trkpt>
      <trkpt lat="59.3064586677" lon="18.0591824119">
        <ele>15</ele>
        <time>2010-11-18T09:51:17Z</time>
      </trkpt>
      <trkpt lat="59.3064305045" lon="18.0592717629">
        <ele>15</ele>
        <time>2010-11-18T09:51:19Z</time>
      </trkpt>
      <trkpt lat="59.3064031795" lon="18.0593602758">
        <ele>15</ele>
        <time>2010-11-18T09:51:21Z</time>
      </trkpt>
      <trkpt lat="59.306359426" lon="18.0595158439">
        <ele>15</ele>
        <time>2010-11-18T09:51:24Z</time>
      </trkpt>
      <trkpt lat="59.3063307599" lon="18.0596177678">
        <ele>15</ele>
        <time>2010-11-18T09:51:26Z</time>
      </trkpt>
      <trkpt lat="59.3062999984" lon="18.0597141596">
        <ele>14.6</ele>
        <time>2010-11-18T09:51:28Z</time>
      </trkpt>
      <trkpt lat="59.3062729248" lon="18.0598082045">
        <ele>14.4</ele>
        <time>2010-11-18T09:51:30Z</time>
      </trkpt>
      <trkpt lat="59.3062441749" lon="18.0598993158">
        <ele>14</ele>
        <time>2010-11-18T09:51:32Z</time>
      </trkpt>
      <trkpt lat="59.3062150897" lon="18.0599890021">
        <ele>13.8</ele>
        <time>2010-11-18T09:51:34Z</time>
      </trkpt>
      <trkpt lat="59.3061876809" lon="18.0600823765">
        <ele>13.6</ele>
        <time>2010-11-18T09:51:36Z</time>
      </trkpt>
      <trkpt lat="59.3061415804" lon="18.0602339212">
        <ele>13.6</ele>
        <time>2010-11-18T09:51:39Z</time>
      </trkpt>
      <trkpt lat="59.3061122438" lon="18.0603312351">
        <ele>13.4</ele>
        <time>2010-11-18T09:51:41Z</time>
      </trkpt>
      <trkpt lat="59.3060850864" lon="18.0604323208">
        <ele>13.4</ele>
        <time>2010-11-18T09:51:43Z</time>
      </trkpt>
      <trkpt lat="59.3060539058" lon="18.0605212528">
        <ele>13.2</ele>
        <time>2010-11-18T09:51:45Z</time>
      </trkpt>
      <trkpt lat="59.3060205458" lon="18.0606094304">
        <ele>13.2</ele>
        <time>2010-11-18T09:51:47Z</time>
      </trkpt>
      <trkpt lat="59.30598618" lon="18.0606922435">
        <ele>13.2</ele>
        <time>2010-11-18T09:51:49Z</time>
      </trkpt>
      <trkpt lat="59.3059574301" lon="18.0607582929">
        <ele>13.2</ele>
        <time>2010-11-18T09:51:51Z</time>
      </trkpt>
      <trkpt lat="59.3059289316" lon="18.0608365798">
        <ele>13</ele>
        <time>2010-11-18T09:51:53Z</time>
      </trkpt>
      <trkpt lat="59.3058982539" lon="18.0609202312">
        <ele>13</ele>
        <time>2010-11-18T09:51:55Z</time>
      </trkpt>
      <trkpt lat="59.3058743655" lon="18.0609992725">
        <ele>13</ele>
        <time>2010-11-18T09:51:57Z</time>
      </trkpt>
      <trkpt lat="59.3058425143" lon="18.0610829239">
        <ele>13</ele>
        <time>2010-11-18T09:51:59Z</time>
      </trkpt>
      <trkpt lat="59.3058135129" lon="18.0611756277">
        <ele>13</ele>
        <time>2010-11-18T09:52:01Z</time>
      </trkpt>
      <trkpt lat="59.3057801529" lon="18.0612637215">
        <ele>13</ele>
        <time>2010-11-18T09:52:03Z</time>
      </trkpt>
      <trkpt lat="59.3057500619" lon="18.0613609515">
        <ele>13</ele>
        <time>2010-11-18T09:52:05Z</time>
      </trkpt>
      <trkpt lat="59.3057206414" lon="18.0614669825">
        <ele>13</ele>
        <time>2010-11-18T09:52:07Z</time>
      </trkpt>
      <trkpt lat="59.3056919753" lon="18.061564464">
        <ele>13</ele>
        <time>2010-11-18T09:52:09Z</time>
      </trkpt>
      <trkpt lat="59.3056621358" lon="18.0616486183">
        <ele>13</ele>
        <time>2010-11-18T09:52:11Z</time>
      </trkpt>
      <trkpt lat="59.3056322962" lon="18.0617246422">
        <ele>13</ele>
        <time>2010-11-18T09:52:13Z</time>
      </trkpt>
      <trkpt lat="59.3055687614" lon="18.0618299188">
        <ele>13</ele>
        <time>2010-11-18T09:52:16Z</time>
      </trkpt>
      <trkpt lat="59.3055336412" lon="18.0618975607">
        <ele>13</ele>
        <time>2010-11-18T09:52:18Z</time>
      </trkpt>
      <trkpt lat="59.3054810867" lon="18.0620101297">
        <ele>13</ele>
        <time>2010-11-18T09:52:21Z</time>
      </trkpt>
      <trkpt lat="59.3054500737" lon="18.0620955412">
        <ele>13</ele>
        <time>2010-11-18T09:52:23Z</time>
      </trkpt>
      <trkpt lat="59.3054314659" lon="18.0621885803">
        <ele>13</ele>
        <time>2010-11-18T09:52:25Z</time>
      </trkpt>
      <trkpt lat="59.3053862036" lon="18.0623014007">
        <ele>13</ele>
        <time>2010-11-18T09:52:28Z</time>
      </trkpt>
      <trkpt lat="59.3053390135" lon="18.0624310687">
        <ele>13</ele>
        <time>2010-11-18T09:52:31Z</time>
      </trkpt>
      <trkpt lat="59.3053138678" lon="18.0625344175">
        <ele>13</ele>
        <time>2010-11-18T09:52:33Z</time>
      </trkpt>
      <trkpt lat="59.3053023008" lon="18.0626442204">
        <ele>13</ele>
        <time>2010-11-18T09:52:35Z</time>
      </trkpt>
      <trkpt lat="59.3052946733" lon="18.0626908238">
        <ele>13</ele>
        <time>2010-11-18T09:52:36Z</time>
      </trkpt>
      <trkpt lat="59.3052644984" lon="18.062834741">
        <ele>13</ele>
        <time>2010-11-18T09:52:39Z</time>
      </trkpt>
      <trkpt lat="59.3052530152" lon="18.0629355752">
        <ele>13</ele>
        <time>2010-11-18T09:52:41Z</time>
      </trkpt>
      <trkpt lat="59.3052411967" lon="18.0630402652">
        <ele>13</ele>
        <time>2010-11-18T09:52:43Z</time>
      </trkpt>
      <trkpt lat="59.3052300488" lon="18.0631493975">
        <ele>13</ele>
        <time>2010-11-18T09:52:45Z</time>
      </trkpt>
      <trkpt lat="59.305213285" lon="18.0632627208">
        <ele>13</ele>
        <time>2010-11-18T09:52:47Z</time>
      </trkpt>
      <trkpt lat="59.3052012989" lon="18.0633654829">
        <ele>13</ele>
        <time>2010-11-18T09:52:49Z</time>
      </trkpt>
      <trkpt lat="59.3051876364" lon="18.063470089">
        <ele>13</ele>
        <time>2010-11-18T09:52:51Z</time>
      </trkpt>
      <trkpt lat="59.3051702021" lon="18.0635857592">
        <ele>13</ele>
        <time>2010-11-18T09:52:53Z</time>
      </trkpt>
      <trkpt lat="59.305154025" lon="18.0636851686">
        <ele>13</ele>
        <time>2010-11-18T09:52:55Z</time>
      </trkpt>
      <trkpt lat="59.3051368421" lon="18.0637976537">
        <ele>13</ele>
        <time>2010-11-18T09:52:57Z</time>
      </trkpt>
      <trkpt lat="59.3051223414" lon="18.0639020921">
        <ele>13</ele>
        <time>2010-11-18T09:52:59Z</time>
      </trkpt>
      <trkpt lat="59.3051061643" lon="18.0640108892">
        <ele>13</ele>
        <time>2010-11-18T09:53:01Z</time>
      </trkpt>
      <trkpt lat="59.3050899035" lon="18.0641206083">
        <ele>13</ele>
        <time>2010-11-18T09:53:03Z</time>
      </trkpt>
      <trkpt lat="59.3050774982" lon="18.0642389607">
        <ele>13</ele>
        <time>2010-11-18T09:53:05Z</time>
      </trkpt>
      <trkpt lat="59.3050800966" lon="18.0643441535">
        <ele>13</ele>
        <time>2010-11-18T09:53:07Z</time>
      </trkpt>
      <trkpt lat="59.3050842038" lon="18.0644586503">
        <ele>13</ele>
        <time>2010-11-18T09:53:09Z</time>
      </trkpt>
      <trkpt lat="59.3050794261" lon="18.0645702134">
        <ele>13</ele>
        <time>2010-11-18T09:53:11Z</time>
      </trkpt>
      <trkpt lat="59.3050764924" lon="18.064689404">
        <ele>13</ele>
        <time>2010-11-18T09:53:13Z</time>
      </trkpt>
      <trkpt lat="59.3050748998" lon="18.0647967761">
        <ele>13</ele>
        <time>2010-11-18T09:53:15Z</time>
      </trkpt>
      <trkpt lat="59.3050778335" lon="18.0649147095">
        <ele>13</ele>
        <time>2010-11-18T09:53:17Z</time>
      </trkpt>
      <trkpt lat="59.3050773306" lon="18.0650247638">
        <ele>13</ele>
        <time>2010-11-18T09:53:19Z</time>
      </trkpt>
      <trkpt lat="59.3050717985" lon="18.0651411046">
        <ele>13</ele>
        <time>2010-11-18T09:53:21Z</time>
      </trkpt>
      <trkpt lat="59.3050671047" lon="18.0652685095">
        <ele>13</ele>
        <time>2010-11-18T09:53:23Z</time>
      </trkpt>
      <trkpt lat="59.3050681105" lon="18.0653796535">
        <ele>13</ele>
        <time>2010-11-18T09:53:25Z</time>
      </trkpt>
      <trkpt lat="59.3050672723" lon="18.0654885343">
        <ele>13</ele>
        <time>2010-11-18T09:53:27Z</time>
      </trkpt>
      <trkpt lat="59.3050489998" lon="18.0657910371">
        <ele>13</ele>
        <time>2010-11-18T09:53:33Z</time>
      </trkpt>
      <trkpt lat="59.3050501732" lon="18.0658399874">
        <ele>13</ele>
        <time>2010-11-18T09:53:34Z</time>
      </trkpt>
      <trkpt lat="59.3050531069" lon="18.0659930409">
        <ele>13</ele>
        <time>2010-11-18T09:53:37Z</time>
      </trkpt>
      <trkpt lat="59.3050500894" lon="18.0660449249">
        <ele>13</ele>
        <time>2010-11-18T09:53:38Z</time>
      </trkpt>
      <trkpt lat="59.3050466528" lon="18.0661934521">
        <ele>13</ele>
        <time>2010-11-18T09:53:41Z</time>
      </trkpt>
      <trkpt lat="59.3050378519" lon="18.0662975553">
        <ele>13</ele>
        <time>2010-11-18T09:53:43Z</time>
      </trkpt>
      <trkpt lat="59.3050270392" lon="18.0664067715">
        <ele>13</ele>
        <time>2010-11-18T09:53:45Z</time>
      </trkpt>
      <trkpt lat="59.3050101078" lon="18.0665551311">
        <ele>13</ele>
        <time>2010-11-18T09:53:48Z</time>
      </trkpt>
      <trkpt lat="59.3049965291" lon="18.0666563007">
        <ele>13</ele>
        <time>2010-11-18T09:53:50Z</time>
      </trkpt>
      <trkpt lat="59.3049802682" lon="18.066752441">
        <ele>13</ele>
        <time>2010-11-18T09:53:52Z</time>
      </trkpt>
      <trkpt lat="59.304965097" lon="18.0668581368">
        <ele>13</ele>
        <time>2010-11-18T09:53:54Z</time>
      </trkpt>
      <trkpt lat="59.3049494228" lon="18.0669764054">
        <ele>13</ele>
        <time>2010-11-18T09:53:56Z</time>
      </trkpt>
      <trkpt lat="59.3049443937" lon="18.0670297981">
        <ele>13</ele>
        <time>2010-11-18T09:53:57Z</time>
      </trkpt>
      <trkpt lat="59.3049422982" lon="18.0671431214">
        <ele>13</ele>
        <time>2010-11-18T09:53:59Z</time>
      </trkpt>
      <trkpt lat="59.3049422982" lon="18.0672531758">
        <ele>13</ele>
        <time>2010-11-18T09:54:01Z</time>
      </trkpt>
      <trkpt lat="59.3049443937" lon="18.0673604641">
        <ele>13</ele>
        <time>2010-11-18T09:54:03Z</time>
      </trkpt>
      <trkpt lat="59.3049409571" lon="18.0674623042">
        <ele>13</ele>
        <time>2010-11-18T09:54:05Z</time>
      </trkpt>
      <trkpt lat="59.3049320723" lon="18.0675670779">
        <ele>13</ele>
        <time>2010-11-18T09:54:07Z</time>
      </trkpt>
      <trkpt lat="59.3049111175" lon="18.0676675769">
        <ele>13</ele>
        <time>2010-11-18T09:54:09Z</time>
      </trkpt>
      <trkpt lat="59.3048737342" lon="18.0677591911">
        <ele>13</ele>
        <time>2010-11-18T09:54:11Z</time>
      </trkpt>
      <trkpt lat="59.3048283882" lon="18.0678527331">
        <ele>13</ele>
        <time>2010-11-18T09:54:13Z</time>
      </trkpt>
      <trkpt lat="59.3047925975" lon="18.0679487058">
        <ele>13</ele>
        <time>2010-11-18T09:54:15Z</time>
      </trkpt>
      <trkpt lat="59.3047625064" lon="18.0680489533">
        <ele>13</ele>
        <time>2010-11-18T09:54:17Z</time>
      </trkpt>
      <trkpt lat="59.3047350976" lon="18.0681474407">
        <ele>13</ele>
        <time>2010-11-18T09:54:19Z</time>
      </trkpt>
      <trkpt lat="59.3047008157" lon="18.0682397254">
        <ele>13</ele>
        <time>2010-11-18T09:54:21Z</time>
      </trkpt>
      <trkpt lat="59.3046679586" lon="18.068328825">
        <ele>13</ele>
        <time>2010-11-18T09:54:23Z</time>
      </trkpt>
      <trkpt lat="59.3046416394" lon="18.0684243786">
        <ele>13</ele>
        <time>2010-11-18T09:54:25Z</time>
      </trkpt>
      <trkpt lat="59.3046205171" lon="18.0685197647">
        <ele>13</ele>
        <time>2010-11-18T09:54:27Z</time>
      </trkpt>
      <trkpt lat="59.3045952037" lon="18.0686665317">
        <ele>13</ele>
        <time>2010-11-18T09:54:30Z</time>
      </trkpt>
      <trkpt lat="59.3045739137" lon="18.0687656058">
        <ele>13</ele>
        <time>2010-11-18T09:54:32Z</time>
      </trkpt>
      <trkpt lat="59.3045470916" lon="18.0688725588">
        <ele>13</ele>
        <time>2010-11-18T09:54:34Z</time>
      </trkpt>
      <trkpt lat="59.3045190961" lon="18.0689628319">
        <ele>13</ele>
        <time>2010-11-18T09:54:36Z</time>
      </trkpt>
      <trkpt lat="59.3045023323" lon="18.0690593076">
        <ele>13</ele>
        <time>2010-11-18T09:54:38Z</time>
      </trkpt>
      <trkpt lat="59.3044891727" lon="18.0691625726">
        <ele>13</ele>
        <time>2010-11-18T09:54:40Z</time>
      </trkpt>
      <trkpt lat="59.3044719898" lon="18.0692627363">
        <ele>13</ele>
        <time>2010-11-18T09:54:42Z</time>
      </trkpt>
      <trkpt lat="59.3044573215" lon="18.0693622294">
        <ele>13</ele>
        <time>2010-11-18T09:54:44Z</time>
      </trkpt>
      <trkpt lat="59.3044398871" lon="18.0694608006">
        <ele>13</ele>
        <time>2010-11-18T09:54:46Z</time>
      </trkpt>
      <trkpt lat="59.3044175913" lon="18.0695511575">
        <ele>13</ele>
        <time>2010-11-18T09:54:48Z</time>
      </trkpt>
      <trkpt lat="59.3044000731" lon="18.0696512373">
        <ele>13</ele>
        <time>2010-11-18T09:54:50Z</time>
      </trkpt>
      <trkpt lat="59.3043806271" lon="18.0697498085">
        <ele>13</ele>
        <time>2010-11-18T09:54:52Z</time>
      </trkpt>
      <trkpt lat="59.3043623545" lon="18.0698503075">
        <ele>13</ele>
        <time>2010-11-18T09:54:54Z</time>
      </trkpt>
      <trkpt lat="59.3043445849" lon="18.0699432627">
        <ele>13</ele>
        <time>2010-11-18T09:54:56Z</time>
      </trkpt>
      <trkpt lat="59.304324636" lon="18.0700349607">
        <ele>13</ele>
        <time>2010-11-18T09:54:58Z</time>
      </trkpt>
      <trkpt lat="59.3042995741" lon="18.0701295924">
        <ele>13</ele>
        <time>2010-11-18T09:55:00Z</time>
      </trkpt>
      <trkpt lat="59.3042776135" lon="18.0702221286">
        <ele>13</ele>
        <time>2010-11-18T09:55:02Z</time>
      </trkpt>
      <trkpt lat="59.3042580837" lon="18.0703124854">
        <ele>13</ele>
        <time>2010-11-18T09:55:04Z</time>
      </trkpt>
      <trkpt lat="59.3042359555" lon="18.0704144093">
        <ele>13</ele>
        <time>2010-11-18T09:55:06Z</time>
      </trkpt>
      <trkpt lat="59.3042194431" lon="18.0705211947">
        <ele>13</ele>
        <time>2010-11-18T09:55:08Z</time>
      </trkpt>
      <trkpt lat="59.3042087143" lon="18.0706143177">
        <ele>13</ele>
        <time>2010-11-18T09:55:10Z</time>
      </trkpt>
      <trkpt lat="59.3041960576" lon="18.0707073567">
        <ele>13</ele>
        <time>2010-11-18T09:55:12Z</time>
      </trkpt>
      <trkpt lat="59.3041775336" lon="18.0708051735">
        <ele>13</ele>
        <time>2010-11-18T09:55:14Z</time>
      </trkpt>
      <trkpt lat="59.304171331" lon="18.0709003081">
        <ele>13</ele>
        <time>2010-11-18T09:55:16Z</time>
      </trkpt>
      <trkpt lat="59.3041673077" lon="18.0709966161">
        <ele>13</ele>
        <time>2010-11-18T09:55:18Z</time>
      </trkpt>
      <trkpt lat="59.3041626977" lon="18.0711018928">
        <ele>13</ele>
        <time>2010-11-18T09:55:20Z</time>
      </trkpt>
      <trkpt lat="59.3041599316" lon="18.0712001286">
        <ele>13</ele>
        <time>2010-11-18T09:55:22Z</time>
      </trkpt>
      <trkpt lat="59.3041526394" lon="18.071303226">
        <ele>13</ele>
        <time>2010-11-18T09:55:24Z</time>
      </trkpt>
      <trkpt lat="59.3041475264" lon="18.0714118554">
        <ele>13</ele>
        <time>2010-11-18T09:55:26Z</time>
      </trkpt>
      <trkpt lat="59.3041406533" lon="18.071521826">
        <ele>13</ele>
        <time>2010-11-18T09:55:28Z</time>
      </trkpt>
      <trkpt lat="59.3041358756" lon="18.0716332214">
        <ele>13</ele>
        <time>2010-11-18T09:55:30Z</time>
      </trkpt>
      <trkpt lat="59.3041286672" lon="18.0717331337">
        <ele>13</ele>
        <time>2010-11-18T09:55:32Z</time>
      </trkpt>
      <trkpt lat="59.304129673" lon="18.0718420984">
        <ele>13</ele>
        <time>2010-11-18T09:55:34Z</time>
      </trkpt>
      <trkpt lat="59.3041263202" lon="18.0719560922">
        <ele>13.6</ele>
        <time>2010-11-18T09:55:36Z</time>
      </trkpt>
      <trkpt lat="59.3041155076" lon="18.0721189525">
        <ele>13.8</ele>
        <time>2010-11-18T09:55:39Z</time>
      </trkpt>
      <trkpt lat="59.3041058684" lon="18.0722315214">
        <ele>14</ele>
        <time>2010-11-18T09:55:41Z</time>
      </trkpt>
      <trkpt lat="59.3041021804" lon="18.0723385583">
        <ele>14.2</ele>
        <time>2010-11-18T09:55:43Z</time>
      </trkpt>
      <trkpt lat="59.3041072095" lon="18.0723880115">
        <ele>14.4</ele>
        <time>2010-11-18T09:55:44Z</time>
      </trkpt>
      <trkpt lat="59.304121794" lon="18.0724908574">
        <ele>14.6</ele>
        <time>2010-11-18T09:55:46Z</time>
      </trkpt>
      <trkpt lat="59.3041322714" lon="18.0725956312">
        <ele>14.6</ele>
        <time>2010-11-18T09:55:48Z</time>
      </trkpt>
      <trkpt lat="59.3041414915" lon="18.072652209">
        <ele>14.6</ele>
        <time>2010-11-18T09:55:49Z</time>
      </trkpt>
      <trkpt lat="59.3041480293" lon="18.072701746">
        <ele>14.8</ele>
        <time>2010-11-18T09:55:50Z</time>
      </trkpt>
      <trkpt lat="59.3041506277" lon="18.0728033347">
        <ele>15</ele>
        <time>2010-11-18T09:55:52Z</time>
      </trkpt>
      <trkpt lat="59.3041565789" lon="18.0729094495">
        <ele>15.4</ele>
        <time>2010-11-18T09:55:54Z</time>
      </trkpt>
      <trkpt lat="59.3041671401" lon="18.0730229404">
        <ele>15.8</ele>
        <time>2010-11-18T09:55:56Z</time>
      </trkpt>
      <trkpt lat="59.3041873405" lon="18.0731294744">
        <ele>16</ele>
        <time>2010-11-18T09:55:58Z</time>
      </trkpt>
      <trkpt lat="59.3042128214" lon="18.0732233517">
        <ele>16.2</ele>
        <time>2010-11-18T09:56:00Z</time>
      </trkpt>
      <trkpt lat="59.3042378833" lon="18.0733080089">
        <ele>16.4</ele>
        <time>2010-11-18T09:56:02Z</time>
      </trkpt>
      <trkpt lat="59.3042703213" lon="18.0733932528">
        <ele>16.6</ele>
        <time>2010-11-18T09:56:04Z</time>
      </trkpt>
      <trkpt lat="59.304298233" lon="18.0734723779">
        <ele>16.6</ele>
        <time>2010-11-18T09:56:06Z</time>
      </trkpt>
      <trkpt lat="59.3043362868" lon="18.0735836057">
        <ele>16.8</ele>
        <time>2010-11-18T09:56:09Z</time>
      </trkpt>
      <trkpt lat="59.3043684733" lon="18.0736967614">
        <ele>17</ele>
        <time>2010-11-18T09:56:12Z</time>
      </trkpt>
      <trkpt lat="59.3043887575" lon="18.073792818">
        <ele>17</ele>
        <time>2010-11-18T09:56:14Z</time>
      </trkpt>
      <trkpt lat="59.304398732" lon="18.0738419359">
        <ele>17</ele>
        <time>2010-11-18T09:56:15Z</time>
      </trkpt>
      <trkpt lat="59.3044025038" lon="18.0739958276">
        <ele>17</ele>
        <time>2010-11-18T09:56:18Z</time>
      </trkpt>
      <trkpt lat="59.3043990673" lon="18.0740954045">
        <ele>17</ele>
        <time>2010-11-18T09:56:20Z</time>
      </trkpt>
      <trkpt lat="59.3043924456" lon="18.0741996754">
        <ele>17</ele>
        <time>2010-11-18T09:56:22Z</time>
      </trkpt>
      <trkpt lat="59.304384818" lon="18.0743465263">
        <ele>17.2</ele>
        <time>2010-11-18T09:56:25Z</time>
      </trkpt>
      <trkpt lat="59.3043720775" lon="18.0744941315">
        <ele>17.2</ele>
        <time>2010-11-18T09:56:28Z</time>
      </trkpt>
      <trkpt lat="59.3043281564" lon="18.0747243823">
        <ele>17.2</ele>
        <time>2010-11-18T09:56:33Z</time>
      </trkpt>
      <trkpt lat="59.3042695669" lon="18.0749545493">
        <ele>17.2</ele>
        <time>2010-11-18T09:56:38Z</time>
      </trkpt>
      <trkpt lat="59.3042271545" lon="18.0750357699">
        <ele>17.2</ele>
        <time>2010-11-18T09:56:40Z</time>
      </trkpt>
      <trkpt lat="59.3040956425" lon="18.0752350915">
        <ele>17.2</ele>
        <time>2010-11-18T09:56:46Z</time>
      </trkpt>
      <trkpt lat="59.304072257" lon="18.0752789288">
        <ele>17.2</ele>
        <time>2010-11-18T09:56:47Z</time>
      </trkpt>
      <trkpt lat="59.3039947244" lon="18.0753658491">
        <ele>17.2</ele>
        <time>2010-11-18T09:56:50Z</time>
      </trkpt>
      <trkpt lat="59.3039331174" lon="18.0754665157">
        <ele>17.2</ele>
        <time>2010-11-18T09:56:53Z</time>
      </trkpt>
      <trkpt lat="59.3038881904" lon="18.0755352473">
        <ele>17.2</ele>
        <time>2010-11-18T09:56:55Z</time>
      </trkpt>
      <trkpt lat="59.3038449398" lon="18.0756061582">
        <ele>17.2</ele>
        <time>2010-11-18T09:56:57Z</time>
      </trkpt>
      <trkpt lat="59.3038052096" lon="18.0756968504">
        <ele>17.2</ele>
        <time>2010-11-18T09:56:59Z</time>
      </trkpt>
      <trkpt lat="59.3037581872" lon="18.0757862014">
        <ele>17.2</ele>
        <time>2010-11-18T09:57:01Z</time>
      </trkpt>
      <trkpt lat="59.3037156071" lon="18.0758731217">
        <ele>17.2</ele>
        <time>2010-11-18T09:57:03Z</time>
      </trkpt>
      <trkpt lat="59.3036798164" lon="18.0759603773">
        <ele>17.2</ele>
        <time>2010-11-18T09:57:05Z</time>
      </trkpt>
      <trkpt lat="59.3036466241" lon="18.0760580264">
        <ele>17.2</ele>
        <time>2010-11-18T09:57:07Z</time>
      </trkpt>
      <trkpt lat="59.3036206402" lon="18.0761579387">
        <ele>17.2</ele>
        <time>2010-11-18T09:57:09Z</time>
      </trkpt>
      <trkpt lat="59.3036090732" lon="18.076261036">
        <ele>17.2</ele>
        <time>2010-11-18T09:57:11Z</time>
      </trkpt>
      <trkpt lat="59.3035998531" lon="18.0763714257">
        <ele>17.2</ele>
        <time>2010-11-18T09:57:13Z</time>
      </trkpt>
      <trkpt lat="59.3036024515" lon="18.0764792169">
        <ele>17.2</ele>
        <time>2010-11-18T09:57:15Z</time>
      </trkpt>
      <trkpt lat="59.3036139347" lon="18.0765906124">
        <ele>17.2</ele>
        <time>2010-11-18T09:57:17Z</time>
      </trkpt>
      <trkpt lat="59.3036275134" lon="18.076701924">
        <ele>17.2</ele>
        <time>2010-11-18T09:57:19Z</time>
      </trkpt>
      <trkpt lat="59.3036409244" lon="18.0768109725">
        <ele>17.2</ele>
        <time>2010-11-18T09:57:21Z</time>
      </trkpt>
      <trkpt lat="59.3036571853" lon="18.0769203563">
        <ele>17.6</ele>
        <time>2010-11-18T09:57:23Z</time>
      </trkpt>
      <trkpt lat="59.3036752064" lon="18.0770212744">
        <ele>18</ele>
        <time>2010-11-18T09:57:25Z</time>
      </trkpt>
      <trkpt lat="59.3036984242" lon="18.07711775">
        <ele>18.2</ele>
        <time>2010-11-18T09:57:27Z</time>
      </trkpt>
      <trkpt lat="59.3037206363" lon="18.0772181652">
        <ele>18.4</ele>
        <time>2010-11-18T09:57:29Z</time>
      </trkpt>
      <trkpt lat="59.3037395794" lon="18.0773086897">
        <ele>18.6</ele>
        <time>2010-11-18T09:57:31Z</time>
      </trkpt>
      <trkpt lat="59.3037436865" lon="18.0774054169">
        <ele>18.6</ele>
        <time>2010-11-18T09:57:33Z</time>
      </trkpt>
      <trkpt lat="59.3037556726" lon="18.0775288822">
        <ele>18.8</ele>
        <time>2010-11-18T09:57:36Z</time>
      </trkpt>
      <trkpt lat="59.3037727717" lon="18.0776256094">
        <ele>19</ele>
        <time>2010-11-18T09:57:38Z</time>
      </trkpt>
      <trkpt lat="59.3037773817" lon="18.0777490748">
        <ele>19</ele>
        <time>2010-11-18T09:57:41Z</time>
      </trkpt>
      <trkpt lat="59.3037948161" lon="18.0778786589">
        <ele>19</ele>
        <time>2010-11-18T09:57:44Z</time>
      </trkpt>
      <trkpt lat="59.3038124181" lon="18.0779799123">
        <ele>19.4</ele>
        <time>2010-11-18T09:57:46Z</time>
      </trkpt>
      <trkpt lat="59.3038365579" lon="18.078078232">
        <ele>19.8</ele>
        <time>2010-11-18T09:57:48Z</time>
      </trkpt>
      <trkpt lat="59.3038549143" lon="18.0781731151">
        <ele>20</ele>
        <time>2010-11-18T09:57:50Z</time>
      </trkpt>
      <trkpt lat="59.303874528" lon="18.0782720215">
        <ele>20.2</ele>
        <time>2010-11-18T09:57:52Z</time>
      </trkpt>
      <trkpt lat="59.3038932196" lon="18.0783726881">
        <ele>20.4</ele>
        <time>2010-11-18T09:57:54Z</time>
      </trkpt>
      <trkpt lat="59.3039192035" lon="18.0784673198">
        <ele>20.6</ele>
        <time>2010-11-18T09:57:56Z</time>
      </trkpt>
      <trkpt lat="59.3039551618" lon="18.0785289267">
        <ele>20.8</ele>
        <time>2010-11-18T09:57:58Z</time>
      </trkpt>
      <trkpt lat="59.304000005" lon="18.0785560003">
        <ele>20.8</ele>
        <time>2010-11-18T09:58:00Z</time>
      </trkpt>
      <trkpt lat="59.3040459378" lon="18.0785850016">
        <ele>21</ele>
        <time>2010-11-18T09:58:02Z</time>
      </trkpt>
      <trkpt lat="59.3040932117" lon="18.0786230555">
        <ele>21</ele>
        <time>2010-11-18T09:58:04Z</time>
      </trkpt>
      <trkpt lat="59.3041338639" lon="18.07868022">
        <ele>21.2</ele>
        <time>2010-11-18T09:58:06Z</time>
      </trkpt>
      <trkpt lat="59.3041708281" lon="18.0787939624">
        <ele>21.2</ele>
        <time>2010-11-18T09:58:09Z</time>
      </trkpt>
      <trkpt lat="59.3041916152" lon="18.0789362032">
        <ele>21.2</ele>
        <time>2010-11-18T09:58:12Z</time>
      </trkpt>
      <trkpt lat="59.3041963929" lon="18.0790369537">
        <ele>21.2</ele>
        <time>2010-11-18T09:58:14Z</time>
      </trkpt>
      <trkpt lat="59.3041465206" lon="18.0792263008">
        <ele>21.4</ele>
        <time>2010-11-18T09:58:18Z</time>
      </trkpt>
      <trkpt lat="59.3041250629" lon="18.0792616724">
        <ele>21.6</ele>
        <time>2010-11-18T09:58:19Z</time>
      </trkpt>
      <trkpt lat="59.3040783758" lon="18.0793212677">
        <ele>22</ele>
        <time>2010-11-18T09:58:21Z</time>
      </trkpt>
      <trkpt lat="59.304031018" lon="18.0793756663">
        <ele>22.2</ele>
        <time>2010-11-18T09:58:23Z</time>
      </trkpt>
      <trkpt lat="59.303977793" lon="18.0794304001">
        <ele>22.6</ele>
        <time>2010-11-18T09:58:25Z</time>
      </trkpt>
      <trkpt lat="59.3039235621" lon="18.0794793504">
        <ele>22.6</ele>
        <time>2010-11-18T09:58:27Z</time>
      </trkpt>
      <trkpt lat="59.3038751147" lon="18.0795101119">
        <ele>22.8</ele>
        <time>2010-11-18T09:58:29Z</time>
      </trkpt>
      <trkpt lat="59.3038187883" lon="18.0795780053">
        <ele>23.2</ele>
        <time>2010-11-18T09:58:31Z</time>
      </trkpt>
      <trkpt lat="59.3037653118" lon="18.0796329906">
        <ele>23.6</ele>
        <time>2010-11-18T09:58:33Z</time>
      </trkpt>
      <trkpt lat="59.3037392441" lon="18.0796518499">
        <ele>23.8</ele>
        <time>2010-11-18T09:58:34Z</time>
      </trkpt>
      <trkpt lat="59.303663807" lon="18.0797430449">
        <ele>24.4</ele>
        <time>2010-11-18T09:58:37Z</time>
      </trkpt>
      <trkpt lat="59.3036147729" lon="18.079795348">
        <ele>24.6</ele>
        <time>2010-11-18T09:58:39Z</time>
      </trkpt>
      <trkpt lat="59.3035657388" lon="18.0798390177">
        <ele>25.2</ele>
        <time>2010-11-18T09:58:41Z</time>
      </trkpt>
      <trkpt lat="59.3035132681" lon="18.0798736349">
        <ele>25.8</ele>
        <time>2010-11-18T09:58:43Z</time>
      </trkpt>
      <trkpt lat="59.3034613003" lon="18.0799058214">
        <ele>26.2</ele>
        <time>2010-11-18T09:58:45Z</time>
      </trkpt>
      <trkpt lat="59.3034094163" lon="18.0799425342">
        <ele>26.4</ele>
        <time>2010-11-18T09:58:47Z</time>
      </trkpt>
      <trkpt lat="59.3033539281" lon="18.079977822">
        <ele>26.8</ele>
        <time>2010-11-18T09:58:49Z</time>
      </trkpt>
      <trkpt lat="59.3033040558" lon="18.0799996987">
        <ele>27.2</ele>
        <time>2010-11-18T09:58:51Z</time>
      </trkpt>
      <trkpt lat="59.3032492382" lon="18.0800177198">
        <ele>27.6</ele>
        <time>2010-11-18T09:58:53Z</time>
      </trkpt>
      <trkpt lat="59.3031806743" lon="18.080048649">
        <ele>28.2</ele>
        <time>2010-11-18T09:58:56Z</time>
      </trkpt>
      <trkpt lat="59.3031400221" lon="18.0800754711">
        <ele>28.8</ele>
        <time>2010-11-18T09:58:59Z</time>
      </trkpt>
      <trkpt lat="59.3031300476" lon="18.080080165">
        <ele>28.8</ele>
        <time>2010-11-18T09:59:00Z</time>
      </trkpt>
      <trkpt lat="59.303101633" lon="18.080146382">
        <ele>29.2</ele>
        <time>2010-11-18T09:59:04Z</time>
      </trkpt>
      <trkpt lat="59.3030730507" lon="18.0802379123">
        <ele>29.4</ele>
        <time>2010-11-18T09:59:07Z</time>
      </trkpt>
      <trkpt lat="59.3030638306" lon="18.080326509">
        <ele>29.6</ele>
        <time>2010-11-18T09:59:09Z</time>
      </trkpt>
      <trkpt lat="59.3030574603" lon="18.0803653172">
        <ele>29.6</ele>
        <time>2010-11-18T09:59:10Z</time>
      </trkpt>
      <trkpt lat="59.3029928359" lon="18.0804786405">
        <ele>29.8</ele>
        <time>2010-11-18T09:59:14Z</time>
      </trkpt>
      <trkpt lat="59.3029651756" lon="18.0805366432">
        <ele>29.8</ele>
        <time>2010-11-18T09:59:16Z</time>
      </trkpt>
      <trkpt lat="59.3029476574" lon="18.0805694165">
        <ele>29.8</ele>
        <time>2010-11-18T09:59:17Z</time>
      </trkpt>
      <trkpt lat="59.3029134593" lon="18.0806323645">
        <ele>29.8</ele>
        <time>2010-11-18T09:59:19Z</time>
      </trkpt>
      <trkpt lat="59.302864509" lon="18.0806866792">
        <ele>29.8</ele>
        <time>2010-11-18T09:59:22Z</time>
      </trkpt>
      <trkpt lat="59.3028836197" lon="18.0806713404">
        <ele>29.8</ele>
        <time>2010-11-18T09:59:27Z</time>
      </trkpt>
      <trkpt lat="59.302903401" lon="18.0806366393">
        <ele>30</ele>
        <time>2010-11-18T09:59:29Z</time>
      </trkpt>
      <trkpt lat="59.3029382697" lon="18.0805627948">
        <ele>30</ele>
        <time>2010-11-18T09:59:33Z</time>
      </trkpt>
      <trkpt lat="59.3029538601" lon="18.0805280937">
        <ele>29.8</ele>
        <time>2010-11-18T09:59:35Z</time>
      </trkpt>
      <trkpt lat="59.3029720488" lon="18.0805784689">
        <ele>29</ele>
        <time>2010-11-18T09:59:39Z</time>
      </trkpt>
      <trkpt lat="59.3029664329" lon="18.080592802">
        <ele>29</ele>
        <time>2010-11-18T09:59:40Z</time>
      </trkpt>
      <trkpt lat="59.3029619067" lon="18.0806091467">
        <ele>28.8</ele>
        <time>2010-11-18T09:59:41Z</time>
      </trkpt>
      <trkpt lat="59.302925194" lon="18.0806984977">
        <ele>27.4</ele>
        <time>2010-11-18T09:59:47Z</time>
      </trkpt>
      <trkpt lat="59.3029013894" lon="18.0807628707">
        <ele>26.2</ele>
        <time>2010-11-18T09:59:51Z</time>
      </trkpt>
      <trkpt lat="59.3029143813" lon="18.0808259026">
        <ele>25.4</ele>
        <time>2010-11-18T09:59:54Z</time>
      </trkpt>
      <trkpt lat="59.3029330729" lon="18.0808700752">
        <ele>25</ele>
        <time>2010-11-18T09:59:56Z</time>
      </trkpt>
      <trkpt lat="59.3029759045" lon="18.080985494">
        <ele>24.2</ele>
        <time>2010-11-18T09:59:59Z</time>
      </trkpt>
      <trkpt lat="59.3030012178" lon="18.0810621045">
        <ele>23.6</ele>
        <time>2010-11-18T10:00:01Z</time>
      </trkpt>
      <trkpt lat="59.3030318955" lon="18.0811258908">
        <ele>23</ele>
        <time>2010-11-18T10:00:03Z</time>
      </trkpt>
      <trkpt lat="59.303064082" lon="18.0811972208">
        <ele>22.8</ele>
        <time>2010-11-18T10:00:05Z</time>
      </trkpt>
      <trkpt lat="59.3030944245" lon="18.0812651142">
        <ele>22.4</ele>
        <time>2010-11-18T10:00:07Z</time>
      </trkpt>
      <trkpt lat="59.3031155469" lon="18.0813532918">
        <ele>22.2</ele>
        <time>2010-11-18T10:00:09Z</time>
      </trkpt>
      <trkpt lat="59.3031289579" lon="18.0813903397">
        <ele>22</ele>
        <time>2010-11-18T10:00:10Z</time>
      </trkpt>
      <trkpt lat="59.3031577079" lon="18.0814770086">
        <ele>21.8</ele>
        <time>2010-11-18T10:00:12Z</time>
      </trkpt>
      <trkpt lat="59.3031774891" lon="18.0815853866">
        <ele>21.8</ele>
        <time>2010-11-18T10:00:14Z</time>
      </trkpt>
      <trkpt lat="59.3031857872" lon="18.0816397851">
        <ele>21.6</ele>
        <time>2010-11-18T10:00:15Z</time>
      </trkpt>
      <trkpt lat="59.3032022996" lon="18.0817481631">
        <ele>21.6</ele>
        <time>2010-11-18T10:00:17Z</time>
      </trkpt>
      <trkpt lat="59.3032209912" lon="18.0818582174">
        <ele>21.4</ele>
        <time>2010-11-18T10:00:19Z</time>
      </trkpt>
      <trkpt lat="59.3032433709" lon="18.0819653381">
        <ele>21.4</ele>
        <time>2010-11-18T10:00:21Z</time>
      </trkpt>
      <trkpt lat="59.3032634036" lon="18.0820740513">
        <ele>21.4</ele>
        <time>2010-11-18T10:00:23Z</time>
      </trkpt>
      <trkpt lat="59.3032843584" lon="18.0821702755">
        <ele>21.4</ele>
        <time>2010-11-18T10:00:25Z</time>
      </trkpt>
      <trkpt lat="59.3033019604" lon="18.0822808328">
        <ele>21.2</ele>
        <time>2010-11-18T10:00:27Z</time>
      </trkpt>
      <trkpt lat="59.3033161258" lon="18.0823764703">
        <ele>21.2</ele>
        <time>2010-11-18T10:00:29Z</time>
      </trkpt>
      <trkpt lat="59.3033403495" lon="18.0824905479">
        <ele>21.2</ele>
        <time>2010-11-18T10:00:31Z</time>
      </trkpt>
      <trkpt lat="59.3033575324" lon="18.0825955732">
        <ele>21.2</ele>
        <time>2010-11-18T10:00:33Z</time>
      </trkpt>
      <trkpt lat="59.3033836839" lon="18.0826997602">
        <ele>21.2</ele>
        <time>2010-11-18T10:00:35Z</time>
      </trkpt>
      <trkpt lat="59.3034079076" lon="18.0827900332">
        <ele>21.2</ele>
        <time>2010-11-18T10:00:37Z</time>
      </trkpt>
      <trkpt lat="59.3034381662" lon="18.0829073798">
        <ele>21.2</ele>
        <time>2010-11-18T10:00:39Z</time>
      </trkpt>
      <trkpt lat="59.3034613841" lon="18.0830109801">
        <ele>21.2</ele>
        <time>2010-11-18T10:00:41Z</time>
      </trkpt>
      <trkpt lat="59.3034862783" lon="18.0831035163">
        <ele>21.2</ele>
        <time>2010-11-18T10:00:43Z</time>
      </trkpt>
      <trkpt lat="59.3035217338" lon="18.0831887602">
        <ele>21.2</ele>
        <time>2010-11-18T10:00:45Z</time>
      </trkpt>
      <trkpt lat="59.3035536688" lon="18.0832682206">
        <ele>21.2</ele>
        <time>2010-11-18T10:00:47Z</time>
      </trkpt>
      <trkpt lat="59.3035840951" lon="18.0833504471">
        <ele>21.2</ele>
        <time>2010-11-18T10:00:49Z</time>
      </trkpt>
      <trkpt lat="59.3036061395" lon="18.0834460845">
        <ele>21.2</ele>
        <time>2010-11-18T10:00:51Z</time>
      </trkpt>
      <trkpt lat="59.3036372364" lon="18.0835418058">
        <ele>21.2</ele>
        <time>2010-11-18T10:00:53Z</time>
      </trkpt>
      <trkpt lat="59.3036612924" lon="18.0836398741">
        <ele>21.2</ele>
        <time>2010-11-18T10:00:55Z</time>
      </trkpt>
      <trkpt lat="59.3036855999" lon="18.0837317397">
        <ele>21.2</ele>
        <time>2010-11-18T10:00:57Z</time>
      </trkpt>
      <trkpt lat="59.3036995139" lon="18.0838371002">
        <ele>21.2</ele>
        <time>2010-11-18T10:00:59Z</time>
      </trkpt>
      <trkpt lat="59.3037158586" lon="18.0839372639">
        <ele>21.2</ele>
        <time>2010-11-18T10:01:01Z</time>
      </trkpt>
      <trkpt lat="59.3037306945" lon="18.0840375952">
        <ele>21.2</ele>
        <time>2010-11-18T10:01:03Z</time>
      </trkpt>
      <trkpt lat="59.3037479613" lon="18.0841349929">
        <ele>21.2</ele>
        <time>2010-11-18T10:01:05Z</time>
      </trkpt>
      <trkpt lat="59.3037667367" lon="18.0842300437">
        <ele>21.2</ele>
        <time>2010-11-18T10:01:07Z</time>
      </trkpt>
      <trkpt lat="59.3037923853" lon="18.084335488">
        <ele>21.2</ele>
        <time>2010-11-18T10:01:09Z</time>
      </trkpt>
      <trkpt lat="59.3038131724" lon="18.0844389206">
        <ele>21.2</ele>
        <time>2010-11-18T10:01:11Z</time>
      </trkpt>
      <trkpt lat="59.3038394916" lon="18.0845383299">
        <ele>21.2</ele>
        <time>2010-11-18T10:01:13Z</time>
      </trkpt>
      <trkpt lat="59.303864302" lon="18.084638326">
        <ele>21.2</ele>
        <time>2010-11-18T10:01:15Z</time>
      </trkpt>
      <trkpt lat="59.3038868493" lon="18.0847367295">
        <ele>21.2</ele>
        <time>2010-11-18T10:01:17Z</time>
      </trkpt>
      <trkpt lat="59.3039135038" lon="18.0848405812">
        <ele>21.2</ele>
        <time>2010-11-18T10:01:19Z</time>
      </trkpt>
      <trkpt lat="59.3039404935" lon="18.0849441815">
        <ele>21.2</ele>
        <time>2010-11-18T10:01:21Z</time>
      </trkpt>
      <trkpt lat="59.3039793017" lon="18.0850916192">
        <ele>21.2</ele>
        <time>2010-11-18T10:01:24Z</time>
      </trkpt>
      <trkpt lat="59.3039960655" lon="18.0851928725">
        <ele>21.2</ele>
        <time>2010-11-18T10:01:26Z</time>
      </trkpt>
      <trkpt lat="59.3040192834" lon="18.0852898511">
        <ele>21.2</ele>
        <time>2010-11-18T10:01:28Z</time>
      </trkpt>
      <trkpt lat="59.3040457702" lon="18.0853835607">
        <ele>21.2</ele>
        <time>2010-11-18T10:01:30Z</time>
      </trkpt>
      <trkpt lat="59.3040696586" lon="18.0854827186">
        <ele>21.2</ele>
        <time>2010-11-18T10:01:32Z</time>
      </trkpt>
      <trkpt lat="59.3040958101" lon="18.0855837205">
        <ele>21.2</ele>
        <time>2010-11-18T10:01:34Z</time>
      </trkpt>
      <trkpt lat="59.3041225484" lon="18.0856789389">
        <ele>21.2</ele>
        <time>2010-11-18T10:01:36Z</time>
      </trkpt>
      <trkpt lat="59.3041354565" lon="18.0857276377">
        <ele>21.2</ele>
        <time>2010-11-18T10:01:37Z</time>
      </trkpt>
      <trkpt lat="59.3041742647" lon="18.0858707168">
        <ele>21.2</ele>
        <time>2010-11-18T10:01:40Z</time>
      </trkpt>
      <trkpt lat="59.3041924534" lon="18.0859634206">
        <ele>21.2</ele>
        <time>2010-11-18T10:01:42Z</time>
      </trkpt>
      <trkpt lat="59.3042131567" lon="18.0860588904">
        <ele>21.2</ele>
        <time>2010-11-18T10:01:44Z</time>
      </trkpt>
      <trkpt lat="59.304240817" lon="18.0861500855">
        <ele>21.2</ele>
        <time>2010-11-18T10:01:46Z</time>
      </trkpt>
      <trkpt lat="59.3042730035" lon="18.0862426217">
        <ele>20.8</ele>
        <time>2010-11-18T10:01:48Z</time>
      </trkpt>
      <trkpt lat="59.3043031783" lon="18.0863343196">
        <ele>20.4</ele>
        <time>2010-11-18T10:01:50Z</time>
      </trkpt>
      <trkpt lat="59.3043185172" lon="18.0863800848">
        <ele>20.2</ele>
        <time>2010-11-18T10:01:51Z</time>
      </trkpt>
      <trkpt lat="59.304330168" lon="18.0864136962">
        <ele>20.2</ele>
        <time>2010-11-18T10:01:52Z</time>
      </trkpt>
      <trkpt lat="59.3043553137" lon="18.0865258461">
        <ele>20</ele>
        <time>2010-11-18T10:01:54Z</time>
      </trkpt>
      <trkpt lat="59.304382974" lon="18.0866188013">
        <ele>19.8</ele>
        <time>2010-11-18T10:01:56Z</time>
      </trkpt>
      <trkpt lat="59.3044105505" lon="18.0867138521">
        <ele>19.6</ele>
        <time>2010-11-18T10:01:58Z</time>
      </trkpt>
      <trkpt lat="59.3044365343" lon="18.0868053824">
        <ele>19.6</ele>
        <time>2010-11-18T10:02:00Z</time>
      </trkpt>
      <trkpt lat="59.3044682179" lon="18.086902361">
        <ele>19.4</ele>
        <time>2010-11-18T10:02:02Z</time>
      </trkpt>
      <trkpt lat="59.3044956267" lon="18.0870063804">
        <ele>19.4</ele>
        <time>2010-11-18T10:02:04Z</time>
      </trkpt>
      <trkpt lat="59.3045220297" lon="18.0871087234">
        <ele>19.4</ele>
        <time>2010-11-18T10:02:06Z</time>
      </trkpt>
      <trkpt lat="59.3045470916" lon="18.0872050314">
        <ele>19.2</ele>
        <time>2010-11-18T10:02:08Z</time>
      </trkpt>
      <trkpt lat="59.3045693875" lon="18.0873093023">
        <ele>19.2</ele>
        <time>2010-11-18T10:02:10Z</time>
      </trkpt>
      <trkpt lat="59.3045987241" lon="18.0874031795">
        <ele>19.2</ele>
        <time>2010-11-18T10:02:12Z</time>
      </trkpt>
      <trkpt lat="59.3046297371" lon="18.0874979788">
        <ele>19.2</ele>
        <time>2010-11-18T10:02:14Z</time>
      </trkpt>
      <trkpt lat="59.3046604149" lon="18.0875902635">
        <ele>19.2</ele>
        <time>2010-11-18T10:02:16Z</time>
      </trkpt>
      <trkpt lat="59.3046915117" lon="18.0876848952">
        <ele>19.2</ele>
        <time>2010-11-18T10:02:18Z</time>
      </trkpt>
      <trkpt lat="59.304719172" lon="18.0877765094">
        <ele>19.2</ele>
        <time>2010-11-18T10:02:20Z</time>
      </trkpt>
      <trkpt lat="59.3047464132" lon="18.0878682912">
        <ele>19.2</ele>
        <time>2010-11-18T10:02:22Z</time>
      </trkpt>
      <trkpt lat="59.3047739058" lon="18.0879604082">
        <ele>19.4</ele>
        <time>2010-11-18T10:02:24Z</time>
      </trkpt>
      <trkpt lat="59.3048034101" lon="18.0880492564">
        <ele>19.8</ele>
        <time>2010-11-18T10:02:26Z</time>
      </trkpt>
      <trkpt lat="59.3048091936" lon="18.0880940157">
        <ele>19.8</ele>
        <time>2010-11-18T10:02:27Z</time>
      </trkpt>
      <trkpt lat="59.3048110376" lon="18.0882059141">
        <ele>20.2</ele>
        <time>2010-11-18T10:02:30Z</time>
      </trkpt>
      <trkpt lat="59.3048092774" lon="18.0882482427">
        <ele>20.4</ele>
        <time>2010-11-18T10:02:31Z</time>
      </trkpt>
      <trkpt lat="59.304685393" lon="18.0884307167">
        <ele>21.8</ele>
        <time>2010-11-18T10:02:38Z</time>
      </trkpt>
      <trkpt lat="59.3046593252" lon="18.088470363">
        <ele>22</ele>
        <time>2010-11-18T10:02:39Z</time>
      </trkpt>
    </trkseg>
  </trk>
</gpx>